<?xml version="1.0" encoding="UTF-8" standalone="no" ?>
<gpx xmlns="http://www.topografix.com/GPX/1/1" xmlns:xsi="http://www.w3.org/2001/XMLSchema-instance" xsi:schemaLocation="http://www.topografix.com/GPX/1/1 http://www.topografix.com/GPX/1/1/gpx.xsd" version="1.1" creator="VisuGPX - https://www.visugpx.com">
  <metadata>
    <name>St Eutrope Bleue</name>
  </metadata>
  <trk>
    <name><![CDATA[St Eutrope Bleue_1]]></name>
    <trkseg>
      <trkpt lat="46.18627" lon="-0.47881">
        <ele>63.4</ele>
        <time>2021-03-21T08:34:00Z</time>
      </trkpt>
      <trkpt lat="46.18633" lon="-0.47889">
        <ele>63.4</ele>
        <time>2021-03-21T08:34:02Z</time>
      </trkpt>
      <trkpt lat="46.1864" lon="-0.479">
        <ele>62.6</ele>
        <time>2021-03-21T08:34:04Z</time>
      </trkpt>
      <trkpt lat="46.18647" lon="-0.47915">
        <ele>62.4</ele>
        <time>2021-03-21T08:34:06Z</time>
      </trkpt>
      <trkpt lat="46.18652" lon="-0.47922">
        <ele>62.2</ele>
        <time>2021-03-21T08:34:07Z</time>
      </trkpt>
      <trkpt lat="46.18657" lon="-0.47928">
        <ele>62</ele>
        <time>2021-03-21T08:34:08Z</time>
      </trkpt>
      <trkpt lat="46.18662" lon="-0.47932">
        <ele>61.6</ele>
        <time>2021-03-21T08:34:09Z</time>
      </trkpt>
      <trkpt lat="46.18671" lon="-0.47935">
        <ele>61.8</ele>
        <time>2021-03-21T08:34:10Z</time>
      </trkpt>
      <trkpt lat="46.1868" lon="-0.47936">
        <ele>61.8</ele>
        <time>2021-03-21T08:34:11Z</time>
      </trkpt>
      <trkpt lat="46.18688" lon="-0.47937">
        <ele>61.4</ele>
        <time>2021-03-21T08:34:12Z</time>
      </trkpt>
      <trkpt lat="46.18694" lon="-0.47938">
        <ele>61.2</ele>
        <time>2021-03-21T08:34:13Z</time>
      </trkpt>
      <trkpt lat="46.18704" lon="-0.47941">
        <ele>61</ele>
        <time>2021-03-21T08:34:14Z</time>
      </trkpt>
      <trkpt lat="46.1872" lon="-0.47949">
        <ele>60.2</ele>
        <time>2021-03-21T08:34:16Z</time>
      </trkpt>
      <trkpt lat="46.18728" lon="-0.47954">
        <ele>59.4</ele>
        <time>2021-03-21T08:34:17Z</time>
      </trkpt>
      <trkpt lat="46.18735" lon="-0.4796">
        <ele>59.2</ele>
        <time>2021-03-21T08:34:18Z</time>
      </trkpt>
      <trkpt lat="46.18742" lon="-0.47966">
        <ele>60.4</ele>
        <time>2021-03-21T08:34:19Z</time>
      </trkpt>
      <trkpt lat="46.18761" lon="-0.47984">
        <ele>61</ele>
        <time>2021-03-21T08:34:22Z</time>
      </trkpt>
      <trkpt lat="46.18776" lon="-0.48">
        <ele>60.4</ele>
        <time>2021-03-21T08:34:24Z</time>
      </trkpt>
      <trkpt lat="46.18785" lon="-0.48022">
        <ele>59.4</ele>
        <time>2021-03-21T08:34:26Z</time>
      </trkpt>
      <trkpt lat="46.18788" lon="-0.48034">
        <ele>59.2</ele>
        <time>2021-03-21T08:34:27Z</time>
      </trkpt>
      <trkpt lat="46.18792" lon="-0.48044">
        <ele>58.6</ele>
        <time>2021-03-21T08:34:28Z</time>
      </trkpt>
      <trkpt lat="46.18797" lon="-0.48054">
        <ele>58.4</ele>
        <time>2021-03-21T08:34:29Z</time>
      </trkpt>
      <trkpt lat="46.18802" lon="-0.48061">
        <ele>57.8</ele>
        <time>2021-03-21T08:34:30Z</time>
      </trkpt>
      <trkpt lat="46.18809" lon="-0.48065">
        <ele>56.8</ele>
        <time>2021-03-21T08:34:31Z</time>
      </trkpt>
      <trkpt lat="46.18816" lon="-0.48067">
        <ele>56</ele>
        <time>2021-03-21T08:34:32Z</time>
      </trkpt>
      <trkpt lat="46.18824" lon="-0.48068">
        <ele>55.6</ele>
        <time>2021-03-21T08:34:33Z</time>
      </trkpt>
      <trkpt lat="46.18832" lon="-0.48071">
        <ele>55.6</ele>
        <time>2021-03-21T08:34:34Z</time>
      </trkpt>
      <trkpt lat="46.18839" lon="-0.48075">
        <ele>55.2</ele>
        <time>2021-03-21T08:34:35Z</time>
      </trkpt>
      <trkpt lat="46.18845" lon="-0.4808">
        <ele>55</ele>
        <time>2021-03-21T08:34:36Z</time>
      </trkpt>
      <trkpt lat="46.18849" lon="-0.48084">
        <ele>54.8</ele>
        <time>2021-03-21T08:34:37Z</time>
      </trkpt>
      <trkpt lat="46.18852" lon="-0.48086">
        <ele>54.8</ele>
        <time>2021-03-21T08:34:38Z</time>
      </trkpt>
      <trkpt lat="46.18853" lon="-0.48086">
        <ele>54.8</ele>
        <time>2021-03-21T08:34:39Z</time>
      </trkpt>
      <trkpt lat="46.18853" lon="-0.48086">
        <ele>54.6</ele>
        <time>2021-03-21T08:34:40Z</time>
      </trkpt>
      <trkpt lat="46.18853" lon="-0.48086">
        <ele>54.6</ele>
        <time>2021-03-21T08:34:41Z</time>
      </trkpt>
      <trkpt lat="46.18857" lon="-0.48087">
        <ele>56.4</ele>
        <time>2021-03-21T08:34:46Z</time>
      </trkpt>
      <trkpt lat="46.18864" lon="-0.48084">
        <ele>57.6</ele>
        <time>2021-03-21T08:34:48Z</time>
      </trkpt>
      <trkpt lat="46.18868" lon="-0.4808">
        <ele>57.8</ele>
        <time>2021-03-21T08:34:49Z</time>
      </trkpt>
      <trkpt lat="46.18873" lon="-0.48076">
        <ele>58</ele>
        <time>2021-03-21T08:34:50Z</time>
      </trkpt>
      <trkpt lat="46.18879" lon="-0.4807">
        <ele>58</ele>
        <time>2021-03-21T08:34:51Z</time>
      </trkpt>
      <trkpt lat="46.18886" lon="-0.48064">
        <ele>58</ele>
        <time>2021-03-21T08:34:52Z</time>
      </trkpt>
      <trkpt lat="46.18893" lon="-0.48058">
        <ele>58</ele>
        <time>2021-03-21T08:34:53Z</time>
      </trkpt>
      <trkpt lat="46.18901" lon="-0.48052">
        <ele>58</ele>
        <time>2021-03-21T08:34:54Z</time>
      </trkpt>
      <trkpt lat="46.18934" lon="-0.48028">
        <ele>57.4</ele>
        <time>2021-03-21T08:34:58Z</time>
      </trkpt>
      <trkpt lat="46.18944" lon="-0.48019">
        <ele>56.6</ele>
        <time>2021-03-21T08:34:59Z</time>
      </trkpt>
      <trkpt lat="46.18953" lon="-0.48011">
        <ele>56</ele>
        <time>2021-03-21T08:35:00Z</time>
      </trkpt>
      <trkpt lat="46.18961" lon="-0.48003">
        <ele>55.2</ele>
        <time>2021-03-21T08:35:01Z</time>
      </trkpt>
      <trkpt lat="46.18984" lon="-0.47978">
        <ele>53.6</ele>
        <time>2021-03-21T08:35:04Z</time>
      </trkpt>
      <trkpt lat="46.18992" lon="-0.4797">
        <ele>52.6</ele>
        <time>2021-03-21T08:35:05Z</time>
      </trkpt>
      <trkpt lat="46.19006" lon="-0.47955">
        <ele>51.4</ele>
        <time>2021-03-21T08:35:07Z</time>
      </trkpt>
      <trkpt lat="46.19012" lon="-0.47947">
        <ele>51.2</ele>
        <time>2021-03-21T08:35:08Z</time>
      </trkpt>
      <trkpt lat="46.19018" lon="-0.47941">
        <ele>50.4</ele>
        <time>2021-03-21T08:35:09Z</time>
      </trkpt>
      <trkpt lat="46.19024" lon="-0.47935">
        <ele>49.8</ele>
        <time>2021-03-21T08:35:10Z</time>
      </trkpt>
      <trkpt lat="46.19029" lon="-0.47929">
        <ele>49.4</ele>
        <time>2021-03-21T08:35:11Z</time>
      </trkpt>
      <trkpt lat="46.19035" lon="-0.47926">
        <ele>49</ele>
        <time>2021-03-21T08:35:12Z</time>
      </trkpt>
      <trkpt lat="46.19041" lon="-0.47926">
        <ele>48.8</ele>
        <time>2021-03-21T08:35:13Z</time>
      </trkpt>
      <trkpt lat="46.19047" lon="-0.47927">
        <ele>48.8</ele>
        <time>2021-03-21T08:35:14Z</time>
      </trkpt>
      <trkpt lat="46.19053" lon="-0.47931">
        <ele>48.6</ele>
        <time>2021-03-21T08:35:15Z</time>
      </trkpt>
      <trkpt lat="46.19058" lon="-0.47936">
        <ele>48.4</ele>
        <time>2021-03-21T08:35:16Z</time>
      </trkpt>
      <trkpt lat="46.19062" lon="-0.47946">
        <ele>48.4</ele>
        <time>2021-03-21T08:35:17Z</time>
      </trkpt>
      <trkpt lat="46.19065" lon="-0.47957">
        <ele>48.4</ele>
        <time>2021-03-21T08:35:18Z</time>
      </trkpt>
      <trkpt lat="46.19071" lon="-0.47976">
        <ele>48.4</ele>
        <time>2021-03-21T08:35:20Z</time>
      </trkpt>
      <trkpt lat="46.19074" lon="-0.47987">
        <ele>48.4</ele>
        <time>2021-03-21T08:35:21Z</time>
      </trkpt>
      <trkpt lat="46.19076" lon="-0.47999">
        <ele>48.6</ele>
        <time>2021-03-21T08:35:22Z</time>
      </trkpt>
      <trkpt lat="46.19087" lon="-0.48044">
        <ele>49</ele>
        <time>2021-03-21T08:35:26Z</time>
      </trkpt>
      <trkpt lat="46.19094" lon="-0.48068">
        <ele>49.6</ele>
        <time>2021-03-21T08:35:28Z</time>
      </trkpt>
      <trkpt lat="46.19097" lon="-0.48078">
        <ele>50</ele>
        <time>2021-03-21T08:35:29Z</time>
      </trkpt>
      <trkpt lat="46.19122" lon="-0.48139">
        <ele>50.4</ele>
        <time>2021-03-21T08:35:35Z</time>
      </trkpt>
      <trkpt lat="46.19145" lon="-0.48175">
        <ele>50.8</ele>
        <time>2021-03-21T08:35:39Z</time>
      </trkpt>
      <trkpt lat="46.19158" lon="-0.48191">
        <ele>50.8</ele>
        <time>2021-03-21T08:35:41Z</time>
      </trkpt>
      <trkpt lat="46.19194" lon="-0.48227">
        <ele>50.8</ele>
        <time>2021-03-21T08:35:46Z</time>
      </trkpt>
      <trkpt lat="46.192" lon="-0.48235">
        <ele>50.6</ele>
        <time>2021-03-21T08:35:47Z</time>
      </trkpt>
      <trkpt lat="46.19207" lon="-0.48245">
        <ele>50.4</ele>
        <time>2021-03-21T08:35:48Z</time>
      </trkpt>
      <trkpt lat="46.19223" lon="-0.48276">
        <ele>50</ele>
        <time>2021-03-21T08:35:51Z</time>
      </trkpt>
      <trkpt lat="46.19243" lon="-0.48317">
        <ele>48.8</ele>
        <time>2021-03-21T08:35:55Z</time>
      </trkpt>
      <trkpt lat="46.19253" lon="-0.48336">
        <ele>48.6</ele>
        <time>2021-03-21T08:35:57Z</time>
      </trkpt>
      <trkpt lat="46.19258" lon="-0.48344">
        <ele>48.4</ele>
        <time>2021-03-21T08:35:58Z</time>
      </trkpt>
      <trkpt lat="46.19263" lon="-0.48353">
        <ele>48.4</ele>
        <time>2021-03-21T08:35:59Z</time>
      </trkpt>
      <trkpt lat="46.19268" lon="-0.48361">
        <ele>48.4</ele>
        <time>2021-03-21T08:36:00Z</time>
      </trkpt>
      <trkpt lat="46.19273" lon="-0.48368">
        <ele>48.4</ele>
        <time>2021-03-21T08:36:01Z</time>
      </trkpt>
      <trkpt lat="46.19278" lon="-0.48376">
        <ele>48.4</ele>
        <time>2021-03-21T08:36:02Z</time>
      </trkpt>
      <trkpt lat="46.19283" lon="-0.48383">
        <ele>48.4</ele>
        <time>2021-03-21T08:36:03Z</time>
      </trkpt>
      <trkpt lat="46.19289" lon="-0.48392">
        <ele>48.4</ele>
        <time>2021-03-21T08:36:04Z</time>
      </trkpt>
      <trkpt lat="46.19299" lon="-0.48406">
        <ele>48.4</ele>
        <time>2021-03-21T08:36:06Z</time>
      </trkpt>
      <trkpt lat="46.19302" lon="-0.48411">
        <ele>49</ele>
        <time>2021-03-21T08:36:07Z</time>
      </trkpt>
      <trkpt lat="46.19307" lon="-0.48419">
        <ele>49.6</ele>
        <time>2021-03-21T08:36:08Z</time>
      </trkpt>
      <trkpt lat="46.19311" lon="-0.48426">
        <ele>50.4</ele>
        <time>2021-03-21T08:36:09Z</time>
      </trkpt>
      <trkpt lat="46.19315" lon="-0.48433">
        <ele>51</ele>
        <time>2021-03-21T08:36:10Z</time>
      </trkpt>
      <trkpt lat="46.19319" lon="-0.48439">
        <ele>51.6</ele>
        <time>2021-03-21T08:36:11Z</time>
      </trkpt>
      <trkpt lat="46.19332" lon="-0.48461">
        <ele>52.8</ele>
        <time>2021-03-21T08:36:14Z</time>
      </trkpt>
      <trkpt lat="46.19336" lon="-0.48468">
        <ele>53.2</ele>
        <time>2021-03-21T08:36:15Z</time>
      </trkpt>
      <trkpt lat="46.1934" lon="-0.48474">
        <ele>54</ele>
        <time>2021-03-21T08:36:16Z</time>
      </trkpt>
      <trkpt lat="46.19345" lon="-0.48482">
        <ele>54.4</ele>
        <time>2021-03-21T08:36:17Z</time>
      </trkpt>
      <trkpt lat="46.19349" lon="-0.4849">
        <ele>54.8</ele>
        <time>2021-03-21T08:36:18Z</time>
      </trkpt>
      <trkpt lat="46.19352" lon="-0.48496">
        <ele>55</ele>
        <time>2021-03-21T08:36:19Z</time>
      </trkpt>
      <trkpt lat="46.19356" lon="-0.48504">
        <ele>55.6</ele>
        <time>2021-03-21T08:36:20Z</time>
      </trkpt>
      <trkpt lat="46.19361" lon="-0.48513">
        <ele>56.2</ele>
        <time>2021-03-21T08:36:21Z</time>
      </trkpt>
      <trkpt lat="46.19365" lon="-0.48521">
        <ele>56.4</ele>
        <time>2021-03-21T08:36:22Z</time>
      </trkpt>
      <trkpt lat="46.1937" lon="-0.48529">
        <ele>57.2</ele>
        <time>2021-03-21T08:36:23Z</time>
      </trkpt>
      <trkpt lat="46.19374" lon="-0.48538">
        <ele>57.2</ele>
        <time>2021-03-21T08:36:24Z</time>
      </trkpt>
      <trkpt lat="46.19377" lon="-0.48545">
        <ele>58.2</ele>
        <time>2021-03-21T08:36:25Z</time>
      </trkpt>
      <trkpt lat="46.19383" lon="-0.48555">
        <ele>58.8</ele>
        <time>2021-03-21T08:36:26Z</time>
      </trkpt>
      <trkpt lat="46.19387" lon="-0.48563">
        <ele>59</ele>
        <time>2021-03-21T08:36:27Z</time>
      </trkpt>
      <trkpt lat="46.19392" lon="-0.48572">
        <ele>59.4</ele>
        <time>2021-03-21T08:36:28Z</time>
      </trkpt>
      <trkpt lat="46.19395" lon="-0.48579">
        <ele>59.6</ele>
        <time>2021-03-21T08:36:29Z</time>
      </trkpt>
      <trkpt lat="46.19401" lon="-0.4859">
        <ele>59.8</ele>
        <time>2021-03-21T08:36:30Z</time>
      </trkpt>
      <trkpt lat="46.19406" lon="-0.48599">
        <ele>60</ele>
        <time>2021-03-21T08:36:31Z</time>
      </trkpt>
      <trkpt lat="46.19411" lon="-0.48608">
        <ele>60</ele>
        <time>2021-03-21T08:36:32Z</time>
      </trkpt>
      <trkpt lat="46.19417" lon="-0.48617">
        <ele>60.2</ele>
        <time>2021-03-21T08:36:33Z</time>
      </trkpt>
      <trkpt lat="46.19421" lon="-0.48625">
        <ele>60.2</ele>
        <time>2021-03-21T08:36:34Z</time>
      </trkpt>
      <trkpt lat="46.19426" lon="-0.48635">
        <ele>60.2</ele>
        <time>2021-03-21T08:36:35Z</time>
      </trkpt>
      <trkpt lat="46.1943" lon="-0.48643">
        <ele>60.2</ele>
        <time>2021-03-21T08:36:36Z</time>
      </trkpt>
      <trkpt lat="46.19434" lon="-0.48651">
        <ele>60.2</ele>
        <time>2021-03-21T08:36:37Z</time>
      </trkpt>
      <trkpt lat="46.19437" lon="-0.48657">
        <ele>60</ele>
        <time>2021-03-21T08:36:38Z</time>
      </trkpt>
      <trkpt lat="46.1944" lon="-0.48666">
        <ele>60.2</ele>
        <time>2021-03-21T08:36:39Z</time>
      </trkpt>
      <trkpt lat="46.1944" lon="-0.48673">
        <ele>60</ele>
        <time>2021-03-21T08:36:40Z</time>
      </trkpt>
      <trkpt lat="46.19437" lon="-0.48681">
        <ele>60</ele>
        <time>2021-03-21T08:36:41Z</time>
      </trkpt>
      <trkpt lat="46.19432" lon="-0.48687">
        <ele>59.8</ele>
        <time>2021-03-21T08:36:42Z</time>
      </trkpt>
      <trkpt lat="46.19428" lon="-0.4869">
        <ele>59.8</ele>
        <time>2021-03-21T08:36:43Z</time>
      </trkpt>
      <trkpt lat="46.1942" lon="-0.48695">
        <ele>59.8</ele>
        <time>2021-03-21T08:36:44Z</time>
      </trkpt>
      <trkpt lat="46.19413" lon="-0.48699">
        <ele>59.8</ele>
        <time>2021-03-21T08:36:45Z</time>
      </trkpt>
      <trkpt lat="46.19407" lon="-0.48703">
        <ele>59.8</ele>
        <time>2021-03-21T08:36:46Z</time>
      </trkpt>
      <trkpt lat="46.19399" lon="-0.48707">
        <ele>59.8</ele>
        <time>2021-03-21T08:36:47Z</time>
      </trkpt>
      <trkpt lat="46.1939" lon="-0.48713">
        <ele>59.6</ele>
        <time>2021-03-21T08:36:48Z</time>
      </trkpt>
      <trkpt lat="46.19383" lon="-0.48719">
        <ele>59.4</ele>
        <time>2021-03-21T08:36:49Z</time>
      </trkpt>
      <trkpt lat="46.19376" lon="-0.48724">
        <ele>59.4</ele>
        <time>2021-03-21T08:36:50Z</time>
      </trkpt>
      <trkpt lat="46.19369" lon="-0.48729">
        <ele>59.4</ele>
        <time>2021-03-21T08:36:51Z</time>
      </trkpt>
      <trkpt lat="46.19361" lon="-0.48734">
        <ele>59.4</ele>
        <time>2021-03-21T08:36:52Z</time>
      </trkpt>
      <trkpt lat="46.19354" lon="-0.48739">
        <ele>59.2</ele>
        <time>2021-03-21T08:36:53Z</time>
      </trkpt>
      <trkpt lat="46.19346" lon="-0.48743">
        <ele>59.2</ele>
        <time>2021-03-21T08:36:54Z</time>
      </trkpt>
      <trkpt lat="46.19338" lon="-0.48745">
        <ele>59.2</ele>
        <time>2021-03-21T08:36:55Z</time>
      </trkpt>
      <trkpt lat="46.19321" lon="-0.48749">
        <ele>58.8</ele>
        <time>2021-03-21T08:36:57Z</time>
      </trkpt>
      <trkpt lat="46.19296" lon="-0.48755">
        <ele>58.8</ele>
        <time>2021-03-21T08:37:00Z</time>
      </trkpt>
      <trkpt lat="46.19288" lon="-0.48758">
        <ele>58.8</ele>
        <time>2021-03-21T08:37:01Z</time>
      </trkpt>
      <trkpt lat="46.19263" lon="-0.48767">
        <ele>58.4</ele>
        <time>2021-03-21T08:37:04Z</time>
      </trkpt>
      <trkpt lat="46.19255" lon="-0.48772">
        <ele>58.4</ele>
        <time>2021-03-21T08:37:05Z</time>
      </trkpt>
      <trkpt lat="46.19248" lon="-0.4878">
        <ele>58.4</ele>
        <time>2021-03-21T08:37:06Z</time>
      </trkpt>
      <trkpt lat="46.19235" lon="-0.48796">
        <ele>59</ele>
        <time>2021-03-21T08:37:08Z</time>
      </trkpt>
      <trkpt lat="46.19216" lon="-0.48818">
        <ele>59</ele>
        <time>2021-03-21T08:37:11Z</time>
      </trkpt>
      <trkpt lat="46.1921" lon="-0.48825">
        <ele>59.2</ele>
        <time>2021-03-21T08:37:12Z</time>
      </trkpt>
      <trkpt lat="46.19203" lon="-0.48832">
        <ele>59.4</ele>
        <time>2021-03-21T08:37:13Z</time>
      </trkpt>
      <trkpt lat="46.19195" lon="-0.4884">
        <ele>59.4</ele>
        <time>2021-03-21T08:37:14Z</time>
      </trkpt>
      <trkpt lat="46.19161" lon="-0.48877">
        <ele>59.8</ele>
        <time>2021-03-21T08:37:19Z</time>
      </trkpt>
      <trkpt lat="46.1914" lon="-0.48899">
        <ele>60</ele>
        <time>2021-03-21T08:37:22Z</time>
      </trkpt>
      <trkpt lat="46.19113" lon="-0.48929">
        <ele>60.8</ele>
        <time>2021-03-21T08:37:26Z</time>
      </trkpt>
      <trkpt lat="46.19101" lon="-0.48945">
        <ele>61.2</ele>
        <time>2021-03-21T08:37:28Z</time>
      </trkpt>
      <trkpt lat="46.19094" lon="-0.48953">
        <ele>61.6</ele>
        <time>2021-03-21T08:37:29Z</time>
      </trkpt>
      <trkpt lat="46.19087" lon="-0.4896">
        <ele>61.8</ele>
        <time>2021-03-21T08:37:30Z</time>
      </trkpt>
      <trkpt lat="46.19062" lon="-0.48989">
        <ele>62.2</ele>
        <time>2021-03-21T08:37:34Z</time>
      </trkpt>
      <trkpt lat="46.19056" lon="-0.48996">
        <ele>62.2</ele>
        <time>2021-03-21T08:37:35Z</time>
      </trkpt>
      <trkpt lat="46.19051" lon="-0.49002">
        <ele>62.4</ele>
        <time>2021-03-21T08:37:36Z</time>
      </trkpt>
      <trkpt lat="46.19045" lon="-0.49008">
        <ele>62.4</ele>
        <time>2021-03-21T08:37:37Z</time>
      </trkpt>
      <trkpt lat="46.19041" lon="-0.49013">
        <ele>62.8</ele>
        <time>2021-03-21T08:37:38Z</time>
      </trkpt>
      <trkpt lat="46.19038" lon="-0.49021">
        <ele>63.2</ele>
        <time>2021-03-21T08:37:39Z</time>
      </trkpt>
      <trkpt lat="46.19037" lon="-0.49029">
        <ele>63.6</ele>
        <time>2021-03-21T08:37:40Z</time>
      </trkpt>
      <trkpt lat="46.19038" lon="-0.49037">
        <ele>63.8</ele>
        <time>2021-03-21T08:37:41Z</time>
      </trkpt>
      <trkpt lat="46.19041" lon="-0.49046">
        <ele>63.8</ele>
        <time>2021-03-21T08:37:42Z</time>
      </trkpt>
      <trkpt lat="46.19044" lon="-0.49054">
        <ele>64.2</ele>
        <time>2021-03-21T08:37:43Z</time>
      </trkpt>
      <trkpt lat="46.19047" lon="-0.49063">
        <ele>64.2</ele>
        <time>2021-03-21T08:37:44Z</time>
      </trkpt>
      <trkpt lat="46.19049" lon="-0.49072">
        <ele>64.2</ele>
        <time>2021-03-21T08:37:45Z</time>
      </trkpt>
      <trkpt lat="46.19052" lon="-0.49081">
        <ele>64.6</ele>
        <time>2021-03-21T08:37:46Z</time>
      </trkpt>
      <trkpt lat="46.19054" lon="-0.49091">
        <ele>64.8</ele>
        <time>2021-03-21T08:37:47Z</time>
      </trkpt>
      <trkpt lat="46.19056" lon="-0.491">
        <ele>65</ele>
        <time>2021-03-21T08:37:48Z</time>
      </trkpt>
      <trkpt lat="46.19058" lon="-0.49109">
        <ele>65.2</ele>
        <time>2021-03-21T08:37:49Z</time>
      </trkpt>
      <trkpt lat="46.19061" lon="-0.49119">
        <ele>65.2</ele>
        <time>2021-03-21T08:37:50Z</time>
      </trkpt>
      <trkpt lat="46.19063" lon="-0.49129">
        <ele>65.4</ele>
        <time>2021-03-21T08:37:51Z</time>
      </trkpt>
      <trkpt lat="46.19066" lon="-0.49139">
        <ele>65.4</ele>
        <time>2021-03-21T08:37:52Z</time>
      </trkpt>
      <trkpt lat="46.19069" lon="-0.49149">
        <ele>65.4</ele>
        <time>2021-03-21T08:37:53Z</time>
      </trkpt>
      <trkpt lat="46.19072" lon="-0.49159">
        <ele>65.4</ele>
        <time>2021-03-21T08:37:54Z</time>
      </trkpt>
      <trkpt lat="46.19075" lon="-0.49169">
        <ele>65.6</ele>
        <time>2021-03-21T08:37:55Z</time>
      </trkpt>
      <trkpt lat="46.19078" lon="-0.49178">
        <ele>65.8</ele>
        <time>2021-03-21T08:37:56Z</time>
      </trkpt>
      <trkpt lat="46.1908" lon="-0.49187">
        <ele>65.8</ele>
        <time>2021-03-21T08:37:57Z</time>
      </trkpt>
      <trkpt lat="46.19083" lon="-0.49197">
        <ele>66</ele>
        <time>2021-03-21T08:37:58Z</time>
      </trkpt>
      <trkpt lat="46.19085" lon="-0.49207">
        <ele>66</ele>
        <time>2021-03-21T08:37:59Z</time>
      </trkpt>
      <trkpt lat="46.19087" lon="-0.49217">
        <ele>66.2</ele>
        <time>2021-03-21T08:38:00Z</time>
      </trkpt>
      <trkpt lat="46.19089" lon="-0.49226">
        <ele>66.4</ele>
        <time>2021-03-21T08:38:01Z</time>
      </trkpt>
      <trkpt lat="46.1909" lon="-0.49236">
        <ele>66.6</ele>
        <time>2021-03-21T08:38:02Z</time>
      </trkpt>
      <trkpt lat="46.19091" lon="-0.49246">
        <ele>66.8</ele>
        <time>2021-03-21T08:38:03Z</time>
      </trkpt>
      <trkpt lat="46.19092" lon="-0.49255">
        <ele>67</ele>
        <time>2021-03-21T08:38:04Z</time>
      </trkpt>
      <trkpt lat="46.19093" lon="-0.49264">
        <ele>67.2</ele>
        <time>2021-03-21T08:38:05Z</time>
      </trkpt>
      <trkpt lat="46.19096" lon="-0.49273">
        <ele>67.4</ele>
        <time>2021-03-21T08:38:06Z</time>
      </trkpt>
      <trkpt lat="46.19099" lon="-0.49283">
        <ele>67.4</ele>
        <time>2021-03-21T08:38:07Z</time>
      </trkpt>
      <trkpt lat="46.19101" lon="-0.49292">
        <ele>67.6</ele>
        <time>2021-03-21T08:38:08Z</time>
      </trkpt>
      <trkpt lat="46.19106" lon="-0.49301">
        <ele>67.6</ele>
        <time>2021-03-21T08:38:09Z</time>
      </trkpt>
      <trkpt lat="46.19112" lon="-0.49309">
        <ele>67.6</ele>
        <time>2021-03-21T08:38:10Z</time>
      </trkpt>
      <trkpt lat="46.19119" lon="-0.49315">
        <ele>67.8</ele>
        <time>2021-03-21T08:38:11Z</time>
      </trkpt>
      <trkpt lat="46.19127" lon="-0.4932">
        <ele>67.8</ele>
        <time>2021-03-21T08:38:12Z</time>
      </trkpt>
      <trkpt lat="46.19136" lon="-0.49324">
        <ele>68</ele>
        <time>2021-03-21T08:38:13Z</time>
      </trkpt>
      <trkpt lat="46.19145" lon="-0.49328">
        <ele>68.2</ele>
        <time>2021-03-21T08:38:14Z</time>
      </trkpt>
      <trkpt lat="46.19153" lon="-0.49331">
        <ele>68.4</ele>
        <time>2021-03-21T08:38:15Z</time>
      </trkpt>
      <trkpt lat="46.19163" lon="-0.49333">
        <ele>68.4</ele>
        <time>2021-03-21T08:38:16Z</time>
      </trkpt>
      <trkpt lat="46.19172" lon="-0.49335">
        <ele>68.4</ele>
        <time>2021-03-21T08:38:17Z</time>
      </trkpt>
      <trkpt lat="46.19181" lon="-0.49337">
        <ele>68.6</ele>
        <time>2021-03-21T08:38:18Z</time>
      </trkpt>
      <trkpt lat="46.1919" lon="-0.49339">
        <ele>68.6</ele>
        <time>2021-03-21T08:38:19Z</time>
      </trkpt>
      <trkpt lat="46.19199" lon="-0.49341">
        <ele>68.6</ele>
        <time>2021-03-21T08:38:20Z</time>
      </trkpt>
      <trkpt lat="46.19208" lon="-0.49343">
        <ele>68.6</ele>
        <time>2021-03-21T08:38:21Z</time>
      </trkpt>
      <trkpt lat="46.19218" lon="-0.49344">
        <ele>68.6</ele>
        <time>2021-03-21T08:38:22Z</time>
      </trkpt>
      <trkpt lat="46.19226" lon="-0.49347">
        <ele>68.6</ele>
        <time>2021-03-21T08:38:23Z</time>
      </trkpt>
      <trkpt lat="46.19235" lon="-0.49349">
        <ele>68.6</ele>
        <time>2021-03-21T08:38:24Z</time>
      </trkpt>
      <trkpt lat="46.19244" lon="-0.49349">
        <ele>68.8</ele>
        <time>2021-03-21T08:38:25Z</time>
      </trkpt>
      <trkpt lat="46.19252" lon="-0.49347">
        <ele>68.8</ele>
        <time>2021-03-21T08:38:26Z</time>
      </trkpt>
      <trkpt lat="46.1926" lon="-0.49344">
        <ele>68.6</ele>
        <time>2021-03-21T08:38:27Z</time>
      </trkpt>
      <trkpt lat="46.19268" lon="-0.49341">
        <ele>68.6</ele>
        <time>2021-03-21T08:38:28Z</time>
      </trkpt>
      <trkpt lat="46.19277" lon="-0.49337">
        <ele>68.4</ele>
        <time>2021-03-21T08:38:29Z</time>
      </trkpt>
      <trkpt lat="46.19294" lon="-0.49328">
        <ele>68.4</ele>
        <time>2021-03-21T08:38:31Z</time>
      </trkpt>
      <trkpt lat="46.19303" lon="-0.49323">
        <ele>68.2</ele>
        <time>2021-03-21T08:38:32Z</time>
      </trkpt>
      <trkpt lat="46.1933" lon="-0.49313">
        <ele>68.2</ele>
        <time>2021-03-21T08:38:35Z</time>
      </trkpt>
      <trkpt lat="46.19339" lon="-0.49312">
        <ele>68.2</ele>
        <time>2021-03-21T08:38:36Z</time>
      </trkpt>
      <trkpt lat="46.19347" lon="-0.49312">
        <ele>68</ele>
        <time>2021-03-21T08:38:37Z</time>
      </trkpt>
      <trkpt lat="46.19364" lon="-0.49321">
        <ele>68</ele>
        <time>2021-03-21T08:38:39Z</time>
      </trkpt>
      <trkpt lat="46.19371" lon="-0.49327">
        <ele>67.8</ele>
        <time>2021-03-21T08:38:40Z</time>
      </trkpt>
      <trkpt lat="46.19379" lon="-0.49333">
        <ele>67.8</ele>
        <time>2021-03-21T08:38:41Z</time>
      </trkpt>
      <trkpt lat="46.19386" lon="-0.49339">
        <ele>67.6</ele>
        <time>2021-03-21T08:38:42Z</time>
      </trkpt>
      <trkpt lat="46.19394" lon="-0.49344">
        <ele>67.4</ele>
        <time>2021-03-21T08:38:43Z</time>
      </trkpt>
      <trkpt lat="46.19401" lon="-0.4935">
        <ele>67.2</ele>
        <time>2021-03-21T08:38:44Z</time>
      </trkpt>
      <trkpt lat="46.19437" lon="-0.49383">
        <ele>66.2</ele>
        <time>2021-03-21T08:38:49Z</time>
      </trkpt>
      <trkpt lat="46.19444" lon="-0.49389">
        <ele>66</ele>
        <time>2021-03-21T08:38:50Z</time>
      </trkpt>
      <trkpt lat="46.19465" lon="-0.49405">
        <ele>65.6</ele>
        <time>2021-03-21T08:38:53Z</time>
      </trkpt>
      <trkpt lat="46.19471" lon="-0.49411">
        <ele>65.6</ele>
        <time>2021-03-21T08:38:54Z</time>
      </trkpt>
      <trkpt lat="46.19476" lon="-0.49419">
        <ele>65.4</ele>
        <time>2021-03-21T08:38:55Z</time>
      </trkpt>
      <trkpt lat="46.19481" lon="-0.49427">
        <ele>65.4</ele>
        <time>2021-03-21T08:38:56Z</time>
      </trkpt>
      <trkpt lat="46.19485" lon="-0.49436">
        <ele>65.4</ele>
        <time>2021-03-21T08:38:57Z</time>
      </trkpt>
      <trkpt lat="46.19495" lon="-0.49453">
        <ele>65.2</ele>
        <time>2021-03-21T08:38:59Z</time>
      </trkpt>
      <trkpt lat="46.195" lon="-0.4946">
        <ele>65.2</ele>
        <time>2021-03-21T08:39:00Z</time>
      </trkpt>
      <trkpt lat="46.19506" lon="-0.49467">
        <ele>65.2</ele>
        <time>2021-03-21T08:39:01Z</time>
      </trkpt>
      <trkpt lat="46.19517" lon="-0.49478">
        <ele>65.2</ele>
        <time>2021-03-21T08:39:03Z</time>
      </trkpt>
      <trkpt lat="46.19523" lon="-0.49484">
        <ele>65.2</ele>
        <time>2021-03-21T08:39:04Z</time>
      </trkpt>
      <trkpt lat="46.19535" lon="-0.49494">
        <ele>65.4</ele>
        <time>2021-03-21T08:39:06Z</time>
      </trkpt>
      <trkpt lat="46.19541" lon="-0.49502">
        <ele>65.6</ele>
        <time>2021-03-21T08:39:07Z</time>
      </trkpt>
      <trkpt lat="46.19547" lon="-0.4951">
        <ele>65.6</ele>
        <time>2021-03-21T08:39:08Z</time>
      </trkpt>
      <trkpt lat="46.19551" lon="-0.49519">
        <ele>65.8</ele>
        <time>2021-03-21T08:39:09Z</time>
      </trkpt>
      <trkpt lat="46.19564" lon="-0.49549">
        <ele>65.8</ele>
        <time>2021-03-21T08:39:12Z</time>
      </trkpt>
      <trkpt lat="46.19593" lon="-0.49619">
        <ele>66</ele>
        <time>2021-03-21T08:39:19Z</time>
      </trkpt>
      <trkpt lat="46.1962" lon="-0.4966">
        <ele>66.2</ele>
        <time>2021-03-21T08:39:24Z</time>
      </trkpt>
      <trkpt lat="46.19648" lon="-0.49698">
        <ele>66.2</ele>
        <time>2021-03-21T08:39:29Z</time>
      </trkpt>
      <trkpt lat="46.19653" lon="-0.49705">
        <ele>66.2</ele>
        <time>2021-03-21T08:39:30Z</time>
      </trkpt>
      <trkpt lat="46.19658" lon="-0.49711">
        <ele>66.2</ele>
        <time>2021-03-21T08:39:31Z</time>
      </trkpt>
      <trkpt lat="46.19662" lon="-0.49716">
        <ele>66.2</ele>
        <time>2021-03-21T08:39:32Z</time>
      </trkpt>
      <trkpt lat="46.19666" lon="-0.49721">
        <ele>66.2</ele>
        <time>2021-03-21T08:39:33Z</time>
      </trkpt>
      <trkpt lat="46.19669" lon="-0.49726">
        <ele>66.2</ele>
        <time>2021-03-21T08:39:34Z</time>
      </trkpt>
      <trkpt lat="46.19673" lon="-0.4973">
        <ele>66.4</ele>
        <time>2021-03-21T08:39:35Z</time>
      </trkpt>
      <trkpt lat="46.19676" lon="-0.49733">
        <ele>66.4</ele>
        <time>2021-03-21T08:39:36Z</time>
      </trkpt>
      <trkpt lat="46.19679" lon="-0.49735">
        <ele>66.6</ele>
        <time>2021-03-21T08:39:37Z</time>
      </trkpt>
      <trkpt lat="46.19682" lon="-0.49737">
        <ele>66.8</ele>
        <time>2021-03-21T08:39:38Z</time>
      </trkpt>
      <trkpt lat="46.19685" lon="-0.4974">
        <ele>67</ele>
        <time>2021-03-21T08:39:39Z</time>
      </trkpt>
      <trkpt lat="46.19688" lon="-0.49745">
        <ele>67.2</ele>
        <time>2021-03-21T08:39:40Z</time>
      </trkpt>
      <trkpt lat="46.19693" lon="-0.49761">
        <ele>67.4</ele>
        <time>2021-03-21T08:39:42Z</time>
      </trkpt>
      <trkpt lat="46.19695" lon="-0.49771">
        <ele>67.4</ele>
        <time>2021-03-21T08:39:43Z</time>
      </trkpt>
      <trkpt lat="46.19697" lon="-0.49781">
        <ele>67.6</ele>
        <time>2021-03-21T08:39:44Z</time>
      </trkpt>
      <trkpt lat="46.19699" lon="-0.49792">
        <ele>67.6</ele>
        <time>2021-03-21T08:39:45Z</time>
      </trkpt>
      <trkpt lat="46.19707" lon="-0.49827">
        <ele>67.6</ele>
        <time>2021-03-21T08:39:48Z</time>
      </trkpt>
      <trkpt lat="46.19722" lon="-0.49887">
        <ele>66.4</ele>
        <time>2021-03-21T08:39:53Z</time>
      </trkpt>
      <trkpt lat="46.19726" lon="-0.49899">
        <ele>66.2</ele>
        <time>2021-03-21T08:39:54Z</time>
      </trkpt>
      <trkpt lat="46.1973" lon="-0.49911">
        <ele>66</ele>
        <time>2021-03-21T08:39:55Z</time>
      </trkpt>
      <trkpt lat="46.19744" lon="-0.4994">
        <ele>65.2</ele>
        <time>2021-03-21T08:39:58Z</time>
      </trkpt>
      <trkpt lat="46.19756" lon="-0.49962">
        <ele>64.4</ele>
        <time>2021-03-21T08:40:00Z</time>
      </trkpt>
      <trkpt lat="46.19761" lon="-0.49973">
        <ele>64</ele>
        <time>2021-03-21T08:40:01Z</time>
      </trkpt>
      <trkpt lat="46.19776" lon="-0.50002">
        <ele>62.8</ele>
        <time>2021-03-21T08:40:04Z</time>
      </trkpt>
      <trkpt lat="46.19785" lon="-0.50022">
        <ele>62.4</ele>
        <time>2021-03-21T08:40:06Z</time>
      </trkpt>
      <trkpt lat="46.1979" lon="-0.50031">
        <ele>62.2</ele>
        <time>2021-03-21T08:40:07Z</time>
      </trkpt>
      <trkpt lat="46.19795" lon="-0.5004">
        <ele>62.2</ele>
        <time>2021-03-21T08:40:08Z</time>
      </trkpt>
      <trkpt lat="46.19799" lon="-0.50049">
        <ele>62.2</ele>
        <time>2021-03-21T08:40:09Z</time>
      </trkpt>
      <trkpt lat="46.19804" lon="-0.50058">
        <ele>62.2</ele>
        <time>2021-03-21T08:40:10Z</time>
      </trkpt>
      <trkpt lat="46.19809" lon="-0.50067">
        <ele>62.2</ele>
        <time>2021-03-21T08:40:11Z</time>
      </trkpt>
      <trkpt lat="46.19814" lon="-0.50076">
        <ele>62.2</ele>
        <time>2021-03-21T08:40:12Z</time>
      </trkpt>
      <trkpt lat="46.19818" lon="-0.50085">
        <ele>62</ele>
        <time>2021-03-21T08:40:13Z</time>
      </trkpt>
      <trkpt lat="46.19822" lon="-0.50093">
        <ele>62</ele>
        <time>2021-03-21T08:40:14Z</time>
      </trkpt>
      <trkpt lat="46.19826" lon="-0.50101">
        <ele>62</ele>
        <time>2021-03-21T08:40:15Z</time>
      </trkpt>
      <trkpt lat="46.19828" lon="-0.50109">
        <ele>62</ele>
        <time>2021-03-21T08:40:16Z</time>
      </trkpt>
      <trkpt lat="46.19828" lon="-0.50118">
        <ele>61.8</ele>
        <time>2021-03-21T08:40:17Z</time>
      </trkpt>
      <trkpt lat="46.19827" lon="-0.50127">
        <ele>61.8</ele>
        <time>2021-03-21T08:40:18Z</time>
      </trkpt>
      <trkpt lat="46.19824" lon="-0.50136">
        <ele>61.8</ele>
        <time>2021-03-21T08:40:19Z</time>
      </trkpt>
      <trkpt lat="46.19821" lon="-0.50145">
        <ele>61.8</ele>
        <time>2021-03-21T08:40:20Z</time>
      </trkpt>
      <trkpt lat="46.19819" lon="-0.50154">
        <ele>62</ele>
        <time>2021-03-21T08:40:21Z</time>
      </trkpt>
      <trkpt lat="46.19816" lon="-0.50163">
        <ele>62</ele>
        <time>2021-03-21T08:40:22Z</time>
      </trkpt>
      <trkpt lat="46.19806" lon="-0.50199">
        <ele>61.8</ele>
        <time>2021-03-21T08:40:26Z</time>
      </trkpt>
      <trkpt lat="46.19796" lon="-0.50234">
        <ele>61.4</ele>
        <time>2021-03-21T08:40:30Z</time>
      </trkpt>
      <trkpt lat="46.19791" lon="-0.50251">
        <ele>61</ele>
        <time>2021-03-21T08:40:32Z</time>
      </trkpt>
      <trkpt lat="46.19789" lon="-0.5026">
        <ele>60.8</ele>
        <time>2021-03-21T08:40:33Z</time>
      </trkpt>
      <trkpt lat="46.1978" lon="-0.50291">
        <ele>60.4</ele>
        <time>2021-03-21T08:40:36Z</time>
      </trkpt>
      <trkpt lat="46.19763" lon="-0.5035">
        <ele>59.6</ele>
        <time>2021-03-21T08:40:41Z</time>
      </trkpt>
      <trkpt lat="46.1976" lon="-0.50362">
        <ele>59.4</ele>
        <time>2021-03-21T08:40:42Z</time>
      </trkpt>
      <trkpt lat="46.19756" lon="-0.50375">
        <ele>59</ele>
        <time>2021-03-21T08:40:43Z</time>
      </trkpt>
      <trkpt lat="46.19752" lon="-0.50387">
        <ele>58.4</ele>
        <time>2021-03-21T08:40:44Z</time>
      </trkpt>
      <trkpt lat="46.19744" lon="-0.50411">
        <ele>57</ele>
        <time>2021-03-21T08:40:46Z</time>
      </trkpt>
      <trkpt lat="46.1973" lon="-0.50447">
        <ele>56</ele>
        <time>2021-03-21T08:40:49Z</time>
      </trkpt>
      <trkpt lat="46.19707" lon="-0.50504">
        <ele>54.8</ele>
        <time>2021-03-21T08:40:54Z</time>
      </trkpt>
      <trkpt lat="46.19692" lon="-0.50538">
        <ele>53.6</ele>
        <time>2021-03-21T08:40:57Z</time>
      </trkpt>
      <trkpt lat="46.19688" lon="-0.50547">
        <ele>53.4</ele>
        <time>2021-03-21T08:40:58Z</time>
      </trkpt>
      <trkpt lat="46.19658" lon="-0.50616">
        <ele>53</ele>
        <time>2021-03-21T08:41:04Z</time>
      </trkpt>
      <trkpt lat="46.19645" lon="-0.5065">
        <ele>52.6</ele>
        <time>2021-03-21T08:41:07Z</time>
      </trkpt>
      <trkpt lat="46.19641" lon="-0.50661">
        <ele>52.4</ele>
        <time>2021-03-21T08:41:08Z</time>
      </trkpt>
      <trkpt lat="46.19618" lon="-0.50732">
        <ele>51.8</ele>
        <time>2021-03-21T08:41:14Z</time>
      </trkpt>
      <trkpt lat="46.19604" lon="-0.50793">
        <ele>51.4</ele>
        <time>2021-03-21T08:41:19Z</time>
      </trkpt>
      <trkpt lat="46.19598" lon="-0.50818">
        <ele>51.4</ele>
        <time>2021-03-21T08:41:21Z</time>
      </trkpt>
      <trkpt lat="46.19589" lon="-0.50855">
        <ele>50.2</ele>
        <time>2021-03-21T08:41:24Z</time>
      </trkpt>
      <trkpt lat="46.19572" lon="-0.50916">
        <ele>49.2</ele>
        <time>2021-03-21T08:41:29Z</time>
      </trkpt>
      <trkpt lat="46.19552" lon="-0.50988">
        <ele>48.8</ele>
        <time>2021-03-21T08:41:35Z</time>
      </trkpt>
      <trkpt lat="46.19547" lon="-0.51011">
        <ele>48</ele>
        <time>2021-03-21T08:41:37Z</time>
      </trkpt>
      <trkpt lat="46.19545" lon="-0.51022">
        <ele>47.6</ele>
        <time>2021-03-21T08:41:38Z</time>
      </trkpt>
      <trkpt lat="46.19543" lon="-0.51032">
        <ele>47.4</ele>
        <time>2021-03-21T08:41:39Z</time>
      </trkpt>
      <trkpt lat="46.19541" lon="-0.51042">
        <ele>47.4</ele>
        <time>2021-03-21T08:41:40Z</time>
      </trkpt>
      <trkpt lat="46.19539" lon="-0.51051">
        <ele>47.4</ele>
        <time>2021-03-21T08:41:41Z</time>
      </trkpt>
      <trkpt lat="46.19538" lon="-0.5106">
        <ele>47.4</ele>
        <time>2021-03-21T08:41:42Z</time>
      </trkpt>
      <trkpt lat="46.19536" lon="-0.51068">
        <ele>47.4</ele>
        <time>2021-03-21T08:41:43Z</time>
      </trkpt>
      <trkpt lat="46.19534" lon="-0.51077">
        <ele>47.2</ele>
        <time>2021-03-21T08:41:44Z</time>
      </trkpt>
      <trkpt lat="46.19532" lon="-0.51085">
        <ele>47.2</ele>
        <time>2021-03-21T08:41:45Z</time>
      </trkpt>
      <trkpt lat="46.1953" lon="-0.51092">
        <ele>47.2</ele>
        <time>2021-03-21T08:41:46Z</time>
      </trkpt>
      <trkpt lat="46.19527" lon="-0.51097">
        <ele>47.2</ele>
        <time>2021-03-21T08:41:47Z</time>
      </trkpt>
      <trkpt lat="46.19524" lon="-0.511">
        <ele>47.6</ele>
        <time>2021-03-21T08:41:48Z</time>
      </trkpt>
      <trkpt lat="46.19521" lon="-0.51101">
        <ele>47.8</ele>
        <time>2021-03-21T08:41:49Z</time>
      </trkpt>
      <trkpt lat="46.19517" lon="-0.51099">
        <ele>48</ele>
        <time>2021-03-21T08:41:50Z</time>
      </trkpt>
      <trkpt lat="46.19514" lon="-0.51093">
        <ele>48</ele>
        <time>2021-03-21T08:41:51Z</time>
      </trkpt>
      <trkpt lat="46.19508" lon="-0.51077">
        <ele>48.2</ele>
        <time>2021-03-21T08:41:53Z</time>
      </trkpt>
      <trkpt lat="46.19501" lon="-0.51057">
        <ele>48.2</ele>
        <time>2021-03-21T08:41:55Z</time>
      </trkpt>
      <trkpt lat="46.19498" lon="-0.51046">
        <ele>48.2</ele>
        <time>2021-03-21T08:41:56Z</time>
      </trkpt>
      <trkpt lat="46.19493" lon="-0.51025">
        <ele>48.2</ele>
        <time>2021-03-21T08:41:58Z</time>
      </trkpt>
      <trkpt lat="46.19486" lon="-0.51005">
        <ele>48.2</ele>
        <time>2021-03-21T08:42:00Z</time>
      </trkpt>
      <trkpt lat="46.19483" lon="-0.50995">
        <ele>48.2</ele>
        <time>2021-03-21T08:42:01Z</time>
      </trkpt>
      <trkpt lat="46.19474" lon="-0.50976">
        <ele>48.4</ele>
        <time>2021-03-21T08:42:03Z</time>
      </trkpt>
      <trkpt lat="46.19443" lon="-0.50907">
        <ele>48.6</ele>
        <time>2021-03-21T08:42:10Z</time>
      </trkpt>
      <trkpt lat="46.19435" lon="-0.50887">
        <ele>48.8</ele>
        <time>2021-03-21T08:42:12Z</time>
      </trkpt>
      <trkpt lat="46.19431" lon="-0.50877">
        <ele>49.4</ele>
        <time>2021-03-21T08:42:13Z</time>
      </trkpt>
      <trkpt lat="46.19428" lon="-0.50869">
        <ele>49.6</ele>
        <time>2021-03-21T08:42:14Z</time>
      </trkpt>
      <trkpt lat="46.19425" lon="-0.5086">
        <ele>50</ele>
        <time>2021-03-21T08:42:15Z</time>
      </trkpt>
      <trkpt lat="46.19422" lon="-0.50853">
        <ele>50.2</ele>
        <time>2021-03-21T08:42:16Z</time>
      </trkpt>
      <trkpt lat="46.19418" lon="-0.50848">
        <ele>50.8</ele>
        <time>2021-03-21T08:42:17Z</time>
      </trkpt>
      <trkpt lat="46.19415" lon="-0.50846">
        <ele>51</ele>
        <time>2021-03-21T08:42:18Z</time>
      </trkpt>
      <trkpt lat="46.19412" lon="-0.50847">
        <ele>51</ele>
        <time>2021-03-21T08:42:19Z</time>
      </trkpt>
      <trkpt lat="46.19408" lon="-0.50852">
        <ele>51.2</ele>
        <time>2021-03-21T08:42:20Z</time>
      </trkpt>
      <trkpt lat="46.19404" lon="-0.50859">
        <ele>51.6</ele>
        <time>2021-03-21T08:42:21Z</time>
      </trkpt>
      <trkpt lat="46.19401" lon="-0.50867">
        <ele>51.4</ele>
        <time>2021-03-21T08:42:22Z</time>
      </trkpt>
      <trkpt lat="46.19397" lon="-0.50876">
        <ele>51.4</ele>
        <time>2021-03-21T08:42:23Z</time>
      </trkpt>
      <trkpt lat="46.19394" lon="-0.50886">
        <ele>51.4</ele>
        <time>2021-03-21T08:42:24Z</time>
      </trkpt>
      <trkpt lat="46.19391" lon="-0.50897">
        <ele>51.4</ele>
        <time>2021-03-21T08:42:25Z</time>
      </trkpt>
      <trkpt lat="46.19389" lon="-0.50906">
        <ele>51.4</ele>
        <time>2021-03-21T08:42:26Z</time>
      </trkpt>
      <trkpt lat="46.19386" lon="-0.50917">
        <ele>51.4</ele>
        <time>2021-03-21T08:42:27Z</time>
      </trkpt>
      <trkpt lat="46.19383" lon="-0.50929">
        <ele>51.4</ele>
        <time>2021-03-21T08:42:28Z</time>
      </trkpt>
      <trkpt lat="46.19381" lon="-0.50938">
        <ele>51.4</ele>
        <time>2021-03-21T08:42:29Z</time>
      </trkpt>
      <trkpt lat="46.19378" lon="-0.50952">
        <ele>51</ele>
        <time>2021-03-21T08:42:30Z</time>
      </trkpt>
      <trkpt lat="46.19375" lon="-0.50963">
        <ele>50.8</ele>
        <time>2021-03-21T08:42:31Z</time>
      </trkpt>
      <trkpt lat="46.19373" lon="-0.50975">
        <ele>50.4</ele>
        <time>2021-03-21T08:42:32Z</time>
      </trkpt>
      <trkpt lat="46.1937" lon="-0.50987">
        <ele>49.8</ele>
        <time>2021-03-21T08:42:33Z</time>
      </trkpt>
      <trkpt lat="46.19368" lon="-0.50998">
        <ele>49.2</ele>
        <time>2021-03-21T08:42:34Z</time>
      </trkpt>
      <trkpt lat="46.19366" lon="-0.51009">
        <ele>49</ele>
        <time>2021-03-21T08:42:35Z</time>
      </trkpt>
      <trkpt lat="46.19357" lon="-0.51055">
        <ele>48.4</ele>
        <time>2021-03-21T08:42:39Z</time>
      </trkpt>
      <trkpt lat="46.19345" lon="-0.51101">
        <ele>48.2</ele>
        <time>2021-03-21T08:42:43Z</time>
      </trkpt>
      <trkpt lat="46.19326" lon="-0.51168">
        <ele>48.4</ele>
        <time>2021-03-21T08:42:49Z</time>
      </trkpt>
      <trkpt lat="46.19305" lon="-0.51248">
        <ele>48.6</ele>
        <time>2021-03-21T08:42:56Z</time>
      </trkpt>
      <trkpt lat="46.19303" lon="-0.51259">
        <ele>48.8</ele>
        <time>2021-03-21T08:42:57Z</time>
      </trkpt>
      <trkpt lat="46.19292" lon="-0.51291">
        <ele>48.8</ele>
        <time>2021-03-21T08:43:00Z</time>
      </trkpt>
      <trkpt lat="46.19278" lon="-0.51321">
        <ele>48.8</ele>
        <time>2021-03-21T08:43:03Z</time>
      </trkpt>
      <trkpt lat="46.19257" lon="-0.51356">
        <ele>49</ele>
        <time>2021-03-21T08:43:07Z</time>
      </trkpt>
      <trkpt lat="46.19241" lon="-0.51384">
        <ele>49</ele>
        <time>2021-03-21T08:43:10Z</time>
      </trkpt>
      <trkpt lat="46.19236" lon="-0.51393">
        <ele>49</ele>
        <time>2021-03-21T08:43:11Z</time>
      </trkpt>
      <trkpt lat="46.1923" lon="-0.51402">
        <ele>49.2</ele>
        <time>2021-03-21T08:43:12Z</time>
      </trkpt>
      <trkpt lat="46.19216" lon="-0.51427">
        <ele>49.4</ele>
        <time>2021-03-21T08:43:15Z</time>
      </trkpt>
      <trkpt lat="46.19212" lon="-0.51435">
        <ele>49.4</ele>
        <time>2021-03-21T08:43:16Z</time>
      </trkpt>
      <trkpt lat="46.19207" lon="-0.51442">
        <ele>49.4</ele>
        <time>2021-03-21T08:43:17Z</time>
      </trkpt>
      <trkpt lat="46.19203" lon="-0.51449">
        <ele>49.6</ele>
        <time>2021-03-21T08:43:18Z</time>
      </trkpt>
      <trkpt lat="46.19198" lon="-0.51455">
        <ele>49.8</ele>
        <time>2021-03-21T08:43:19Z</time>
      </trkpt>
      <trkpt lat="46.19192" lon="-0.51462">
        <ele>49.8</ele>
        <time>2021-03-21T08:43:20Z</time>
      </trkpt>
      <trkpt lat="46.19177" lon="-0.51484">
        <ele>50.4</ele>
        <time>2021-03-21T08:43:23Z</time>
      </trkpt>
      <trkpt lat="46.19156" lon="-0.51517">
        <ele>51</ele>
        <time>2021-03-21T08:43:27Z</time>
      </trkpt>
      <trkpt lat="46.19146" lon="-0.51535">
        <ele>51.6</ele>
        <time>2021-03-21T08:43:29Z</time>
      </trkpt>
      <trkpt lat="46.19126" lon="-0.51569">
        <ele>52</ele>
        <time>2021-03-21T08:43:33Z</time>
      </trkpt>
      <trkpt lat="46.19121" lon="-0.51578">
        <ele>52.2</ele>
        <time>2021-03-21T08:43:34Z</time>
      </trkpt>
      <trkpt lat="46.19116" lon="-0.51587">
        <ele>52.2</ele>
        <time>2021-03-21T08:43:35Z</time>
      </trkpt>
      <trkpt lat="46.19112" lon="-0.51595">
        <ele>52.4</ele>
        <time>2021-03-21T08:43:36Z</time>
      </trkpt>
      <trkpt lat="46.19107" lon="-0.51603">
        <ele>52.4</ele>
        <time>2021-03-21T08:43:37Z</time>
      </trkpt>
      <trkpt lat="46.19102" lon="-0.51612">
        <ele>52.4</ele>
        <time>2021-03-21T08:43:38Z</time>
      </trkpt>
      <trkpt lat="46.19097" lon="-0.5162">
        <ele>52.6</ele>
        <time>2021-03-21T08:43:39Z</time>
      </trkpt>
      <trkpt lat="46.19092" lon="-0.5163">
        <ele>52.6</ele>
        <time>2021-03-21T08:43:40Z</time>
      </trkpt>
      <trkpt lat="46.19088" lon="-0.51638">
        <ele>52.6</ele>
        <time>2021-03-21T08:43:41Z</time>
      </trkpt>
      <trkpt lat="46.19083" lon="-0.51646">
        <ele>52.8</ele>
        <time>2021-03-21T08:43:42Z</time>
      </trkpt>
      <trkpt lat="46.19078" lon="-0.51654">
        <ele>53</ele>
        <time>2021-03-21T08:43:43Z</time>
      </trkpt>
      <trkpt lat="46.19073" lon="-0.51662">
        <ele>53</ele>
        <time>2021-03-21T08:43:44Z</time>
      </trkpt>
      <trkpt lat="46.19067" lon="-0.5167">
        <ele>53.2</ele>
        <time>2021-03-21T08:43:45Z</time>
      </trkpt>
      <trkpt lat="46.19061" lon="-0.51677">
        <ele>53.2</ele>
        <time>2021-03-21T08:43:46Z</time>
      </trkpt>
      <trkpt lat="46.19056" lon="-0.51685">
        <ele>53.4</ele>
        <time>2021-03-21T08:43:47Z</time>
      </trkpt>
      <trkpt lat="46.19051" lon="-0.51693">
        <ele>53.6</ele>
        <time>2021-03-21T08:43:48Z</time>
      </trkpt>
      <trkpt lat="46.19046" lon="-0.517">
        <ele>53.8</ele>
        <time>2021-03-21T08:43:49Z</time>
      </trkpt>
      <trkpt lat="46.19041" lon="-0.51707">
        <ele>53.8</ele>
        <time>2021-03-21T08:43:50Z</time>
      </trkpt>
      <trkpt lat="46.19036" lon="-0.51715">
        <ele>54</ele>
        <time>2021-03-21T08:43:51Z</time>
      </trkpt>
      <trkpt lat="46.19031" lon="-0.51722">
        <ele>54.4</ele>
        <time>2021-03-21T08:43:52Z</time>
      </trkpt>
      <trkpt lat="46.19025" lon="-0.51729">
        <ele>54.4</ele>
        <time>2021-03-21T08:43:53Z</time>
      </trkpt>
      <trkpt lat="46.19019" lon="-0.51737">
        <ele>54.6</ele>
        <time>2021-03-21T08:43:54Z</time>
      </trkpt>
      <trkpt lat="46.19014" lon="-0.51745">
        <ele>54.8</ele>
        <time>2021-03-21T08:43:55Z</time>
      </trkpt>
      <trkpt lat="46.19008" lon="-0.51754">
        <ele>55</ele>
        <time>2021-03-21T08:43:56Z</time>
      </trkpt>
      <trkpt lat="46.19003" lon="-0.51762">
        <ele>55.4</ele>
        <time>2021-03-21T08:43:57Z</time>
      </trkpt>
      <trkpt lat="46.18997" lon="-0.5177">
        <ele>55.4</ele>
        <time>2021-03-21T08:43:58Z</time>
      </trkpt>
      <trkpt lat="46.18992" lon="-0.51778">
        <ele>55.6</ele>
        <time>2021-03-21T08:43:59Z</time>
      </trkpt>
      <trkpt lat="46.18985" lon="-0.51785">
        <ele>55.8</ele>
        <time>2021-03-21T08:44:00Z</time>
      </trkpt>
      <trkpt lat="46.18979" lon="-0.51791">
        <ele>56</ele>
        <time>2021-03-21T08:44:01Z</time>
      </trkpt>
      <trkpt lat="46.18973" lon="-0.51798">
        <ele>56</ele>
        <time>2021-03-21T08:44:02Z</time>
      </trkpt>
      <trkpt lat="46.18966" lon="-0.51804">
        <ele>56.2</ele>
        <time>2021-03-21T08:44:03Z</time>
      </trkpt>
      <trkpt lat="46.1896" lon="-0.5181">
        <ele>56.6</ele>
        <time>2021-03-21T08:44:04Z</time>
      </trkpt>
      <trkpt lat="46.18953" lon="-0.51817">
        <ele>56.8</ele>
        <time>2021-03-21T08:44:05Z</time>
      </trkpt>
      <trkpt lat="46.18946" lon="-0.51822">
        <ele>57</ele>
        <time>2021-03-21T08:44:06Z</time>
      </trkpt>
      <trkpt lat="46.1894" lon="-0.51827">
        <ele>57.2</ele>
        <time>2021-03-21T08:44:07Z</time>
      </trkpt>
      <trkpt lat="46.18933" lon="-0.51833">
        <ele>57.4</ele>
        <time>2021-03-21T08:44:08Z</time>
      </trkpt>
      <trkpt lat="46.18927" lon="-0.51839">
        <ele>57.4</ele>
        <time>2021-03-21T08:44:09Z</time>
      </trkpt>
      <trkpt lat="46.18921" lon="-0.51844">
        <ele>57.4</ele>
        <time>2021-03-21T08:44:10Z</time>
      </trkpt>
      <trkpt lat="46.18915" lon="-0.5185">
        <ele>57.6</ele>
        <time>2021-03-21T08:44:11Z</time>
      </trkpt>
      <trkpt lat="46.1891" lon="-0.51856">
        <ele>58</ele>
        <time>2021-03-21T08:44:12Z</time>
      </trkpt>
      <trkpt lat="46.18906" lon="-0.51861">
        <ele>58.2</ele>
        <time>2021-03-21T08:44:13Z</time>
      </trkpt>
      <trkpt lat="46.18902" lon="-0.51866">
        <ele>58.4</ele>
        <time>2021-03-21T08:44:14Z</time>
      </trkpt>
      <trkpt lat="46.18898" lon="-0.51871">
        <ele>58.6</ele>
        <time>2021-03-21T08:44:15Z</time>
      </trkpt>
      <trkpt lat="46.18895" lon="-0.51877">
        <ele>58.8</ele>
        <time>2021-03-21T08:44:16Z</time>
      </trkpt>
      <trkpt lat="46.18892" lon="-0.51884">
        <ele>59.4</ele>
        <time>2021-03-21T08:44:17Z</time>
      </trkpt>
      <trkpt lat="46.1889" lon="-0.51892">
        <ele>59.8</ele>
        <time>2021-03-21T08:44:18Z</time>
      </trkpt>
      <trkpt lat="46.18887" lon="-0.51901">
        <ele>60.2</ele>
        <time>2021-03-21T08:44:19Z</time>
      </trkpt>
      <trkpt lat="46.18885" lon="-0.51909">
        <ele>60.4</ele>
        <time>2021-03-21T08:44:20Z</time>
      </trkpt>
      <trkpt lat="46.18883" lon="-0.51918">
        <ele>60.8</ele>
        <time>2021-03-21T08:44:21Z</time>
      </trkpt>
      <trkpt lat="46.18881" lon="-0.51927">
        <ele>60.8</ele>
        <time>2021-03-21T08:44:22Z</time>
      </trkpt>
      <trkpt lat="46.18879" lon="-0.51936">
        <ele>61.4</ele>
        <time>2021-03-21T08:44:23Z</time>
      </trkpt>
      <trkpt lat="46.18876" lon="-0.51945">
        <ele>62</ele>
        <time>2021-03-21T08:44:24Z</time>
      </trkpt>
      <trkpt lat="46.18873" lon="-0.51953">
        <ele>62.4</ele>
        <time>2021-03-21T08:44:25Z</time>
      </trkpt>
      <trkpt lat="46.1887" lon="-0.51962">
        <ele>62.6</ele>
        <time>2021-03-21T08:44:26Z</time>
      </trkpt>
      <trkpt lat="46.18867" lon="-0.5197">
        <ele>62.8</ele>
        <time>2021-03-21T08:44:27Z</time>
      </trkpt>
      <trkpt lat="46.18864" lon="-0.51978">
        <ele>62.8</ele>
        <time>2021-03-21T08:44:28Z</time>
      </trkpt>
      <trkpt lat="46.18861" lon="-0.51986">
        <ele>62.8</ele>
        <time>2021-03-21T08:44:29Z</time>
      </trkpt>
      <trkpt lat="46.18858" lon="-0.51995">
        <ele>63</ele>
        <time>2021-03-21T08:44:30Z</time>
      </trkpt>
      <trkpt lat="46.18854" lon="-0.52003">
        <ele>63</ele>
        <time>2021-03-21T08:44:31Z</time>
      </trkpt>
      <trkpt lat="46.18851" lon="-0.5201">
        <ele>63</ele>
        <time>2021-03-21T08:44:32Z</time>
      </trkpt>
      <trkpt lat="46.18848" lon="-0.52018">
        <ele>63</ele>
        <time>2021-03-21T08:44:33Z</time>
      </trkpt>
      <trkpt lat="46.18845" lon="-0.52025">
        <ele>63.2</ele>
        <time>2021-03-21T08:44:34Z</time>
      </trkpt>
      <trkpt lat="46.18841" lon="-0.52032">
        <ele>63.4</ele>
        <time>2021-03-21T08:44:35Z</time>
      </trkpt>
      <trkpt lat="46.18837" lon="-0.52039">
        <ele>63.8</ele>
        <time>2021-03-21T08:44:36Z</time>
      </trkpt>
      <trkpt lat="46.18833" lon="-0.52046">
        <ele>64</ele>
        <time>2021-03-21T08:44:37Z</time>
      </trkpt>
      <trkpt lat="46.1883" lon="-0.52052">
        <ele>64</ele>
        <time>2021-03-21T08:44:38Z</time>
      </trkpt>
      <trkpt lat="46.18827" lon="-0.52059">
        <ele>64.4</ele>
        <time>2021-03-21T08:44:39Z</time>
      </trkpt>
      <trkpt lat="46.18824" lon="-0.52065">
        <ele>64.8</ele>
        <time>2021-03-21T08:44:40Z</time>
      </trkpt>
      <trkpt lat="46.18821" lon="-0.52072">
        <ele>65</ele>
        <time>2021-03-21T08:44:41Z</time>
      </trkpt>
      <trkpt lat="46.18817" lon="-0.5208">
        <ele>65.2</ele>
        <time>2021-03-21T08:44:42Z</time>
      </trkpt>
      <trkpt lat="46.18814" lon="-0.52087">
        <ele>65.2</ele>
        <time>2021-03-21T08:44:43Z</time>
      </trkpt>
      <trkpt lat="46.18811" lon="-0.52094">
        <ele>65.4</ele>
        <time>2021-03-21T08:44:44Z</time>
      </trkpt>
      <trkpt lat="46.18808" lon="-0.52102">
        <ele>65.6</ele>
        <time>2021-03-21T08:44:45Z</time>
      </trkpt>
      <trkpt lat="46.18805" lon="-0.52108">
        <ele>66</ele>
        <time>2021-03-21T08:44:46Z</time>
      </trkpt>
      <trkpt lat="46.18802" lon="-0.52115">
        <ele>66</ele>
        <time>2021-03-21T08:44:47Z</time>
      </trkpt>
      <trkpt lat="46.18798" lon="-0.52122">
        <ele>66.4</ele>
        <time>2021-03-21T08:44:48Z</time>
      </trkpt>
      <trkpt lat="46.18794" lon="-0.52129">
        <ele>66.8</ele>
        <time>2021-03-21T08:44:49Z</time>
      </trkpt>
      <trkpt lat="46.1879" lon="-0.52136">
        <ele>67</ele>
        <time>2021-03-21T08:44:50Z</time>
      </trkpt>
      <trkpt lat="46.18786" lon="-0.52143">
        <ele>67</ele>
        <time>2021-03-21T08:44:51Z</time>
      </trkpt>
      <trkpt lat="46.18783" lon="-0.52151">
        <ele>67.4</ele>
        <time>2021-03-21T08:44:52Z</time>
      </trkpt>
      <trkpt lat="46.1878" lon="-0.52158">
        <ele>67.6</ele>
        <time>2021-03-21T08:44:53Z</time>
      </trkpt>
      <trkpt lat="46.18777" lon="-0.52166">
        <ele>68</ele>
        <time>2021-03-21T08:44:54Z</time>
      </trkpt>
      <trkpt lat="46.18774" lon="-0.52173">
        <ele>68.2</ele>
        <time>2021-03-21T08:44:55Z</time>
      </trkpt>
      <trkpt lat="46.18771" lon="-0.52181">
        <ele>68.4</ele>
        <time>2021-03-21T08:44:56Z</time>
      </trkpt>
      <trkpt lat="46.18768" lon="-0.52189">
        <ele>68.6</ele>
        <time>2021-03-21T08:44:57Z</time>
      </trkpt>
      <trkpt lat="46.18766" lon="-0.52197">
        <ele>68.8</ele>
        <time>2021-03-21T08:44:58Z</time>
      </trkpt>
      <trkpt lat="46.18764" lon="-0.52204">
        <ele>69</ele>
        <time>2021-03-21T08:44:59Z</time>
      </trkpt>
      <trkpt lat="46.18761" lon="-0.52215">
        <ele>69.2</ele>
        <time>2021-03-21T08:45:00Z</time>
      </trkpt>
      <trkpt lat="46.18758" lon="-0.52224">
        <ele>69.4</ele>
        <time>2021-03-21T08:45:01Z</time>
      </trkpt>
      <trkpt lat="46.18756" lon="-0.52233">
        <ele>69.6</ele>
        <time>2021-03-21T08:45:02Z</time>
      </trkpt>
      <trkpt lat="46.18753" lon="-0.52242">
        <ele>69.8</ele>
        <time>2021-03-21T08:45:03Z</time>
      </trkpt>
      <trkpt lat="46.18751" lon="-0.52252">
        <ele>70.4</ele>
        <time>2021-03-21T08:45:04Z</time>
      </trkpt>
      <trkpt lat="46.18749" lon="-0.52261">
        <ele>70.8</ele>
        <time>2021-03-21T08:45:05Z</time>
      </trkpt>
      <trkpt lat="46.18748" lon="-0.52271">
        <ele>71</ele>
        <time>2021-03-21T08:45:06Z</time>
      </trkpt>
      <trkpt lat="46.18747" lon="-0.5228">
        <ele>71.2</ele>
        <time>2021-03-21T08:45:07Z</time>
      </trkpt>
      <trkpt lat="46.18746" lon="-0.5229">
        <ele>71.4</ele>
        <time>2021-03-21T08:45:08Z</time>
      </trkpt>
      <trkpt lat="46.18745" lon="-0.523">
        <ele>71.4</ele>
        <time>2021-03-21T08:45:09Z</time>
      </trkpt>
      <trkpt lat="46.18743" lon="-0.52309">
        <ele>71.6</ele>
        <time>2021-03-21T08:45:10Z</time>
      </trkpt>
      <trkpt lat="46.18742" lon="-0.52318">
        <ele>71.6</ele>
        <time>2021-03-21T08:45:11Z</time>
      </trkpt>
      <trkpt lat="46.1874" lon="-0.52328">
        <ele>71.6</ele>
        <time>2021-03-21T08:45:12Z</time>
      </trkpt>
      <trkpt lat="46.18739" lon="-0.52337">
        <ele>71.8</ele>
        <time>2021-03-21T08:45:13Z</time>
      </trkpt>
      <trkpt lat="46.18737" lon="-0.52346">
        <ele>71.8</ele>
        <time>2021-03-21T08:45:14Z</time>
      </trkpt>
      <trkpt lat="46.18735" lon="-0.52355">
        <ele>71.8</ele>
        <time>2021-03-21T08:45:15Z</time>
      </trkpt>
      <trkpt lat="46.18733" lon="-0.52364">
        <ele>71.8</ele>
        <time>2021-03-21T08:45:16Z</time>
      </trkpt>
      <trkpt lat="46.18731" lon="-0.52373">
        <ele>72</ele>
        <time>2021-03-21T08:45:17Z</time>
      </trkpt>
      <trkpt lat="46.18729" lon="-0.52382">
        <ele>72</ele>
        <time>2021-03-21T08:45:18Z</time>
      </trkpt>
      <trkpt lat="46.18727" lon="-0.52391">
        <ele>72</ele>
        <time>2021-03-21T08:45:19Z</time>
      </trkpt>
      <trkpt lat="46.18726" lon="-0.52398">
        <ele>72</ele>
        <time>2021-03-21T08:45:20Z</time>
      </trkpt>
      <trkpt lat="46.18725" lon="-0.5241">
        <ele>72</ele>
        <time>2021-03-21T08:45:21Z</time>
      </trkpt>
      <trkpt lat="46.18726" lon="-0.52419">
        <ele>72</ele>
        <time>2021-03-21T08:45:22Z</time>
      </trkpt>
      <trkpt lat="46.18727" lon="-0.52428">
        <ele>72</ele>
        <time>2021-03-21T08:45:23Z</time>
      </trkpt>
      <trkpt lat="46.18728" lon="-0.52437">
        <ele>72</ele>
        <time>2021-03-21T08:45:24Z</time>
      </trkpt>
      <trkpt lat="46.1873" lon="-0.52446">
        <ele>71.8</ele>
        <time>2021-03-21T08:45:25Z</time>
      </trkpt>
      <trkpt lat="46.18731" lon="-0.52455">
        <ele>71.8</ele>
        <time>2021-03-21T08:45:26Z</time>
      </trkpt>
      <trkpt lat="46.18734" lon="-0.52464">
        <ele>71.8</ele>
        <time>2021-03-21T08:45:27Z</time>
      </trkpt>
      <trkpt lat="46.18736" lon="-0.52473">
        <ele>71.8</ele>
        <time>2021-03-21T08:45:28Z</time>
      </trkpt>
      <trkpt lat="46.18738" lon="-0.52482">
        <ele>71.8</ele>
        <time>2021-03-21T08:45:29Z</time>
      </trkpt>
      <trkpt lat="46.1874" lon="-0.5249">
        <ele>71.8</ele>
        <time>2021-03-21T08:45:30Z</time>
      </trkpt>
      <trkpt lat="46.18753" lon="-0.52543">
        <ele>71.2</ele>
        <time>2021-03-21T08:45:36Z</time>
      </trkpt>
      <trkpt lat="46.1876" lon="-0.5257">
        <ele>71</ele>
        <time>2021-03-21T08:45:39Z</time>
      </trkpt>
      <trkpt lat="46.18763" lon="-0.52579">
        <ele>71</ele>
        <time>2021-03-21T08:45:40Z</time>
      </trkpt>
      <trkpt lat="46.18767" lon="-0.52596">
        <ele>70.8</ele>
        <time>2021-03-21T08:45:42Z</time>
      </trkpt>
      <trkpt lat="46.18771" lon="-0.52604">
        <ele>70.8</ele>
        <time>2021-03-21T08:45:43Z</time>
      </trkpt>
      <trkpt lat="46.1878" lon="-0.52639">
        <ele>70.4</ele>
        <time>2021-03-21T08:45:47Z</time>
      </trkpt>
      <trkpt lat="46.18788" lon="-0.52674">
        <ele>70</ele>
        <time>2021-03-21T08:45:51Z</time>
      </trkpt>
      <trkpt lat="46.18797" lon="-0.52738">
        <ele>69</ele>
        <time>2021-03-21T08:45:58Z</time>
      </trkpt>
      <trkpt lat="46.18798" lon="-0.52747">
        <ele>68.8</ele>
        <time>2021-03-21T08:45:59Z</time>
      </trkpt>
      <trkpt lat="46.18797" lon="-0.52787">
        <ele>68.2</ele>
        <time>2021-03-21T08:46:03Z</time>
      </trkpt>
      <trkpt lat="46.18795" lon="-0.52797">
        <ele>68.2</ele>
        <time>2021-03-21T08:46:04Z</time>
      </trkpt>
      <trkpt lat="46.18786" lon="-0.52823">
        <ele>68</ele>
        <time>2021-03-21T08:46:07Z</time>
      </trkpt>
      <trkpt lat="46.18781" lon="-0.52828">
        <ele>68</ele>
        <time>2021-03-21T08:46:08Z</time>
      </trkpt>
      <trkpt lat="46.18775" lon="-0.52832">
        <ele>68</ele>
        <time>2021-03-21T08:46:09Z</time>
      </trkpt>
      <trkpt lat="46.18769" lon="-0.52837">
        <ele>67.8</ele>
        <time>2021-03-21T08:46:10Z</time>
      </trkpt>
      <trkpt lat="46.18762" lon="-0.52843">
        <ele>67.8</ele>
        <time>2021-03-21T08:46:11Z</time>
      </trkpt>
      <trkpt lat="46.18755" lon="-0.52848">
        <ele>67.8</ele>
        <time>2021-03-21T08:46:12Z</time>
      </trkpt>
      <trkpt lat="46.18748" lon="-0.52853">
        <ele>67.8</ele>
        <time>2021-03-21T08:46:13Z</time>
      </trkpt>
      <trkpt lat="46.18706" lon="-0.52883">
        <ele>67.2</ele>
        <time>2021-03-21T08:46:19Z</time>
      </trkpt>
      <trkpt lat="46.187" lon="-0.52888">
        <ele>67</ele>
        <time>2021-03-21T08:46:20Z</time>
      </trkpt>
      <trkpt lat="46.18694" lon="-0.52895">
        <ele>66.8</ele>
        <time>2021-03-21T08:46:21Z</time>
      </trkpt>
      <trkpt lat="46.18688" lon="-0.52902">
        <ele>66.4</ele>
        <time>2021-03-21T08:46:22Z</time>
      </trkpt>
      <trkpt lat="46.18682" lon="-0.5291">
        <ele>66</ele>
        <time>2021-03-21T08:46:23Z</time>
      </trkpt>
      <trkpt lat="46.18676" lon="-0.52918">
        <ele>65.8</ele>
        <time>2021-03-21T08:46:24Z</time>
      </trkpt>
      <trkpt lat="46.18656" lon="-0.52958">
        <ele>65.4</ele>
        <time>2021-03-21T08:46:28Z</time>
      </trkpt>
      <trkpt lat="46.18634" lon="-0.53006">
        <ele>65</ele>
        <time>2021-03-21T08:46:33Z</time>
      </trkpt>
      <trkpt lat="46.18631" lon="-0.53014">
        <ele>64.8</ele>
        <time>2021-03-21T08:46:34Z</time>
      </trkpt>
      <trkpt lat="46.18627" lon="-0.53021">
        <ele>64.8</ele>
        <time>2021-03-21T08:46:35Z</time>
      </trkpt>
      <trkpt lat="46.18623" lon="-0.53028">
        <ele>64.6</ele>
        <time>2021-03-21T08:46:36Z</time>
      </trkpt>
      <trkpt lat="46.1862" lon="-0.53036">
        <ele>64.4</ele>
        <time>2021-03-21T08:46:37Z</time>
      </trkpt>
      <trkpt lat="46.18616" lon="-0.53043">
        <ele>64.4</ele>
        <time>2021-03-21T08:46:38Z</time>
      </trkpt>
      <trkpt lat="46.18612" lon="-0.53049">
        <ele>64.2</ele>
        <time>2021-03-21T08:46:39Z</time>
      </trkpt>
      <trkpt lat="46.18608" lon="-0.53056">
        <ele>63.8</ele>
        <time>2021-03-21T08:46:40Z</time>
      </trkpt>
      <trkpt lat="46.18605" lon="-0.53063">
        <ele>63.8</ele>
        <time>2021-03-21T08:46:41Z</time>
      </trkpt>
      <trkpt lat="46.18601" lon="-0.5307">
        <ele>63.6</ele>
        <time>2021-03-21T08:46:42Z</time>
      </trkpt>
      <trkpt lat="46.18592" lon="-0.53095">
        <ele>63.2</ele>
        <time>2021-03-21T08:46:45Z</time>
      </trkpt>
      <trkpt lat="46.18586" lon="-0.53111">
        <ele>63</ele>
        <time>2021-03-21T08:46:47Z</time>
      </trkpt>
      <trkpt lat="46.18586" lon="-0.53124">
        <ele>62.8</ele>
        <time>2021-03-21T08:46:49Z</time>
      </trkpt>
      <trkpt lat="46.18589" lon="-0.53129">
        <ele>62.8</ele>
        <time>2021-03-21T08:46:50Z</time>
      </trkpt>
      <trkpt lat="46.18594" lon="-0.53133">
        <ele>62.8</ele>
        <time>2021-03-21T08:46:51Z</time>
      </trkpt>
      <trkpt lat="46.186" lon="-0.53136">
        <ele>62.8</ele>
        <time>2021-03-21T08:46:52Z</time>
      </trkpt>
      <trkpt lat="46.18613" lon="-0.53145">
        <ele>62.8</ele>
        <time>2021-03-21T08:46:54Z</time>
      </trkpt>
      <trkpt lat="46.18621" lon="-0.53148">
        <ele>62.6</ele>
        <time>2021-03-21T08:46:55Z</time>
      </trkpt>
      <trkpt lat="46.18629" lon="-0.53152">
        <ele>62.6</ele>
        <time>2021-03-21T08:46:56Z</time>
      </trkpt>
      <trkpt lat="46.18675" lon="-0.53176">
        <ele>61.8</ele>
        <time>2021-03-21T08:47:02Z</time>
      </trkpt>
      <trkpt lat="46.18682" lon="-0.53181">
        <ele>61.6</ele>
        <time>2021-03-21T08:47:03Z</time>
      </trkpt>
      <trkpt lat="46.18715" lon="-0.53204">
        <ele>61</ele>
        <time>2021-03-21T08:47:08Z</time>
      </trkpt>
      <trkpt lat="46.18723" lon="-0.53209">
        <ele>60.8</ele>
        <time>2021-03-21T08:47:09Z</time>
      </trkpt>
      <trkpt lat="46.18728" lon="-0.53212">
        <ele>60.8</ele>
        <time>2021-03-21T08:47:10Z</time>
      </trkpt>
      <trkpt lat="46.18733" lon="-0.53216">
        <ele>60.8</ele>
        <time>2021-03-21T08:47:11Z</time>
      </trkpt>
      <trkpt lat="46.18737" lon="-0.53219">
        <ele>60.8</ele>
        <time>2021-03-21T08:47:12Z</time>
      </trkpt>
      <trkpt lat="46.18741" lon="-0.53222">
        <ele>60.8</ele>
        <time>2021-03-21T08:47:13Z</time>
      </trkpt>
      <trkpt lat="46.18746" lon="-0.53224">
        <ele>61</ele>
        <time>2021-03-21T08:47:14Z</time>
      </trkpt>
      <trkpt lat="46.18751" lon="-0.53225">
        <ele>61</ele>
        <time>2021-03-21T08:47:15Z</time>
      </trkpt>
      <trkpt lat="46.18763" lon="-0.53223">
        <ele>61.8</ele>
        <time>2021-03-21T08:47:17Z</time>
      </trkpt>
      <trkpt lat="46.1877" lon="-0.53222">
        <ele>62</ele>
        <time>2021-03-21T08:47:18Z</time>
      </trkpt>
      <trkpt lat="46.18777" lon="-0.53221">
        <ele>62.8</ele>
        <time>2021-03-21T08:47:19Z</time>
      </trkpt>
      <trkpt lat="46.18798" lon="-0.53219">
        <ele>64</ele>
        <time>2021-03-21T08:47:22Z</time>
      </trkpt>
      <trkpt lat="46.18804" lon="-0.53218">
        <ele>64</ele>
        <time>2021-03-21T08:47:23Z</time>
      </trkpt>
      <trkpt lat="46.1881" lon="-0.53215">
        <ele>64.2</ele>
        <time>2021-03-21T08:47:24Z</time>
      </trkpt>
      <trkpt lat="46.18815" lon="-0.53212">
        <ele>64.2</ele>
        <time>2021-03-21T08:47:25Z</time>
      </trkpt>
      <trkpt lat="46.18819" lon="-0.53209">
        <ele>64.4</ele>
        <time>2021-03-21T08:47:26Z</time>
      </trkpt>
      <trkpt lat="46.18824" lon="-0.53207">
        <ele>64.4</ele>
        <time>2021-03-21T08:47:27Z</time>
      </trkpt>
      <trkpt lat="46.18828" lon="-0.53207">
        <ele>64.6</ele>
        <time>2021-03-21T08:47:28Z</time>
      </trkpt>
      <trkpt lat="46.18834" lon="-0.53209">
        <ele>64.6</ele>
        <time>2021-03-21T08:47:29Z</time>
      </trkpt>
      <trkpt lat="46.18838" lon="-0.53215">
        <ele>64.8</ele>
        <time>2021-03-21T08:47:30Z</time>
      </trkpt>
      <trkpt lat="46.18839" lon="-0.53224">
        <ele>64.8</ele>
        <time>2021-03-21T08:47:31Z</time>
      </trkpt>
      <trkpt lat="46.18838" lon="-0.53234">
        <ele>64.8</ele>
        <time>2021-03-21T08:47:32Z</time>
      </trkpt>
      <trkpt lat="46.18837" lon="-0.53244">
        <ele>64.8</ele>
        <time>2021-03-21T08:47:33Z</time>
      </trkpt>
      <trkpt lat="46.18835" lon="-0.53255">
        <ele>65</ele>
        <time>2021-03-21T08:47:34Z</time>
      </trkpt>
      <trkpt lat="46.18834" lon="-0.53266">
        <ele>65</ele>
        <time>2021-03-21T08:47:35Z</time>
      </trkpt>
      <trkpt lat="46.18832" lon="-0.53278">
        <ele>65</ele>
        <time>2021-03-21T08:47:36Z</time>
      </trkpt>
      <trkpt lat="46.18831" lon="-0.5329">
        <ele>65</ele>
        <time>2021-03-21T08:47:37Z</time>
      </trkpt>
      <trkpt lat="46.18829" lon="-0.53302">
        <ele>65</ele>
        <time>2021-03-21T08:47:38Z</time>
      </trkpt>
      <trkpt lat="46.18828" lon="-0.53314">
        <ele>65</ele>
        <time>2021-03-21T08:47:39Z</time>
      </trkpt>
      <trkpt lat="46.18827" lon="-0.53326">
        <ele>65</ele>
        <time>2021-03-21T08:47:40Z</time>
      </trkpt>
      <trkpt lat="46.18826" lon="-0.53337">
        <ele>65</ele>
        <time>2021-03-21T08:47:41Z</time>
      </trkpt>
      <trkpt lat="46.18824" lon="-0.53349">
        <ele>65</ele>
        <time>2021-03-21T08:47:42Z</time>
      </trkpt>
      <trkpt lat="46.18823" lon="-0.53359">
        <ele>65</ele>
        <time>2021-03-21T08:47:43Z</time>
      </trkpt>
      <trkpt lat="46.18821" lon="-0.53369">
        <ele>65</ele>
        <time>2021-03-21T08:47:44Z</time>
      </trkpt>
      <trkpt lat="46.1882" lon="-0.53379">
        <ele>65</ele>
        <time>2021-03-21T08:47:45Z</time>
      </trkpt>
      <trkpt lat="46.18819" lon="-0.53388">
        <ele>65</ele>
        <time>2021-03-21T08:47:46Z</time>
      </trkpt>
      <trkpt lat="46.18819" lon="-0.53396">
        <ele>65</ele>
        <time>2021-03-21T08:47:47Z</time>
      </trkpt>
      <trkpt lat="46.18822" lon="-0.53403">
        <ele>65</ele>
        <time>2021-03-21T08:47:48Z</time>
      </trkpt>
      <trkpt lat="46.18825" lon="-0.53407">
        <ele>65</ele>
        <time>2021-03-21T08:47:49Z</time>
      </trkpt>
      <trkpt lat="46.1883" lon="-0.53408">
        <ele>65</ele>
        <time>2021-03-21T08:47:50Z</time>
      </trkpt>
      <trkpt lat="46.18836" lon="-0.53408">
        <ele>64.8</ele>
        <time>2021-03-21T08:47:51Z</time>
      </trkpt>
      <trkpt lat="46.18862" lon="-0.53408">
        <ele>65</ele>
        <time>2021-03-21T08:47:55Z</time>
      </trkpt>
      <trkpt lat="46.18892" lon="-0.53409">
        <ele>65</ele>
        <time>2021-03-21T08:47:59Z</time>
      </trkpt>
      <trkpt lat="46.18899" lon="-0.53409">
        <ele>65</ele>
        <time>2021-03-21T08:48:00Z</time>
      </trkpt>
      <trkpt lat="46.18915" lon="-0.53408">
        <ele>65</ele>
        <time>2021-03-21T08:48:02Z</time>
      </trkpt>
      <trkpt lat="46.1894" lon="-0.53409">
        <ele>65</ele>
        <time>2021-03-21T08:48:05Z</time>
      </trkpt>
      <trkpt lat="46.18972" lon="-0.5341">
        <ele>64.8</ele>
        <time>2021-03-21T08:48:09Z</time>
      </trkpt>
      <trkpt lat="46.18987" lon="-0.53412">
        <ele>64.8</ele>
        <time>2021-03-21T08:48:11Z</time>
      </trkpt>
      <trkpt lat="46.18995" lon="-0.53414">
        <ele>64.8</ele>
        <time>2021-03-21T08:48:12Z</time>
      </trkpt>
      <trkpt lat="46.19017" lon="-0.53416">
        <ele>64.6</ele>
        <time>2021-03-21T08:48:15Z</time>
      </trkpt>
      <trkpt lat="46.19025" lon="-0.53417">
        <ele>64.6</ele>
        <time>2021-03-21T08:48:16Z</time>
      </trkpt>
      <trkpt lat="46.19032" lon="-0.53418">
        <ele>64.6</ele>
        <time>2021-03-21T08:48:17Z</time>
      </trkpt>
      <trkpt lat="46.19055" lon="-0.53418">
        <ele>64.4</ele>
        <time>2021-03-21T08:48:20Z</time>
      </trkpt>
      <trkpt lat="46.1907" lon="-0.53419">
        <ele>64</ele>
        <time>2021-03-21T08:48:22Z</time>
      </trkpt>
      <trkpt lat="46.19107" lon="-0.53418">
        <ele>63.6</ele>
        <time>2021-03-21T08:48:27Z</time>
      </trkpt>
      <trkpt lat="46.19114" lon="-0.53418">
        <ele>63.8</ele>
        <time>2021-03-21T08:48:28Z</time>
      </trkpt>
      <trkpt lat="46.1912" lon="-0.53418">
        <ele>63.8</ele>
        <time>2021-03-21T08:48:29Z</time>
      </trkpt>
      <trkpt lat="46.19127" lon="-0.53417">
        <ele>63.6</ele>
        <time>2021-03-21T08:48:30Z</time>
      </trkpt>
      <trkpt lat="46.19133" lon="-0.53417">
        <ele>63.8</ele>
        <time>2021-03-21T08:48:31Z</time>
      </trkpt>
      <trkpt lat="46.19159" lon="-0.53415">
        <ele>63.4</ele>
        <time>2021-03-21T08:48:35Z</time>
      </trkpt>
      <trkpt lat="46.19166" lon="-0.53415">
        <ele>63.4</ele>
        <time>2021-03-21T08:48:36Z</time>
      </trkpt>
      <trkpt lat="46.19172" lon="-0.53415">
        <ele>63.2</ele>
        <time>2021-03-21T08:48:37Z</time>
      </trkpt>
      <trkpt lat="46.19179" lon="-0.53415">
        <ele>63.2</ele>
        <time>2021-03-21T08:48:38Z</time>
      </trkpt>
      <trkpt lat="46.19185" lon="-0.53415">
        <ele>63.2</ele>
        <time>2021-03-21T08:48:39Z</time>
      </trkpt>
      <trkpt lat="46.19232" lon="-0.53415">
        <ele>62.6</ele>
        <time>2021-03-21T08:48:46Z</time>
      </trkpt>
      <trkpt lat="46.19238" lon="-0.53415">
        <ele>62.2</ele>
        <time>2021-03-21T08:48:47Z</time>
      </trkpt>
      <trkpt lat="46.19264" lon="-0.53414">
        <ele>61.4</ele>
        <time>2021-03-21T08:48:51Z</time>
      </trkpt>
      <trkpt lat="46.19284" lon="-0.53414">
        <ele>61</ele>
        <time>2021-03-21T08:48:54Z</time>
      </trkpt>
      <trkpt lat="46.1929" lon="-0.53414">
        <ele>60.4</ele>
        <time>2021-03-21T08:48:55Z</time>
      </trkpt>
      <trkpt lat="46.19297" lon="-0.53414">
        <ele>60</ele>
        <time>2021-03-21T08:48:56Z</time>
      </trkpt>
      <trkpt lat="46.1931" lon="-0.53413">
        <ele>59.2</ele>
        <time>2021-03-21T08:48:58Z</time>
      </trkpt>
      <trkpt lat="46.19337" lon="-0.53413">
        <ele>57.8</ele>
        <time>2021-03-21T08:49:02Z</time>
      </trkpt>
      <trkpt lat="46.1935" lon="-0.53414">
        <ele>56.8</ele>
        <time>2021-03-21T08:49:04Z</time>
      </trkpt>
      <trkpt lat="46.19357" lon="-0.53414">
        <ele>56.4</ele>
        <time>2021-03-21T08:49:05Z</time>
      </trkpt>
      <trkpt lat="46.19383" lon="-0.53413">
        <ele>55.6</ele>
        <time>2021-03-21T08:49:09Z</time>
      </trkpt>
      <trkpt lat="46.19423" lon="-0.53412">
        <ele>55</ele>
        <time>2021-03-21T08:49:15Z</time>
      </trkpt>
      <trkpt lat="46.19436" lon="-0.53412">
        <ele>54.4</ele>
        <time>2021-03-21T08:49:17Z</time>
      </trkpt>
      <trkpt lat="46.19475" lon="-0.53414">
        <ele>53.2</ele>
        <time>2021-03-21T08:49:23Z</time>
      </trkpt>
      <trkpt lat="46.19488" lon="-0.53415">
        <ele>53</ele>
        <time>2021-03-21T08:49:25Z</time>
      </trkpt>
      <trkpt lat="46.19546" lon="-0.53412">
        <ele>52.2</ele>
        <time>2021-03-21T08:49:34Z</time>
      </trkpt>
      <trkpt lat="46.19553" lon="-0.53412">
        <ele>52.2</ele>
        <time>2021-03-21T08:49:35Z</time>
      </trkpt>
      <trkpt lat="46.19559" lon="-0.53412">
        <ele>52</ele>
        <time>2021-03-21T08:49:36Z</time>
      </trkpt>
      <trkpt lat="46.19596" lon="-0.5341">
        <ele>51.4</ele>
        <time>2021-03-21T08:49:42Z</time>
      </trkpt>
      <trkpt lat="46.19608" lon="-0.53409">
        <ele>51.4</ele>
        <time>2021-03-21T08:49:44Z</time>
      </trkpt>
      <trkpt lat="46.19614" lon="-0.53408">
        <ele>51.4</ele>
        <time>2021-03-21T08:49:45Z</time>
      </trkpt>
      <trkpt lat="46.1962" lon="-0.53406">
        <ele>51.2</ele>
        <time>2021-03-21T08:49:46Z</time>
      </trkpt>
      <trkpt lat="46.19626" lon="-0.53403">
        <ele>51.2</ele>
        <time>2021-03-21T08:49:47Z</time>
      </trkpt>
      <trkpt lat="46.19639" lon="-0.53396">
        <ele>51.2</ele>
        <time>2021-03-21T08:49:49Z</time>
      </trkpt>
      <trkpt lat="46.1966" lon="-0.53384">
        <ele>50.6</ele>
        <time>2021-03-21T08:49:52Z</time>
      </trkpt>
      <trkpt lat="46.19682" lon="-0.53372">
        <ele>50</ele>
        <time>2021-03-21T08:49:55Z</time>
      </trkpt>
      <trkpt lat="46.19697" lon="-0.53363">
        <ele>49.4</ele>
        <time>2021-03-21T08:49:57Z</time>
      </trkpt>
      <trkpt lat="46.19704" lon="-0.53358">
        <ele>49</ele>
        <time>2021-03-21T08:49:58Z</time>
      </trkpt>
      <trkpt lat="46.1972" lon="-0.5335">
        <ele>48.2</ele>
        <time>2021-03-21T08:50:00Z</time>
      </trkpt>
      <trkpt lat="46.19727" lon="-0.53345">
        <ele>48</ele>
        <time>2021-03-21T08:50:01Z</time>
      </trkpt>
      <trkpt lat="46.19772" lon="-0.53314">
        <ele>47.4</ele>
        <time>2021-03-21T08:50:07Z</time>
      </trkpt>
      <trkpt lat="46.19823" lon="-0.53278">
        <ele>47.2</ele>
        <time>2021-03-21T08:50:14Z</time>
      </trkpt>
      <trkpt lat="46.1983" lon="-0.53272">
        <ele>47.2</ele>
        <time>2021-03-21T08:50:15Z</time>
      </trkpt>
      <trkpt lat="46.19865" lon="-0.53248">
        <ele>47.2</ele>
        <time>2021-03-21T08:50:20Z</time>
      </trkpt>
      <trkpt lat="46.19871" lon="-0.53243">
        <ele>47.4</ele>
        <time>2021-03-21T08:50:21Z</time>
      </trkpt>
      <trkpt lat="46.19877" lon="-0.53238">
        <ele>47.4</ele>
        <time>2021-03-21T08:50:22Z</time>
      </trkpt>
      <trkpt lat="46.19882" lon="-0.53234">
        <ele>47.4</ele>
        <time>2021-03-21T08:50:23Z</time>
      </trkpt>
      <trkpt lat="46.19887" lon="-0.5323">
        <ele>47.4</ele>
        <time>2021-03-21T08:50:24Z</time>
      </trkpt>
      <trkpt lat="46.19891" lon="-0.53228">
        <ele>47.4</ele>
        <time>2021-03-21T08:50:25Z</time>
      </trkpt>
      <trkpt lat="46.19896" lon="-0.53228">
        <ele>47.4</ele>
        <time>2021-03-21T08:50:26Z</time>
      </trkpt>
      <trkpt lat="46.19901" lon="-0.53231">
        <ele>47.4</ele>
        <time>2021-03-21T08:50:27Z</time>
      </trkpt>
      <trkpt lat="46.19905" lon="-0.53236">
        <ele>47.4</ele>
        <time>2021-03-21T08:50:28Z</time>
      </trkpt>
      <trkpt lat="46.19909" lon="-0.53243">
        <ele>47.4</ele>
        <time>2021-03-21T08:50:29Z</time>
      </trkpt>
      <trkpt lat="46.19917" lon="-0.5326">
        <ele>47.4</ele>
        <time>2021-03-21T08:50:31Z</time>
      </trkpt>
      <trkpt lat="46.19921" lon="-0.53268">
        <ele>47.4</ele>
        <time>2021-03-21T08:50:32Z</time>
      </trkpt>
      <trkpt lat="46.19926" lon="-0.53277">
        <ele>47.4</ele>
        <time>2021-03-21T08:50:33Z</time>
      </trkpt>
      <trkpt lat="46.19948" lon="-0.53324">
        <ele>47.2</ele>
        <time>2021-03-21T08:50:38Z</time>
      </trkpt>
      <trkpt lat="46.19952" lon="-0.53333">
        <ele>47.2</ele>
        <time>2021-03-21T08:50:39Z</time>
      </trkpt>
      <trkpt lat="46.19955" lon="-0.5334">
        <ele>47.2</ele>
        <time>2021-03-21T08:50:40Z</time>
      </trkpt>
      <trkpt lat="46.19959" lon="-0.53349">
        <ele>47.2</ele>
        <time>2021-03-21T08:50:41Z</time>
      </trkpt>
      <trkpt lat="46.19962" lon="-0.53356">
        <ele>47.2</ele>
        <time>2021-03-21T08:50:42Z</time>
      </trkpt>
      <trkpt lat="46.19966" lon="-0.53361">
        <ele>47.2</ele>
        <time>2021-03-21T08:50:43Z</time>
      </trkpt>
      <trkpt lat="46.1997" lon="-0.53362">
        <ele>47.2</ele>
        <time>2021-03-21T08:50:44Z</time>
      </trkpt>
      <trkpt lat="46.19974" lon="-0.5336">
        <ele>47.2</ele>
        <time>2021-03-21T08:50:45Z</time>
      </trkpt>
      <trkpt lat="46.19977" lon="-0.53355">
        <ele>47.2</ele>
        <time>2021-03-21T08:50:46Z</time>
      </trkpt>
      <trkpt lat="46.19983" lon="-0.53339">
        <ele>47.2</ele>
        <time>2021-03-21T08:50:48Z</time>
      </trkpt>
      <trkpt lat="46.1999" lon="-0.53323">
        <ele>47.2</ele>
        <time>2021-03-21T08:50:50Z</time>
      </trkpt>
      <trkpt lat="46.19994" lon="-0.53315">
        <ele>47.4</ele>
        <time>2021-03-21T08:50:51Z</time>
      </trkpt>
      <trkpt lat="46.20008" lon="-0.53288">
        <ele>48</ele>
        <time>2021-03-21T08:50:54Z</time>
      </trkpt>
      <trkpt lat="46.20022" lon="-0.5326">
        <ele>48.4</ele>
        <time>2021-03-21T08:50:57Z</time>
      </trkpt>
      <trkpt lat="46.20027" lon="-0.53251">
        <ele>48.4</ele>
        <time>2021-03-21T08:50:58Z</time>
      </trkpt>
      <trkpt lat="46.20031" lon="-0.53242">
        <ele>48.4</ele>
        <time>2021-03-21T08:50:59Z</time>
      </trkpt>
      <trkpt lat="46.20048" lon="-0.53205">
        <ele>48.4</ele>
        <time>2021-03-21T08:51:03Z</time>
      </trkpt>
      <trkpt lat="46.20052" lon="-0.53195">
        <ele>48.6</ele>
        <time>2021-03-21T08:51:04Z</time>
      </trkpt>
      <trkpt lat="46.20056" lon="-0.53186">
        <ele>48.6</ele>
        <time>2021-03-21T08:51:05Z</time>
      </trkpt>
      <trkpt lat="46.20067" lon="-0.53172">
        <ele>48.6</ele>
        <time>2021-03-21T08:51:07Z</time>
      </trkpt>
      <trkpt lat="46.2008" lon="-0.53164">
        <ele>48.6</ele>
        <time>2021-03-21T08:51:09Z</time>
      </trkpt>
      <trkpt lat="46.20087" lon="-0.53162">
        <ele>48.8</ele>
        <time>2021-03-21T08:51:10Z</time>
      </trkpt>
      <trkpt lat="46.20094" lon="-0.5316">
        <ele>48.8</ele>
        <time>2021-03-21T08:51:11Z</time>
      </trkpt>
      <trkpt lat="46.20101" lon="-0.53158">
        <ele>49</ele>
        <time>2021-03-21T08:51:12Z</time>
      </trkpt>
      <trkpt lat="46.20107" lon="-0.53156">
        <ele>49</ele>
        <time>2021-03-21T08:51:13Z</time>
      </trkpt>
      <trkpt lat="46.20113" lon="-0.53154">
        <ele>49.2</ele>
        <time>2021-03-21T08:51:14Z</time>
      </trkpt>
      <trkpt lat="46.20119" lon="-0.53153">
        <ele>49.4</ele>
        <time>2021-03-21T08:51:15Z</time>
      </trkpt>
      <trkpt lat="46.20126" lon="-0.53151">
        <ele>49.6</ele>
        <time>2021-03-21T08:51:16Z</time>
      </trkpt>
      <trkpt lat="46.20177" lon="-0.5314">
        <ele>50</ele>
        <time>2021-03-21T08:51:24Z</time>
      </trkpt>
      <trkpt lat="46.20203" lon="-0.53142">
        <ele>49.8</ele>
        <time>2021-03-21T08:51:28Z</time>
      </trkpt>
      <trkpt lat="46.20222" lon="-0.53145">
        <ele>50</ele>
        <time>2021-03-21T08:51:31Z</time>
      </trkpt>
      <trkpt lat="46.20273" lon="-0.53163">
        <ele>49.8</ele>
        <time>2021-03-21T08:51:39Z</time>
      </trkpt>
      <trkpt lat="46.20324" lon="-0.53179">
        <ele>50</ele>
        <time>2021-03-21T08:51:47Z</time>
      </trkpt>
      <trkpt lat="46.20377" lon="-0.53178">
        <ele>50</ele>
        <time>2021-03-21T08:51:55Z</time>
      </trkpt>
      <trkpt lat="46.20429" lon="-0.5318">
        <ele>49.6</ele>
        <time>2021-03-21T08:52:03Z</time>
      </trkpt>
      <trkpt lat="46.20486" lon="-0.53187">
        <ele>49</ele>
        <time>2021-03-21T08:52:12Z</time>
      </trkpt>
      <trkpt lat="46.20532" lon="-0.53188">
        <ele>48.8</ele>
        <time>2021-03-21T08:52:19Z</time>
      </trkpt>
      <trkpt lat="46.20538" lon="-0.53187">
        <ele>48.6</ele>
        <time>2021-03-21T08:52:20Z</time>
      </trkpt>
      <trkpt lat="46.20551" lon="-0.53186">
        <ele>48.6</ele>
        <time>2021-03-21T08:52:22Z</time>
      </trkpt>
      <trkpt lat="46.20558" lon="-0.53186">
        <ele>48.6</ele>
        <time>2021-03-21T08:52:23Z</time>
      </trkpt>
      <trkpt lat="46.20571" lon="-0.53184">
        <ele>48.4</ele>
        <time>2021-03-21T08:52:25Z</time>
      </trkpt>
      <trkpt lat="46.20597" lon="-0.53182">
        <ele>48</ele>
        <time>2021-03-21T08:52:29Z</time>
      </trkpt>
      <trkpt lat="46.20615" lon="-0.5318">
        <ele>47.6</ele>
        <time>2021-03-21T08:52:32Z</time>
      </trkpt>
      <trkpt lat="46.20652" lon="-0.53176">
        <ele>47.4</ele>
        <time>2021-03-21T08:52:37Z</time>
      </trkpt>
      <trkpt lat="46.20701" lon="-0.53169">
        <ele>47.2</ele>
        <time>2021-03-21T08:52:43Z</time>
      </trkpt>
      <trkpt lat="46.20709" lon="-0.53167">
        <ele>47</ele>
        <time>2021-03-21T08:52:44Z</time>
      </trkpt>
      <trkpt lat="46.20733" lon="-0.53163">
        <ele>46.6</ele>
        <time>2021-03-21T08:52:47Z</time>
      </trkpt>
      <trkpt lat="46.20766" lon="-0.53155">
        <ele>46</ele>
        <time>2021-03-21T08:52:51Z</time>
      </trkpt>
      <trkpt lat="46.20808" lon="-0.53148">
        <ele>45.6</ele>
        <time>2021-03-21T08:52:56Z</time>
      </trkpt>
      <trkpt lat="46.20833" lon="-0.53142">
        <ele>45.2</ele>
        <time>2021-03-21T08:52:59Z</time>
      </trkpt>
      <trkpt lat="46.20842" lon="-0.5314">
        <ele>45</ele>
        <time>2021-03-21T08:53:00Z</time>
      </trkpt>
      <trkpt lat="46.20875" lon="-0.53129">
        <ele>44.6</ele>
        <time>2021-03-21T08:53:04Z</time>
      </trkpt>
      <trkpt lat="46.20883" lon="-0.53125">
        <ele>44.2</ele>
        <time>2021-03-21T08:53:05Z</time>
      </trkpt>
      <trkpt lat="46.20907" lon="-0.5311">
        <ele>43.4</ele>
        <time>2021-03-21T08:53:08Z</time>
      </trkpt>
      <trkpt lat="46.20946" lon="-0.53086">
        <ele>42.8</ele>
        <time>2021-03-21T08:53:13Z</time>
      </trkpt>
      <trkpt lat="46.20962" lon="-0.53076">
        <ele>42.4</ele>
        <time>2021-03-21T08:53:15Z</time>
      </trkpt>
      <trkpt lat="46.21017" lon="-0.53047">
        <ele>41.8</ele>
        <time>2021-03-21T08:53:22Z</time>
      </trkpt>
      <trkpt lat="46.21026" lon="-0.53045">
        <ele>41.4</ele>
        <time>2021-03-21T08:53:23Z</time>
      </trkpt>
      <trkpt lat="46.21076" lon="-0.53036">
        <ele>40.4</ele>
        <time>2021-03-21T08:53:29Z</time>
      </trkpt>
      <trkpt lat="46.2111" lon="-0.53028">
        <ele>39.2</ele>
        <time>2021-03-21T08:53:33Z</time>
      </trkpt>
      <trkpt lat="46.21126" lon="-0.53023">
        <ele>38.8</ele>
        <time>2021-03-21T08:53:35Z</time>
      </trkpt>
      <trkpt lat="46.21134" lon="-0.5302">
        <ele>38.8</ele>
        <time>2021-03-21T08:53:36Z</time>
      </trkpt>
      <trkpt lat="46.21142" lon="-0.53015">
        <ele>38.4</ele>
        <time>2021-03-21T08:53:37Z</time>
      </trkpt>
      <trkpt lat="46.21149" lon="-0.53008">
        <ele>38.4</ele>
        <time>2021-03-21T08:53:38Z</time>
      </trkpt>
      <trkpt lat="46.21155" lon="-0.53001">
        <ele>38.2</ele>
        <time>2021-03-21T08:53:39Z</time>
      </trkpt>
      <trkpt lat="46.21167" lon="-0.52984">
        <ele>37.8</ele>
        <time>2021-03-21T08:53:41Z</time>
      </trkpt>
      <trkpt lat="46.21172" lon="-0.52975">
        <ele>37.2</ele>
        <time>2021-03-21T08:53:42Z</time>
      </trkpt>
      <trkpt lat="46.21177" lon="-0.52966">
        <ele>37</ele>
        <time>2021-03-21T08:53:43Z</time>
      </trkpt>
      <trkpt lat="46.21181" lon="-0.52958">
        <ele>36.8</ele>
        <time>2021-03-21T08:53:44Z</time>
      </trkpt>
      <trkpt lat="46.21186" lon="-0.5295">
        <ele>36.4</ele>
        <time>2021-03-21T08:53:45Z</time>
      </trkpt>
      <trkpt lat="46.21191" lon="-0.52943">
        <ele>36.2</ele>
        <time>2021-03-21T08:53:46Z</time>
      </trkpt>
      <trkpt lat="46.21197" lon="-0.52936">
        <ele>36.2</ele>
        <time>2021-03-21T08:53:47Z</time>
      </trkpt>
      <trkpt lat="46.21203" lon="-0.52929">
        <ele>36</ele>
        <time>2021-03-21T08:53:48Z</time>
      </trkpt>
      <trkpt lat="46.21226" lon="-0.52897">
        <ele>34.6</ele>
        <time>2021-03-21T08:53:52Z</time>
      </trkpt>
      <trkpt lat="46.21246" lon="-0.52877">
        <ele>33.4</ele>
        <time>2021-03-21T08:53:55Z</time>
      </trkpt>
      <trkpt lat="46.21265" lon="-0.52856">
        <ele>32.4</ele>
        <time>2021-03-21T08:53:58Z</time>
      </trkpt>
      <trkpt lat="46.21275" lon="-0.52829">
        <ele>32.2</ele>
        <time>2021-03-21T08:54:01Z</time>
      </trkpt>
      <trkpt lat="46.21278" lon="-0.52821">
        <ele>32.2</ele>
        <time>2021-03-21T08:54:02Z</time>
      </trkpt>
      <trkpt lat="46.2128" lon="-0.52812">
        <ele>32.2</ele>
        <time>2021-03-21T08:54:03Z</time>
      </trkpt>
      <trkpt lat="46.21283" lon="-0.52804">
        <ele>32.2</ele>
        <time>2021-03-21T08:54:04Z</time>
      </trkpt>
      <trkpt lat="46.21286" lon="-0.52796">
        <ele>32.2</ele>
        <time>2021-03-21T08:54:05Z</time>
      </trkpt>
      <trkpt lat="46.21295" lon="-0.52761">
        <ele>33.8</ele>
        <time>2021-03-21T08:54:09Z</time>
      </trkpt>
      <trkpt lat="46.213" lon="-0.52734">
        <ele>35.2</ele>
        <time>2021-03-21T08:54:12Z</time>
      </trkpt>
      <trkpt lat="46.21304" lon="-0.52707">
        <ele>35.8</ele>
        <time>2021-03-21T08:54:15Z</time>
      </trkpt>
      <trkpt lat="46.21305" lon="-0.52669">
        <ele>36.2</ele>
        <time>2021-03-21T08:54:19Z</time>
      </trkpt>
      <trkpt lat="46.21303" lon="-0.52632">
        <ele>37</ele>
        <time>2021-03-21T08:54:23Z</time>
      </trkpt>
      <trkpt lat="46.21302" lon="-0.52623">
        <ele>37.2</ele>
        <time>2021-03-21T08:54:24Z</time>
      </trkpt>
      <trkpt lat="46.21301" lon="-0.52614">
        <ele>37.2</ele>
        <time>2021-03-21T08:54:25Z</time>
      </trkpt>
      <trkpt lat="46.213" lon="-0.52604">
        <ele>37.4</ele>
        <time>2021-03-21T08:54:26Z</time>
      </trkpt>
      <trkpt lat="46.21299" lon="-0.52595">
        <ele>37.4</ele>
        <time>2021-03-21T08:54:27Z</time>
      </trkpt>
      <trkpt lat="46.21298" lon="-0.52586">
        <ele>37.4</ele>
        <time>2021-03-21T08:54:28Z</time>
      </trkpt>
      <trkpt lat="46.21296" lon="-0.52577">
        <ele>37.6</ele>
        <time>2021-03-21T08:54:29Z</time>
      </trkpt>
      <trkpt lat="46.21295" lon="-0.52568">
        <ele>37.6</ele>
        <time>2021-03-21T08:54:30Z</time>
      </trkpt>
      <trkpt lat="46.21293" lon="-0.52558">
        <ele>37.8</ele>
        <time>2021-03-21T08:54:31Z</time>
      </trkpt>
      <trkpt lat="46.21292" lon="-0.52549">
        <ele>38</ele>
        <time>2021-03-21T08:54:32Z</time>
      </trkpt>
      <trkpt lat="46.21291" lon="-0.5254">
        <ele>38</ele>
        <time>2021-03-21T08:54:33Z</time>
      </trkpt>
      <trkpt lat="46.2129" lon="-0.5253">
        <ele>38.2</ele>
        <time>2021-03-21T08:54:34Z</time>
      </trkpt>
      <trkpt lat="46.21289" lon="-0.52521">
        <ele>38.2</ele>
        <time>2021-03-21T08:54:35Z</time>
      </trkpt>
      <trkpt lat="46.21288" lon="-0.52512">
        <ele>38.4</ele>
        <time>2021-03-21T08:54:36Z</time>
      </trkpt>
      <trkpt lat="46.21288" lon="-0.52502">
        <ele>38.6</ele>
        <time>2021-03-21T08:54:37Z</time>
      </trkpt>
      <trkpt lat="46.21287" lon="-0.52493">
        <ele>38.6</ele>
        <time>2021-03-21T08:54:38Z</time>
      </trkpt>
      <trkpt lat="46.21286" lon="-0.52484">
        <ele>38.6</ele>
        <time>2021-03-21T08:54:39Z</time>
      </trkpt>
      <trkpt lat="46.21285" lon="-0.52474">
        <ele>38.8</ele>
        <time>2021-03-21T08:54:40Z</time>
      </trkpt>
      <trkpt lat="46.21284" lon="-0.52465">
        <ele>38.8</ele>
        <time>2021-03-21T08:54:41Z</time>
      </trkpt>
      <trkpt lat="46.21284" lon="-0.52456">
        <ele>38.8</ele>
        <time>2021-03-21T08:54:42Z</time>
      </trkpt>
      <trkpt lat="46.21283" lon="-0.52447">
        <ele>38.8</ele>
        <time>2021-03-21T08:54:43Z</time>
      </trkpt>
      <trkpt lat="46.21282" lon="-0.52438">
        <ele>38.8</ele>
        <time>2021-03-21T08:54:44Z</time>
      </trkpt>
      <trkpt lat="46.21282" lon="-0.52429">
        <ele>39</ele>
        <time>2021-03-21T08:54:45Z</time>
      </trkpt>
      <trkpt lat="46.21281" lon="-0.52419">
        <ele>39</ele>
        <time>2021-03-21T08:54:46Z</time>
      </trkpt>
      <trkpt lat="46.2128" lon="-0.5241">
        <ele>39</ele>
        <time>2021-03-21T08:54:47Z</time>
      </trkpt>
      <trkpt lat="46.2128" lon="-0.524">
        <ele>39</ele>
        <time>2021-03-21T08:54:48Z</time>
      </trkpt>
      <trkpt lat="46.21279" lon="-0.52391">
        <ele>39</ele>
        <time>2021-03-21T08:54:49Z</time>
      </trkpt>
      <trkpt lat="46.21279" lon="-0.52382">
        <ele>39</ele>
        <time>2021-03-21T08:54:50Z</time>
      </trkpt>
      <trkpt lat="46.21279" lon="-0.52335">
        <ele>39.2</ele>
        <time>2021-03-21T08:54:55Z</time>
      </trkpt>
      <trkpt lat="46.21278" lon="-0.5225">
        <ele>38.8</ele>
        <time>2021-03-21T08:55:04Z</time>
      </trkpt>
      <trkpt lat="46.21278" lon="-0.52231">
        <ele>39</ele>
        <time>2021-03-21T08:55:06Z</time>
      </trkpt>
      <trkpt lat="46.2128" lon="-0.52147">
        <ele>39.2</ele>
        <time>2021-03-21T08:55:15Z</time>
      </trkpt>
      <trkpt lat="46.21281" lon="-0.52128">
        <ele>39.4</ele>
        <time>2021-03-21T08:55:17Z</time>
      </trkpt>
      <trkpt lat="46.21281" lon="-0.52119">
        <ele>39.4</ele>
        <time>2021-03-21T08:55:18Z</time>
      </trkpt>
      <trkpt lat="46.21282" lon="-0.521">
        <ele>39.6</ele>
        <time>2021-03-21T08:55:20Z</time>
      </trkpt>
      <trkpt lat="46.21282" lon="-0.52043">
        <ele>39.6</ele>
        <time>2021-03-21T08:55:26Z</time>
      </trkpt>
      <trkpt lat="46.21282" lon="-0.51981">
        <ele>39.6</ele>
        <time>2021-03-21T08:55:32Z</time>
      </trkpt>
      <trkpt lat="46.21282" lon="-0.51972">
        <ele>39.6</ele>
        <time>2021-03-21T08:55:33Z</time>
      </trkpt>
      <trkpt lat="46.21282" lon="-0.51964">
        <ele>39.6</ele>
        <time>2021-03-21T08:55:34Z</time>
      </trkpt>
      <trkpt lat="46.21282" lon="-0.51956">
        <ele>39.6</ele>
        <time>2021-03-21T08:55:35Z</time>
      </trkpt>
      <trkpt lat="46.21281" lon="-0.51948">
        <ele>39.6</ele>
        <time>2021-03-21T08:55:36Z</time>
      </trkpt>
      <trkpt lat="46.2128" lon="-0.51941">
        <ele>39.6</ele>
        <time>2021-03-21T08:55:37Z</time>
      </trkpt>
      <trkpt lat="46.21277" lon="-0.51937">
        <ele>39.8</ele>
        <time>2021-03-21T08:55:38Z</time>
      </trkpt>
      <trkpt lat="46.21272" lon="-0.51935">
        <ele>39.8</ele>
        <time>2021-03-21T08:55:39Z</time>
      </trkpt>
      <trkpt lat="46.21267" lon="-0.51934">
        <ele>39.8</ele>
        <time>2021-03-21T08:55:40Z</time>
      </trkpt>
      <trkpt lat="46.21248" lon="-0.51936">
        <ele>40</ele>
        <time>2021-03-21T08:55:43Z</time>
      </trkpt>
      <trkpt lat="46.21206" lon="-0.51946">
        <ele>40.4</ele>
        <time>2021-03-21T08:55:49Z</time>
      </trkpt>
      <trkpt lat="46.21192" lon="-0.51951">
        <ele>40.4</ele>
        <time>2021-03-21T08:55:51Z</time>
      </trkpt>
      <trkpt lat="46.2115" lon="-0.51964">
        <ele>41</ele>
        <time>2021-03-21T08:55:57Z</time>
      </trkpt>
      <trkpt lat="46.21118" lon="-0.51978">
        <ele>41.6</ele>
        <time>2021-03-21T08:56:02Z</time>
      </trkpt>
      <trkpt lat="46.21112" lon="-0.5198">
        <ele>41.8</ele>
        <time>2021-03-21T08:56:03Z</time>
      </trkpt>
      <trkpt lat="46.21105" lon="-0.51983">
        <ele>42</ele>
        <time>2021-03-21T08:56:04Z</time>
      </trkpt>
      <trkpt lat="46.21082" lon="-0.51993">
        <ele>42.8</ele>
        <time>2021-03-21T08:56:08Z</time>
      </trkpt>
      <trkpt lat="46.21077" lon="-0.51993">
        <ele>43</ele>
        <time>2021-03-21T08:56:09Z</time>
      </trkpt>
      <trkpt lat="46.21073" lon="-0.5199">
        <ele>43.2</ele>
        <time>2021-03-21T08:56:10Z</time>
      </trkpt>
      <trkpt lat="46.21071" lon="-0.51984">
        <ele>43.4</ele>
        <time>2021-03-21T08:56:11Z</time>
      </trkpt>
      <trkpt lat="46.21071" lon="-0.51977">
        <ele>43.8</ele>
        <time>2021-03-21T08:56:12Z</time>
      </trkpt>
      <trkpt lat="46.2107" lon="-0.51969">
        <ele>44</ele>
        <time>2021-03-21T08:56:13Z</time>
      </trkpt>
      <trkpt lat="46.2107" lon="-0.51961">
        <ele>44</ele>
        <time>2021-03-21T08:56:14Z</time>
      </trkpt>
      <trkpt lat="46.21071" lon="-0.51952">
        <ele>44</ele>
        <time>2021-03-21T08:56:15Z</time>
      </trkpt>
      <trkpt lat="46.2107" lon="-0.51943">
        <ele>44.2</ele>
        <time>2021-03-21T08:56:16Z</time>
      </trkpt>
      <trkpt lat="46.2107" lon="-0.51934">
        <ele>44.2</ele>
        <time>2021-03-21T08:56:17Z</time>
      </trkpt>
      <trkpt lat="46.2107" lon="-0.51925">
        <ele>44.2</ele>
        <time>2021-03-21T08:56:18Z</time>
      </trkpt>
      <trkpt lat="46.21069" lon="-0.51916">
        <ele>44.2</ele>
        <time>2021-03-21T08:56:19Z</time>
      </trkpt>
      <trkpt lat="46.21069" lon="-0.51906">
        <ele>44.4</ele>
        <time>2021-03-21T08:56:20Z</time>
      </trkpt>
      <trkpt lat="46.21069" lon="-0.51896">
        <ele>44.4</ele>
        <time>2021-03-21T08:56:21Z</time>
      </trkpt>
      <trkpt lat="46.21068" lon="-0.51886">
        <ele>44.6</ele>
        <time>2021-03-21T08:56:22Z</time>
      </trkpt>
      <trkpt lat="46.21068" lon="-0.51876">
        <ele>44.6</ele>
        <time>2021-03-21T08:56:23Z</time>
      </trkpt>
      <trkpt lat="46.21068" lon="-0.51865">
        <ele>44.8</ele>
        <time>2021-03-21T08:56:24Z</time>
      </trkpt>
      <trkpt lat="46.21067" lon="-0.51855">
        <ele>44.8</ele>
        <time>2021-03-21T08:56:25Z</time>
      </trkpt>
      <trkpt lat="46.21066" lon="-0.51845">
        <ele>44.8</ele>
        <time>2021-03-21T08:56:26Z</time>
      </trkpt>
      <trkpt lat="46.21065" lon="-0.51835">
        <ele>44.8</ele>
        <time>2021-03-21T08:56:27Z</time>
      </trkpt>
      <trkpt lat="46.21065" lon="-0.51825">
        <ele>45</ele>
        <time>2021-03-21T08:56:28Z</time>
      </trkpt>
      <trkpt lat="46.21065" lon="-0.51815">
        <ele>45</ele>
        <time>2021-03-21T08:56:29Z</time>
      </trkpt>
      <trkpt lat="46.21064" lon="-0.51805">
        <ele>45</ele>
        <time>2021-03-21T08:56:30Z</time>
      </trkpt>
      <trkpt lat="46.21064" lon="-0.51794">
        <ele>45.2</ele>
        <time>2021-03-21T08:56:31Z</time>
      </trkpt>
      <trkpt lat="46.21063" lon="-0.51784">
        <ele>45.4</ele>
        <time>2021-03-21T08:56:32Z</time>
      </trkpt>
      <trkpt lat="46.21063" lon="-0.51774">
        <ele>45.6</ele>
        <time>2021-03-21T08:56:33Z</time>
      </trkpt>
      <trkpt lat="46.21062" lon="-0.51763">
        <ele>45.8</ele>
        <time>2021-03-21T08:56:34Z</time>
      </trkpt>
      <trkpt lat="46.21061" lon="-0.51753">
        <ele>46</ele>
        <time>2021-03-21T08:56:35Z</time>
      </trkpt>
      <trkpt lat="46.21061" lon="-0.51743">
        <ele>46.2</ele>
        <time>2021-03-21T08:56:36Z</time>
      </trkpt>
      <trkpt lat="46.2106" lon="-0.51733">
        <ele>46.4</ele>
        <time>2021-03-21T08:56:37Z</time>
      </trkpt>
      <trkpt lat="46.2106" lon="-0.51723">
        <ele>46.6</ele>
        <time>2021-03-21T08:56:38Z</time>
      </trkpt>
      <trkpt lat="46.21059" lon="-0.51713">
        <ele>46.6</ele>
        <time>2021-03-21T08:56:39Z</time>
      </trkpt>
      <trkpt lat="46.21058" lon="-0.51703">
        <ele>46.8</ele>
        <time>2021-03-21T08:56:40Z</time>
      </trkpt>
      <trkpt lat="46.21058" lon="-0.51692">
        <ele>46.8</ele>
        <time>2021-03-21T08:56:41Z</time>
      </trkpt>
      <trkpt lat="46.21057" lon="-0.51682">
        <ele>46.8</ele>
        <time>2021-03-21T08:56:42Z</time>
      </trkpt>
      <trkpt lat="46.21057" lon="-0.51672">
        <ele>47</ele>
        <time>2021-03-21T08:56:43Z</time>
      </trkpt>
      <trkpt lat="46.21056" lon="-0.51662">
        <ele>47</ele>
        <time>2021-03-21T08:56:44Z</time>
      </trkpt>
      <trkpt lat="46.21056" lon="-0.51651">
        <ele>47.2</ele>
        <time>2021-03-21T08:56:45Z</time>
      </trkpt>
      <trkpt lat="46.21055" lon="-0.5164">
        <ele>47.2</ele>
        <time>2021-03-21T08:56:46Z</time>
      </trkpt>
      <trkpt lat="46.21055" lon="-0.5163">
        <ele>47.6</ele>
        <time>2021-03-21T08:56:47Z</time>
      </trkpt>
      <trkpt lat="46.21054" lon="-0.51619">
        <ele>47.8</ele>
        <time>2021-03-21T08:56:48Z</time>
      </trkpt>
      <trkpt lat="46.21054" lon="-0.51609">
        <ele>47.8</ele>
        <time>2021-03-21T08:56:49Z</time>
      </trkpt>
      <trkpt lat="46.21053" lon="-0.51598">
        <ele>48.2</ele>
        <time>2021-03-21T08:56:50Z</time>
      </trkpt>
      <trkpt lat="46.21052" lon="-0.51587">
        <ele>48.8</ele>
        <time>2021-03-21T08:56:51Z</time>
      </trkpt>
      <trkpt lat="46.21052" lon="-0.51577">
        <ele>49.2</ele>
        <time>2021-03-21T08:56:52Z</time>
      </trkpt>
      <trkpt lat="46.21051" lon="-0.51566">
        <ele>49.4</ele>
        <time>2021-03-21T08:56:53Z</time>
      </trkpt>
      <trkpt lat="46.21051" lon="-0.51556">
        <ele>49.6</ele>
        <time>2021-03-21T08:56:54Z</time>
      </trkpt>
      <trkpt lat="46.2105" lon="-0.51545">
        <ele>49.6</ele>
        <time>2021-03-21T08:56:55Z</time>
      </trkpt>
      <trkpt lat="46.2105" lon="-0.51534">
        <ele>49.8</ele>
        <time>2021-03-21T08:56:56Z</time>
      </trkpt>
      <trkpt lat="46.21049" lon="-0.51523">
        <ele>50</ele>
        <time>2021-03-21T08:56:57Z</time>
      </trkpt>
      <trkpt lat="46.21049" lon="-0.51513">
        <ele>50.2</ele>
        <time>2021-03-21T08:56:58Z</time>
      </trkpt>
      <trkpt lat="46.21048" lon="-0.51503">
        <ele>50.4</ele>
        <time>2021-03-21T08:56:59Z</time>
      </trkpt>
      <trkpt lat="46.21047" lon="-0.51493">
        <ele>50.6</ele>
        <time>2021-03-21T08:57:00Z</time>
      </trkpt>
      <trkpt lat="46.21046" lon="-0.51484">
        <ele>50.6</ele>
        <time>2021-03-21T08:57:01Z</time>
      </trkpt>
      <trkpt lat="46.21045" lon="-0.51475">
        <ele>50.8</ele>
        <time>2021-03-21T08:57:02Z</time>
      </trkpt>
      <trkpt lat="46.21044" lon="-0.51468">
        <ele>51</ele>
        <time>2021-03-21T08:57:03Z</time>
      </trkpt>
      <trkpt lat="46.21043" lon="-0.51461">
        <ele>51.4</ele>
        <time>2021-03-21T08:57:04Z</time>
      </trkpt>
      <trkpt lat="46.2104" lon="-0.51456">
        <ele>51.4</ele>
        <time>2021-03-21T08:57:05Z</time>
      </trkpt>
      <trkpt lat="46.21037" lon="-0.51453">
        <ele>51.6</ele>
        <time>2021-03-21T08:57:06Z</time>
      </trkpt>
      <trkpt lat="46.21033" lon="-0.51452">
        <ele>51.8</ele>
        <time>2021-03-21T08:57:07Z</time>
      </trkpt>
      <trkpt lat="46.21027" lon="-0.51451">
        <ele>52</ele>
        <time>2021-03-21T08:57:08Z</time>
      </trkpt>
      <trkpt lat="46.21021" lon="-0.5145">
        <ele>52.2</ele>
        <time>2021-03-21T08:57:09Z</time>
      </trkpt>
      <trkpt lat="46.21016" lon="-0.51449">
        <ele>52.2</ele>
        <time>2021-03-21T08:57:10Z</time>
      </trkpt>
      <trkpt lat="46.2101" lon="-0.51448">
        <ele>52.2</ele>
        <time>2021-03-21T08:57:11Z</time>
      </trkpt>
      <trkpt lat="46.21005" lon="-0.51446">
        <ele>52.6</ele>
        <time>2021-03-21T08:57:12Z</time>
      </trkpt>
      <trkpt lat="46.21" lon="-0.51443">
        <ele>53</ele>
        <time>2021-03-21T08:57:13Z</time>
      </trkpt>
      <trkpt lat="46.20995" lon="-0.51437">
        <ele>53.4</ele>
        <time>2021-03-21T08:57:14Z</time>
      </trkpt>
      <trkpt lat="46.20993" lon="-0.5143">
        <ele>53.6</ele>
        <time>2021-03-21T08:57:15Z</time>
      </trkpt>
      <trkpt lat="46.20992" lon="-0.51421">
        <ele>53.6</ele>
        <time>2021-03-21T08:57:16Z</time>
      </trkpt>
      <trkpt lat="46.20992" lon="-0.51412">
        <ele>53.8</ele>
        <time>2021-03-21T08:57:17Z</time>
      </trkpt>
      <trkpt lat="46.20991" lon="-0.51402">
        <ele>54</ele>
        <time>2021-03-21T08:57:18Z</time>
      </trkpt>
      <trkpt lat="46.20989" lon="-0.51393">
        <ele>54</ele>
        <time>2021-03-21T08:57:19Z</time>
      </trkpt>
      <trkpt lat="46.20988" lon="-0.51384">
        <ele>54.2</ele>
        <time>2021-03-21T08:57:20Z</time>
      </trkpt>
      <trkpt lat="46.20988" lon="-0.51375">
        <ele>54.2</ele>
        <time>2021-03-21T08:57:21Z</time>
      </trkpt>
      <trkpt lat="46.20988" lon="-0.51365">
        <ele>54.4</ele>
        <time>2021-03-21T08:57:22Z</time>
      </trkpt>
      <trkpt lat="46.2099" lon="-0.51355">
        <ele>54.4</ele>
        <time>2021-03-21T08:57:23Z</time>
      </trkpt>
      <trkpt lat="46.20994" lon="-0.51348">
        <ele>54.6</ele>
        <time>2021-03-21T08:57:24Z</time>
      </trkpt>
      <trkpt lat="46.20998" lon="-0.5134">
        <ele>54.6</ele>
        <time>2021-03-21T08:57:25Z</time>
      </trkpt>
      <trkpt lat="46.21004" lon="-0.51333">
        <ele>54.6</ele>
        <time>2021-03-21T08:57:26Z</time>
      </trkpt>
      <trkpt lat="46.21009" lon="-0.51325">
        <ele>54.6</ele>
        <time>2021-03-21T08:57:27Z</time>
      </trkpt>
      <trkpt lat="46.21014" lon="-0.51318">
        <ele>54.6</ele>
        <time>2021-03-21T08:57:28Z</time>
      </trkpt>
      <trkpt lat="46.21018" lon="-0.5131">
        <ele>54.6</ele>
        <time>2021-03-21T08:57:29Z</time>
      </trkpt>
      <trkpt lat="46.21022" lon="-0.51302">
        <ele>54.6</ele>
        <time>2021-03-21T08:57:30Z</time>
      </trkpt>
      <trkpt lat="46.21026" lon="-0.51294">
        <ele>54.6</ele>
        <time>2021-03-21T08:57:31Z</time>
      </trkpt>
      <trkpt lat="46.2103" lon="-0.51285">
        <ele>54.6</ele>
        <time>2021-03-21T08:57:32Z</time>
      </trkpt>
      <trkpt lat="46.21034" lon="-0.51274">
        <ele>54.6</ele>
        <time>2021-03-21T08:57:33Z</time>
      </trkpt>
      <trkpt lat="46.21036" lon="-0.51266">
        <ele>54.8</ele>
        <time>2021-03-21T08:57:34Z</time>
      </trkpt>
      <trkpt lat="46.21039" lon="-0.51256">
        <ele>54.8</ele>
        <time>2021-03-21T08:57:35Z</time>
      </trkpt>
      <trkpt lat="46.21042" lon="-0.51246">
        <ele>54.8</ele>
        <time>2021-03-21T08:57:36Z</time>
      </trkpt>
      <trkpt lat="46.21045" lon="-0.51236">
        <ele>55</ele>
        <time>2021-03-21T08:57:37Z</time>
      </trkpt>
      <trkpt lat="46.21049" lon="-0.51223">
        <ele>55</ele>
        <time>2021-03-21T08:57:38Z</time>
      </trkpt>
      <trkpt lat="46.21051" lon="-0.51215">
        <ele>55</ele>
        <time>2021-03-21T08:57:39Z</time>
      </trkpt>
      <trkpt lat="46.21054" lon="-0.51204">
        <ele>55</ele>
        <time>2021-03-21T08:57:40Z</time>
      </trkpt>
      <trkpt lat="46.21056" lon="-0.51194">
        <ele>55</ele>
        <time>2021-03-21T08:57:41Z</time>
      </trkpt>
      <trkpt lat="46.21057" lon="-0.51184">
        <ele>55</ele>
        <time>2021-03-21T08:57:42Z</time>
      </trkpt>
      <trkpt lat="46.21059" lon="-0.51153">
        <ele>55</ele>
        <time>2021-03-21T08:57:45Z</time>
      </trkpt>
      <trkpt lat="46.21056" lon="-0.51122">
        <ele>55.2</ele>
        <time>2021-03-21T08:57:48Z</time>
      </trkpt>
      <trkpt lat="46.21049" lon="-0.51091">
        <ele>55.2</ele>
        <time>2021-03-21T08:57:51Z</time>
      </trkpt>
      <trkpt lat="46.21027" lon="-0.51022">
        <ele>55.6</ele>
        <time>2021-03-21T08:57:58Z</time>
      </trkpt>
      <trkpt lat="46.21021" lon="-0.51005">
        <ele>55.8</ele>
        <time>2021-03-21T08:58:00Z</time>
      </trkpt>
      <trkpt lat="46.21019" lon="-0.50999">
        <ele>55.8</ele>
        <time>2021-03-21T08:58:01Z</time>
      </trkpt>
      <trkpt lat="46.21016" lon="-0.50989">
        <ele>55.8</ele>
        <time>2021-03-21T08:58:02Z</time>
      </trkpt>
      <trkpt lat="46.21013" lon="-0.50982">
        <ele>56</ele>
        <time>2021-03-21T08:58:03Z</time>
      </trkpt>
      <trkpt lat="46.21" lon="-0.50936">
        <ele>56.8</ele>
        <time>2021-03-21T08:58:08Z</time>
      </trkpt>
      <trkpt lat="46.20994" lon="-0.5091">
        <ele>57.4</ele>
        <time>2021-03-21T08:58:11Z</time>
      </trkpt>
      <trkpt lat="46.20979" lon="-0.5084">
        <ele>58</ele>
        <time>2021-03-21T08:58:19Z</time>
      </trkpt>
      <trkpt lat="46.20964" lon="-0.50761">
        <ele>58.2</ele>
        <time>2021-03-21T08:58:28Z</time>
      </trkpt>
      <trkpt lat="46.20962" lon="-0.5075">
        <ele>58.2</ele>
        <time>2021-03-21T08:58:29Z</time>
      </trkpt>
      <trkpt lat="46.20952" lon="-0.50706">
        <ele>58.4</ele>
        <time>2021-03-21T08:58:34Z</time>
      </trkpt>
      <trkpt lat="46.2095" lon="-0.5069">
        <ele>58.4</ele>
        <time>2021-03-21T08:58:36Z</time>
      </trkpt>
      <trkpt lat="46.20949" lon="-0.50682">
        <ele>58.6</ele>
        <time>2021-03-21T08:58:37Z</time>
      </trkpt>
      <trkpt lat="46.20948" lon="-0.50674">
        <ele>58.6</ele>
        <time>2021-03-21T08:58:38Z</time>
      </trkpt>
      <trkpt lat="46.20947" lon="-0.50665">
        <ele>58.6</ele>
        <time>2021-03-21T08:58:39Z</time>
      </trkpt>
      <trkpt lat="46.20944" lon="-0.5065">
        <ele>58.6</ele>
        <time>2021-03-21T08:58:41Z</time>
      </trkpt>
      <trkpt lat="46.20942" lon="-0.50639">
        <ele>58.8</ele>
        <time>2021-03-21T08:58:42Z</time>
      </trkpt>
      <trkpt lat="46.2094" lon="-0.5063">
        <ele>58.8</ele>
        <time>2021-03-21T08:58:43Z</time>
      </trkpt>
      <trkpt lat="46.20932" lon="-0.50591">
        <ele>58.8</ele>
        <time>2021-03-21T08:58:47Z</time>
      </trkpt>
      <trkpt lat="46.20925" lon="-0.50563">
        <ele>58.8</ele>
        <time>2021-03-21T08:58:50Z</time>
      </trkpt>
      <trkpt lat="46.20914" lon="-0.5052">
        <ele>59</ele>
        <time>2021-03-21T08:58:54Z</time>
      </trkpt>
      <trkpt lat="46.2091" lon="-0.50499">
        <ele>59</ele>
        <time>2021-03-21T08:58:56Z</time>
      </trkpt>
      <trkpt lat="46.20901" lon="-0.50446">
        <ele>59</ele>
        <time>2021-03-21T08:59:01Z</time>
      </trkpt>
      <trkpt lat="46.2089" lon="-0.50361">
        <ele>59.4</ele>
        <time>2021-03-21T08:59:09Z</time>
      </trkpt>
      <trkpt lat="46.20887" lon="-0.5034">
        <ele>59.4</ele>
        <time>2021-03-21T08:59:11Z</time>
      </trkpt>
      <trkpt lat="46.20874" lon="-0.50266">
        <ele>59.8</ele>
        <time>2021-03-21T08:59:18Z</time>
      </trkpt>
      <trkpt lat="46.20866" lon="-0.50228">
        <ele>60</ele>
        <time>2021-03-21T08:59:22Z</time>
      </trkpt>
      <trkpt lat="46.20864" lon="-0.50216">
        <ele>60</ele>
        <time>2021-03-21T08:59:23Z</time>
      </trkpt>
      <trkpt lat="46.20862" lon="-0.50205">
        <ele>60</ele>
        <time>2021-03-21T08:59:24Z</time>
      </trkpt>
      <trkpt lat="46.2086" lon="-0.50195">
        <ele>60</ele>
        <time>2021-03-21T08:59:25Z</time>
      </trkpt>
      <trkpt lat="46.20859" lon="-0.50187">
        <ele>60.2</ele>
        <time>2021-03-21T08:59:26Z</time>
      </trkpt>
      <trkpt lat="46.20854" lon="-0.50154">
        <ele>60.4</ele>
        <time>2021-03-21T08:59:29Z</time>
      </trkpt>
      <trkpt lat="46.20848" lon="-0.50116">
        <ele>60.6</ele>
        <time>2021-03-21T08:59:33Z</time>
      </trkpt>
      <trkpt lat="46.20847" lon="-0.50107">
        <ele>60.6</ele>
        <time>2021-03-21T08:59:34Z</time>
      </trkpt>
      <trkpt lat="46.20847" lon="-0.501">
        <ele>60.6</ele>
        <time>2021-03-21T08:59:35Z</time>
      </trkpt>
      <trkpt lat="46.20847" lon="-0.50091">
        <ele>60.8</ele>
        <time>2021-03-21T08:59:36Z</time>
      </trkpt>
      <trkpt lat="46.20846" lon="-0.50085">
        <ele>60.8</ele>
        <time>2021-03-21T08:59:37Z</time>
      </trkpt>
      <trkpt lat="46.20846" lon="-0.50082">
        <ele>60.8</ele>
        <time>2021-03-21T08:59:38Z</time>
      </trkpt>
      <trkpt lat="46.20845" lon="-0.50079">
        <ele>60.8</ele>
        <time>2021-03-21T08:59:39Z</time>
      </trkpt>
      <trkpt lat="46.20845" lon="-0.50075">
        <ele>60.8</ele>
        <time>2021-03-21T08:59:40Z</time>
      </trkpt>
      <trkpt lat="46.20846" lon="-0.50072">
        <ele>60.8</ele>
        <time>2021-03-21T08:59:41Z</time>
      </trkpt>
      <trkpt lat="46.20846" lon="-0.5007">
        <ele>61</ele>
        <time>2021-03-21T08:59:42Z</time>
      </trkpt>
      <trkpt lat="46.20848" lon="-0.50069">
        <ele>61</ele>
        <time>2021-03-21T08:59:43Z</time>
      </trkpt>
      <trkpt lat="46.20849" lon="-0.50069">
        <ele>61</ele>
        <time>2021-03-21T08:59:44Z</time>
      </trkpt>
      <trkpt lat="46.2085" lon="-0.50069">
        <ele>61</ele>
        <time>2021-03-21T08:59:45Z</time>
      </trkpt>
      <trkpt lat="46.2085" lon="-0.5007">
        <ele>61.4</ele>
        <time>2021-03-21T08:59:46Z</time>
      </trkpt>
      <trkpt lat="46.2085" lon="-0.5007">
        <ele>61.6</ele>
        <time>2021-03-21T08:59:47Z</time>
      </trkpt>
      <trkpt lat="46.20851" lon="-0.50071">
        <ele>61.8</ele>
        <time>2021-03-21T08:59:48Z</time>
      </trkpt>
      <trkpt lat="46.20853" lon="-0.50073">
        <ele>61.8</ele>
        <time>2021-03-21T08:59:49Z</time>
      </trkpt>
      <trkpt lat="46.20855" lon="-0.50075">
        <ele>61.8</ele>
        <time>2021-03-21T08:59:50Z</time>
      </trkpt>
      <trkpt lat="46.20857" lon="-0.50076">
        <ele>61.8</ele>
        <time>2021-03-21T08:59:51Z</time>
      </trkpt>
      <trkpt lat="46.20858" lon="-0.50075">
        <ele>61.8</ele>
        <time>2021-03-21T08:59:52Z</time>
      </trkpt>
      <trkpt lat="46.20859" lon="-0.50073">
        <ele>62</ele>
        <time>2021-03-21T08:59:53Z</time>
      </trkpt>
      <trkpt lat="46.2086" lon="-0.5007">
        <ele>62</ele>
        <time>2021-03-21T08:59:55Z</time>
      </trkpt>
      <trkpt lat="46.20861" lon="-0.5007">
        <ele>62</ele>
        <time>2021-03-21T08:59:56Z</time>
      </trkpt>
      <trkpt lat="46.20861" lon="-0.5007">
        <ele>62</ele>
        <time>2021-03-21T08:59:57Z</time>
      </trkpt>
      <trkpt lat="46.20862" lon="-0.5007">
        <ele>62</ele>
        <time>2021-03-21T08:59:58Z</time>
      </trkpt>
      <trkpt lat="46.20862" lon="-0.5007">
        <ele>62</ele>
        <time>2021-03-21T08:59:59Z</time>
      </trkpt>
      <trkpt lat="46.20862" lon="-0.5007">
        <ele>62</ele>
        <time>2021-03-21T09:00:00Z</time>
      </trkpt>
      <trkpt lat="46.20862" lon="-0.5007">
        <ele>62</ele>
        <time>2021-03-21T09:00:01Z</time>
      </trkpt>
      <trkpt lat="46.20862" lon="-0.5007">
        <ele>61.8</ele>
        <time>2021-03-21T09:00:02Z</time>
      </trkpt>
      <trkpt lat="46.20856" lon="-0.50071">
        <ele>61.8</ele>
        <time>2021-03-21T09:01:37Z</time>
      </trkpt>
      <trkpt lat="46.20855" lon="-0.5007">
        <ele>61.8</ele>
        <time>2021-03-21T09:01:38Z</time>
      </trkpt>
      <trkpt lat="46.2085" lon="-0.50066">
        <ele>61.8</ele>
        <time>2021-03-21T09:01:41Z</time>
      </trkpt>
      <trkpt lat="46.20849" lon="-0.50063">
        <ele>61.8</ele>
        <time>2021-03-21T09:01:42Z</time>
      </trkpt>
      <trkpt lat="46.20849" lon="-0.50059">
        <ele>61.8</ele>
        <time>2021-03-21T09:01:43Z</time>
      </trkpt>
      <trkpt lat="46.20849" lon="-0.50054">
        <ele>61.8</ele>
        <time>2021-03-21T09:01:44Z</time>
      </trkpt>
      <trkpt lat="46.20849" lon="-0.50042">
        <ele>61.8</ele>
        <time>2021-03-21T09:01:46Z</time>
      </trkpt>
      <trkpt lat="46.20849" lon="-0.50035">
        <ele>61.8</ele>
        <time>2021-03-21T09:01:47Z</time>
      </trkpt>
      <trkpt lat="46.20849" lon="-0.50028">
        <ele>61.8</ele>
        <time>2021-03-21T09:01:48Z</time>
      </trkpt>
      <trkpt lat="46.20849" lon="-0.49997">
        <ele>61.8</ele>
        <time>2021-03-21T09:01:52Z</time>
      </trkpt>
      <trkpt lat="46.2085" lon="-0.49992">
        <ele>61.8</ele>
        <time>2021-03-21T09:01:53Z</time>
      </trkpt>
      <trkpt lat="46.2085" lon="-0.49984">
        <ele>61.8</ele>
        <time>2021-03-21T09:01:54Z</time>
      </trkpt>
      <trkpt lat="46.2085" lon="-0.49978">
        <ele>61.8</ele>
        <time>2021-03-21T09:01:55Z</time>
      </trkpt>
      <trkpt lat="46.2085" lon="-0.49953">
        <ele>61.4</ele>
        <time>2021-03-21T09:01:58Z</time>
      </trkpt>
      <trkpt lat="46.20851" lon="-0.49944">
        <ele>61.4</ele>
        <time>2021-03-21T09:01:59Z</time>
      </trkpt>
      <trkpt lat="46.20853" lon="-0.49935">
        <ele>61.2</ele>
        <time>2021-03-21T09:02:00Z</time>
      </trkpt>
      <trkpt lat="46.20856" lon="-0.49927">
        <ele>61</ele>
        <time>2021-03-21T09:02:01Z</time>
      </trkpt>
      <trkpt lat="46.20859" lon="-0.49922">
        <ele>61</ele>
        <time>2021-03-21T09:02:02Z</time>
      </trkpt>
      <trkpt lat="46.20865" lon="-0.49915">
        <ele>60.8</ele>
        <time>2021-03-21T09:02:03Z</time>
      </trkpt>
      <trkpt lat="46.2087" lon="-0.49909">
        <ele>60.8</ele>
        <time>2021-03-21T09:02:04Z</time>
      </trkpt>
      <trkpt lat="46.20874" lon="-0.49903">
        <ele>60.6</ele>
        <time>2021-03-21T09:02:05Z</time>
      </trkpt>
      <trkpt lat="46.20886" lon="-0.49884">
        <ele>59.8</ele>
        <time>2021-03-21T09:02:08Z</time>
      </trkpt>
      <trkpt lat="46.20891" lon="-0.49869">
        <ele>59.6</ele>
        <time>2021-03-21T09:02:10Z</time>
      </trkpt>
      <trkpt lat="46.20896" lon="-0.49854">
        <ele>59.4</ele>
        <time>2021-03-21T09:02:12Z</time>
      </trkpt>
      <trkpt lat="46.209" lon="-0.49847">
        <ele>59.4</ele>
        <time>2021-03-21T09:02:13Z</time>
      </trkpt>
      <trkpt lat="46.20909" lon="-0.49834">
        <ele>59.2</ele>
        <time>2021-03-21T09:02:15Z</time>
      </trkpt>
      <trkpt lat="46.20913" lon="-0.49829">
        <ele>59.2</ele>
        <time>2021-03-21T09:02:16Z</time>
      </trkpt>
      <trkpt lat="46.2092" lon="-0.49822">
        <ele>59</ele>
        <time>2021-03-21T09:02:17Z</time>
      </trkpt>
      <trkpt lat="46.20931" lon="-0.49813">
        <ele>58.8</ele>
        <time>2021-03-21T09:02:19Z</time>
      </trkpt>
      <trkpt lat="46.20955" lon="-0.49793">
        <ele>57.6</ele>
        <time>2021-03-21T09:02:23Z</time>
      </trkpt>
      <trkpt lat="46.20966" lon="-0.49782">
        <ele>57</ele>
        <time>2021-03-21T09:02:25Z</time>
      </trkpt>
      <trkpt lat="46.20974" lon="-0.49774">
        <ele>56.4</ele>
        <time>2021-03-21T09:02:26Z</time>
      </trkpt>
      <trkpt lat="46.21005" lon="-0.49746">
        <ele>55.4</ele>
        <time>2021-03-21T09:02:30Z</time>
      </trkpt>
      <trkpt lat="46.21027" lon="-0.49724">
        <ele>54</ele>
        <time>2021-03-21T09:02:33Z</time>
      </trkpt>
      <trkpt lat="46.21035" lon="-0.49717">
        <ele>53.4</ele>
        <time>2021-03-21T09:02:34Z</time>
      </trkpt>
      <trkpt lat="46.21045" lon="-0.49708">
        <ele>53.4</ele>
        <time>2021-03-21T09:02:35Z</time>
      </trkpt>
      <trkpt lat="46.21053" lon="-0.497">
        <ele>52.6</ele>
        <time>2021-03-21T09:02:36Z</time>
      </trkpt>
      <trkpt lat="46.21067" lon="-0.49687">
        <ele>50.6</ele>
        <time>2021-03-21T09:02:38Z</time>
      </trkpt>
      <trkpt lat="46.21075" lon="-0.49679">
        <ele>49.8</ele>
        <time>2021-03-21T09:02:39Z</time>
      </trkpt>
      <trkpt lat="46.2108" lon="-0.49674">
        <ele>49.4</ele>
        <time>2021-03-21T09:02:40Z</time>
      </trkpt>
      <trkpt lat="46.21084" lon="-0.49668">
        <ele>48.6</ele>
        <time>2021-03-21T09:02:41Z</time>
      </trkpt>
      <trkpt lat="46.21086" lon="-0.49663">
        <ele>47.8</ele>
        <time>2021-03-21T09:02:42Z</time>
      </trkpt>
      <trkpt lat="46.21086" lon="-0.49655">
        <ele>46.6</ele>
        <time>2021-03-21T09:02:43Z</time>
      </trkpt>
      <trkpt lat="46.21083" lon="-0.49648">
        <ele>45.6</ele>
        <time>2021-03-21T09:02:44Z</time>
      </trkpt>
      <trkpt lat="46.21081" lon="-0.49643">
        <ele>45</ele>
        <time>2021-03-21T09:02:45Z</time>
      </trkpt>
      <trkpt lat="46.21078" lon="-0.49636">
        <ele>44.8</ele>
        <time>2021-03-21T09:02:46Z</time>
      </trkpt>
      <trkpt lat="46.21076" lon="-0.4963">
        <ele>44.6</ele>
        <time>2021-03-21T09:02:47Z</time>
      </trkpt>
      <trkpt lat="46.21072" lon="-0.49621">
        <ele>44.4</ele>
        <time>2021-03-21T09:02:48Z</time>
      </trkpt>
      <trkpt lat="46.21069" lon="-0.49613">
        <ele>44.4</ele>
        <time>2021-03-21T09:02:49Z</time>
      </trkpt>
      <trkpt lat="46.21047" lon="-0.49559">
        <ele>44.2</ele>
        <time>2021-03-21T09:02:55Z</time>
      </trkpt>
      <trkpt lat="46.21044" lon="-0.49551">
        <ele>44.2</ele>
        <time>2021-03-21T09:02:56Z</time>
      </trkpt>
      <trkpt lat="46.21015" lon="-0.49476">
        <ele>44.4</ele>
        <time>2021-03-21T09:03:04Z</time>
      </trkpt>
      <trkpt lat="46.21011" lon="-0.49466">
        <ele>44.6</ele>
        <time>2021-03-21T09:03:05Z</time>
      </trkpt>
      <trkpt lat="46.2099" lon="-0.49412">
        <ele>45.2</ele>
        <time>2021-03-21T09:03:11Z</time>
      </trkpt>
      <trkpt lat="46.20988" lon="-0.49406">
        <ele>45.2</ele>
        <time>2021-03-21T09:03:12Z</time>
      </trkpt>
      <trkpt lat="46.20984" lon="-0.49398">
        <ele>45.4</ele>
        <time>2021-03-21T09:03:13Z</time>
      </trkpt>
      <trkpt lat="46.20982" lon="-0.49393">
        <ele>45.4</ele>
        <time>2021-03-21T09:03:14Z</time>
      </trkpt>
      <trkpt lat="46.2098" lon="-0.49387">
        <ele>45.4</ele>
        <time>2021-03-21T09:03:15Z</time>
      </trkpt>
      <trkpt lat="46.2098" lon="-0.49381">
        <ele>45.6</ele>
        <time>2021-03-21T09:03:16Z</time>
      </trkpt>
      <trkpt lat="46.20984" lon="-0.49376">
        <ele>45.8</ele>
        <time>2021-03-21T09:03:17Z</time>
      </trkpt>
      <trkpt lat="46.20987" lon="-0.49373">
        <ele>45.8</ele>
        <time>2021-03-21T09:03:18Z</time>
      </trkpt>
      <trkpt lat="46.20993" lon="-0.49369">
        <ele>45.8</ele>
        <time>2021-03-21T09:03:19Z</time>
      </trkpt>
      <trkpt lat="46.21004" lon="-0.49359">
        <ele>45.8</ele>
        <time>2021-03-21T09:03:21Z</time>
      </trkpt>
      <trkpt lat="46.2101" lon="-0.49355">
        <ele>45.8</ele>
        <time>2021-03-21T09:03:22Z</time>
      </trkpt>
      <trkpt lat="46.21021" lon="-0.49349">
        <ele>45.8</ele>
        <time>2021-03-21T09:03:24Z</time>
      </trkpt>
      <trkpt lat="46.21026" lon="-0.49345">
        <ele>45.8</ele>
        <time>2021-03-21T09:03:25Z</time>
      </trkpt>
      <trkpt lat="46.2103" lon="-0.49341">
        <ele>45.8</ele>
        <time>2021-03-21T09:03:26Z</time>
      </trkpt>
      <trkpt lat="46.21032" lon="-0.49338">
        <ele>45.8</ele>
        <time>2021-03-21T09:03:27Z</time>
      </trkpt>
      <trkpt lat="46.21032" lon="-0.49332">
        <ele>45.4</ele>
        <time>2021-03-21T09:03:28Z</time>
      </trkpt>
      <trkpt lat="46.2103" lon="-0.49328">
        <ele>45.2</ele>
        <time>2021-03-21T09:03:29Z</time>
      </trkpt>
      <trkpt lat="46.21027" lon="-0.49325">
        <ele>45</ele>
        <time>2021-03-21T09:03:30Z</time>
      </trkpt>
      <trkpt lat="46.21024" lon="-0.49322">
        <ele>45</ele>
        <time>2021-03-21T09:03:31Z</time>
      </trkpt>
      <trkpt lat="46.21014" lon="-0.49312">
        <ele>44.8</ele>
        <time>2021-03-21T09:03:33Z</time>
      </trkpt>
      <trkpt lat="46.2101" lon="-0.49305">
        <ele>44.8</ele>
        <time>2021-03-21T09:03:34Z</time>
      </trkpt>
      <trkpt lat="46.20989" lon="-0.49267">
        <ele>44.8</ele>
        <time>2021-03-21T09:03:39Z</time>
      </trkpt>
      <trkpt lat="46.20979" lon="-0.49251">
        <ele>44.8</ele>
        <time>2021-03-21T09:03:41Z</time>
      </trkpt>
      <trkpt lat="46.20974" lon="-0.49244">
        <ele>44.8</ele>
        <time>2021-03-21T09:03:42Z</time>
      </trkpt>
      <trkpt lat="46.20962" lon="-0.49233">
        <ele>44.8</ele>
        <time>2021-03-21T09:03:44Z</time>
      </trkpt>
      <trkpt lat="46.20949" lon="-0.49233">
        <ele>44.8</ele>
        <time>2021-03-21T09:03:46Z</time>
      </trkpt>
      <trkpt lat="46.20942" lon="-0.49236">
        <ele>44.8</ele>
        <time>2021-03-21T09:03:47Z</time>
      </trkpt>
      <trkpt lat="46.20931" lon="-0.49243">
        <ele>44.8</ele>
        <time>2021-03-21T09:03:49Z</time>
      </trkpt>
      <trkpt lat="46.20924" lon="-0.49249">
        <ele>44.8</ele>
        <time>2021-03-21T09:03:50Z</time>
      </trkpt>
      <trkpt lat="46.20918" lon="-0.49255">
        <ele>44.8</ele>
        <time>2021-03-21T09:03:51Z</time>
      </trkpt>
      <trkpt lat="46.20906" lon="-0.49265">
        <ele>44.8</ele>
        <time>2021-03-21T09:03:53Z</time>
      </trkpt>
      <trkpt lat="46.20887" lon="-0.49276">
        <ele>45</ele>
        <time>2021-03-21T09:03:56Z</time>
      </trkpt>
      <trkpt lat="46.20881" lon="-0.49278">
        <ele>45</ele>
        <time>2021-03-21T09:03:57Z</time>
      </trkpt>
      <trkpt lat="46.20876" lon="-0.49278">
        <ele>45.2</ele>
        <time>2021-03-21T09:03:58Z</time>
      </trkpt>
      <trkpt lat="46.20869" lon="-0.49276">
        <ele>45.4</ele>
        <time>2021-03-21T09:03:59Z</time>
      </trkpt>
      <trkpt lat="46.20864" lon="-0.49271">
        <ele>45.4</ele>
        <time>2021-03-21T09:04:00Z</time>
      </trkpt>
      <trkpt lat="46.20859" lon="-0.49265">
        <ele>45.4</ele>
        <time>2021-03-21T09:04:01Z</time>
      </trkpt>
      <trkpt lat="46.20851" lon="-0.49251">
        <ele>45.8</ele>
        <time>2021-03-21T09:04:03Z</time>
      </trkpt>
      <trkpt lat="46.20845" lon="-0.49242">
        <ele>45.8</ele>
        <time>2021-03-21T09:04:04Z</time>
      </trkpt>
      <trkpt lat="46.2084" lon="-0.49233">
        <ele>45.8</ele>
        <time>2021-03-21T09:04:05Z</time>
      </trkpt>
      <trkpt lat="46.20822" lon="-0.49196">
        <ele>46</ele>
        <time>2021-03-21T09:04:09Z</time>
      </trkpt>
      <trkpt lat="46.208" lon="-0.49143">
        <ele>45.4</ele>
        <time>2021-03-21T09:04:14Z</time>
      </trkpt>
      <trkpt lat="46.20792" lon="-0.49124">
        <ele>45.2</ele>
        <time>2021-03-21T09:04:16Z</time>
      </trkpt>
      <trkpt lat="46.20779" lon="-0.49092">
        <ele>44</ele>
        <time>2021-03-21T09:04:19Z</time>
      </trkpt>
      <trkpt lat="46.20766" lon="-0.49063">
        <ele>42.8</ele>
        <time>2021-03-21T09:04:22Z</time>
      </trkpt>
      <trkpt lat="46.20756" lon="-0.49044">
        <ele>42.2</ele>
        <time>2021-03-21T09:04:24Z</time>
      </trkpt>
      <trkpt lat="46.20753" lon="-0.49036">
        <ele>41.8</ele>
        <time>2021-03-21T09:04:25Z</time>
      </trkpt>
      <trkpt lat="46.20747" lon="-0.49025">
        <ele>41.2</ele>
        <time>2021-03-21T09:04:26Z</time>
      </trkpt>
      <trkpt lat="46.20743" lon="-0.49016">
        <ele>40.8</ele>
        <time>2021-03-21T09:04:27Z</time>
      </trkpt>
      <trkpt lat="46.2074" lon="-0.49008">
        <ele>40.4</ele>
        <time>2021-03-21T09:04:28Z</time>
      </trkpt>
      <trkpt lat="46.20737" lon="-0.49001">
        <ele>40</ele>
        <time>2021-03-21T09:04:29Z</time>
      </trkpt>
      <trkpt lat="46.20733" lon="-0.48992">
        <ele>39.2</ele>
        <time>2021-03-21T09:04:30Z</time>
      </trkpt>
      <trkpt lat="46.20729" lon="-0.48983">
        <ele>38.8</ele>
        <time>2021-03-21T09:04:31Z</time>
      </trkpt>
      <trkpt lat="46.20726" lon="-0.48975">
        <ele>38.4</ele>
        <time>2021-03-21T09:04:32Z</time>
      </trkpt>
      <trkpt lat="46.20724" lon="-0.48968">
        <ele>38.2</ele>
        <time>2021-03-21T09:04:33Z</time>
      </trkpt>
      <trkpt lat="46.20722" lon="-0.48964">
        <ele>38.2</ele>
        <time>2021-03-21T09:04:34Z</time>
      </trkpt>
      <trkpt lat="46.20721" lon="-0.48958">
        <ele>38</ele>
        <time>2021-03-21T09:04:35Z</time>
      </trkpt>
      <trkpt lat="46.20721" lon="-0.48954">
        <ele>38</ele>
        <time>2021-03-21T09:04:36Z</time>
      </trkpt>
      <trkpt lat="46.20722" lon="-0.4895">
        <ele>37.8</ele>
        <time>2021-03-21T09:04:37Z</time>
      </trkpt>
      <trkpt lat="46.20722" lon="-0.48946">
        <ele>37.8</ele>
        <time>2021-03-21T09:04:38Z</time>
      </trkpt>
      <trkpt lat="46.20722" lon="-0.48937">
        <ele>37.6</ele>
        <time>2021-03-21T09:04:39Z</time>
      </trkpt>
      <trkpt lat="46.20716" lon="-0.4891">
        <ele>37.4</ele>
        <time>2021-03-21T09:04:42Z</time>
      </trkpt>
      <trkpt lat="46.20714" lon="-0.48901">
        <ele>37.2</ele>
        <time>2021-03-21T09:04:43Z</time>
      </trkpt>
      <trkpt lat="46.20703" lon="-0.48869">
        <ele>37.2</ele>
        <time>2021-03-21T09:04:46Z</time>
      </trkpt>
      <trkpt lat="46.20696" lon="-0.4885">
        <ele>37</ele>
        <time>2021-03-21T09:04:48Z</time>
      </trkpt>
      <trkpt lat="46.20683" lon="-0.4882">
        <ele>36.4</ele>
        <time>2021-03-21T09:04:51Z</time>
      </trkpt>
      <trkpt lat="46.20663" lon="-0.48772">
        <ele>35.6</ele>
        <time>2021-03-21T09:04:56Z</time>
      </trkpt>
      <trkpt lat="46.20656" lon="-0.48752">
        <ele>35.4</ele>
        <time>2021-03-21T09:04:58Z</time>
      </trkpt>
      <trkpt lat="46.20654" lon="-0.48744">
        <ele>35.4</ele>
        <time>2021-03-21T09:04:59Z</time>
      </trkpt>
      <trkpt lat="46.20652" lon="-0.48738">
        <ele>35.4</ele>
        <time>2021-03-21T09:05:00Z</time>
      </trkpt>
      <trkpt lat="46.20649" lon="-0.48732">
        <ele>35.4</ele>
        <time>2021-03-21T09:05:01Z</time>
      </trkpt>
      <trkpt lat="46.20644" lon="-0.48727">
        <ele>35.4</ele>
        <time>2021-03-21T09:05:02Z</time>
      </trkpt>
      <trkpt lat="46.20638" lon="-0.48724">
        <ele>35.6</ele>
        <time>2021-03-21T09:05:03Z</time>
      </trkpt>
      <trkpt lat="46.20633" lon="-0.48722">
        <ele>35.4</ele>
        <time>2021-03-21T09:05:04Z</time>
      </trkpt>
      <trkpt lat="46.2062" lon="-0.48724">
        <ele>35.6</ele>
        <time>2021-03-21T09:05:06Z</time>
      </trkpt>
      <trkpt lat="46.20615" lon="-0.48727">
        <ele>35.6</ele>
        <time>2021-03-21T09:05:07Z</time>
      </trkpt>
      <trkpt lat="46.20609" lon="-0.4873">
        <ele>35.6</ele>
        <time>2021-03-21T09:05:08Z</time>
      </trkpt>
      <trkpt lat="46.20605" lon="-0.48732">
        <ele>35.6</ele>
        <time>2021-03-21T09:05:09Z</time>
      </trkpt>
      <trkpt lat="46.20599" lon="-0.48735">
        <ele>35.8</ele>
        <time>2021-03-21T09:05:10Z</time>
      </trkpt>
      <trkpt lat="46.20594" lon="-0.48738">
        <ele>35.8</ele>
        <time>2021-03-21T09:05:11Z</time>
      </trkpt>
      <trkpt lat="46.20588" lon="-0.48741">
        <ele>35.8</ele>
        <time>2021-03-21T09:05:12Z</time>
      </trkpt>
      <trkpt lat="46.20583" lon="-0.48743">
        <ele>36</ele>
        <time>2021-03-21T09:05:13Z</time>
      </trkpt>
      <trkpt lat="46.2058" lon="-0.48744">
        <ele>36</ele>
        <time>2021-03-21T09:05:14Z</time>
      </trkpt>
      <trkpt lat="46.20575" lon="-0.48744">
        <ele>36</ele>
        <time>2021-03-21T09:05:15Z</time>
      </trkpt>
      <trkpt lat="46.20572" lon="-0.48744">
        <ele>36</ele>
        <time>2021-03-21T09:05:16Z</time>
      </trkpt>
      <trkpt lat="46.20569" lon="-0.48742">
        <ele>36.2</ele>
        <time>2021-03-21T09:05:17Z</time>
      </trkpt>
      <trkpt lat="46.20567" lon="-0.48739">
        <ele>36.2</ele>
        <time>2021-03-21T09:05:18Z</time>
      </trkpt>
      <trkpt lat="46.20566" lon="-0.48732">
        <ele>36.2</ele>
        <time>2021-03-21T09:05:19Z</time>
      </trkpt>
      <trkpt lat="46.20563" lon="-0.48722">
        <ele>36.2</ele>
        <time>2021-03-21T09:05:21Z</time>
      </trkpt>
      <trkpt lat="46.20562" lon="-0.48715">
        <ele>36.2</ele>
        <time>2021-03-21T09:05:22Z</time>
      </trkpt>
      <trkpt lat="46.20561" lon="-0.48711">
        <ele>36.4</ele>
        <time>2021-03-21T09:05:23Z</time>
      </trkpt>
      <trkpt lat="46.20559" lon="-0.48706">
        <ele>36.4</ele>
        <time>2021-03-21T09:05:24Z</time>
      </trkpt>
      <trkpt lat="46.20557" lon="-0.48705">
        <ele>36.4</ele>
        <time>2021-03-21T09:05:25Z</time>
      </trkpt>
      <trkpt lat="46.20553" lon="-0.48704">
        <ele>36.6</ele>
        <time>2021-03-21T09:05:26Z</time>
      </trkpt>
      <trkpt lat="46.20549" lon="-0.48704">
        <ele>36.6</ele>
        <time>2021-03-21T09:05:27Z</time>
      </trkpt>
      <trkpt lat="46.20538" lon="-0.48705">
        <ele>36.6</ele>
        <time>2021-03-21T09:05:29Z</time>
      </trkpt>
      <trkpt lat="46.20511" lon="-0.48705">
        <ele>36.6</ele>
        <time>2021-03-21T09:05:34Z</time>
      </trkpt>
      <trkpt lat="46.20506" lon="-0.48705">
        <ele>36.6</ele>
        <time>2021-03-21T09:05:35Z</time>
      </trkpt>
      <trkpt lat="46.20495" lon="-0.48705">
        <ele>36.6</ele>
        <time>2021-03-21T09:05:37Z</time>
      </trkpt>
      <trkpt lat="46.20476" lon="-0.48703">
        <ele>36.6</ele>
        <time>2021-03-21T09:05:40Z</time>
      </trkpt>
      <trkpt lat="46.20444" lon="-0.48701">
        <ele>36.6</ele>
        <time>2021-03-21T09:05:45Z</time>
      </trkpt>
      <trkpt lat="46.20436" lon="-0.48702">
        <ele>36.8</ele>
        <time>2021-03-21T09:05:46Z</time>
      </trkpt>
      <trkpt lat="46.2043" lon="-0.48705">
        <ele>36.8</ele>
        <time>2021-03-21T09:05:47Z</time>
      </trkpt>
      <trkpt lat="46.20425" lon="-0.4871">
        <ele>36.8</ele>
        <time>2021-03-21T09:05:48Z</time>
      </trkpt>
      <trkpt lat="46.2042" lon="-0.48716">
        <ele>36.8</ele>
        <time>2021-03-21T09:05:49Z</time>
      </trkpt>
      <trkpt lat="46.20414" lon="-0.48723">
        <ele>36.8</ele>
        <time>2021-03-21T09:05:50Z</time>
      </trkpt>
      <trkpt lat="46.20407" lon="-0.48731">
        <ele>36.8</ele>
        <time>2021-03-21T09:05:51Z</time>
      </trkpt>
      <trkpt lat="46.20401" lon="-0.48738">
        <ele>36.8</ele>
        <time>2021-03-21T09:05:52Z</time>
      </trkpt>
      <trkpt lat="46.20374" lon="-0.48771">
        <ele>36.8</ele>
        <time>2021-03-21T09:05:57Z</time>
      </trkpt>
      <trkpt lat="46.20369" lon="-0.48776">
        <ele>36.8</ele>
        <time>2021-03-21T09:05:58Z</time>
      </trkpt>
      <trkpt lat="46.2035" lon="-0.48796">
        <ele>36.8</ele>
        <time>2021-03-21T09:06:01Z</time>
      </trkpt>
      <trkpt lat="46.20344" lon="-0.48803">
        <ele>36.8</ele>
        <time>2021-03-21T09:06:02Z</time>
      </trkpt>
      <trkpt lat="46.20334" lon="-0.48815">
        <ele>36.8</ele>
        <time>2021-03-21T09:06:04Z</time>
      </trkpt>
      <trkpt lat="46.20317" lon="-0.48834">
        <ele>36.8</ele>
        <time>2021-03-21T09:06:07Z</time>
      </trkpt>
      <trkpt lat="46.20302" lon="-0.48853">
        <ele>36.8</ele>
        <time>2021-03-21T09:06:10Z</time>
      </trkpt>
      <trkpt lat="46.20298" lon="-0.48857">
        <ele>37</ele>
        <time>2021-03-21T09:06:11Z</time>
      </trkpt>
      <trkpt lat="46.20296" lon="-0.48861">
        <ele>37</ele>
        <time>2021-03-21T09:06:12Z</time>
      </trkpt>
      <trkpt lat="46.20291" lon="-0.48865">
        <ele>37</ele>
        <time>2021-03-21T09:06:13Z</time>
      </trkpt>
      <trkpt lat="46.20288" lon="-0.48868">
        <ele>37.2</ele>
        <time>2021-03-21T09:06:14Z</time>
      </trkpt>
      <trkpt lat="46.20285" lon="-0.48867">
        <ele>37.2</ele>
        <time>2021-03-21T09:06:15Z</time>
      </trkpt>
      <trkpt lat="46.20282" lon="-0.48866">
        <ele>37.4</ele>
        <time>2021-03-21T09:06:16Z</time>
      </trkpt>
      <trkpt lat="46.20278" lon="-0.48862">
        <ele>37.6</ele>
        <time>2021-03-21T09:06:17Z</time>
      </trkpt>
      <trkpt lat="46.20269" lon="-0.4885">
        <ele>38.6</ele>
        <time>2021-03-21T09:06:19Z</time>
      </trkpt>
      <trkpt lat="46.20265" lon="-0.48843">
        <ele>39</ele>
        <time>2021-03-21T09:06:20Z</time>
      </trkpt>
      <trkpt lat="46.20261" lon="-0.48837">
        <ele>39</ele>
        <time>2021-03-21T09:06:21Z</time>
      </trkpt>
      <trkpt lat="46.20246" lon="-0.48808">
        <ele>39.6</ele>
        <time>2021-03-21T09:06:24Z</time>
      </trkpt>
      <trkpt lat="46.20237" lon="-0.48788">
        <ele>39.8</ele>
        <time>2021-03-21T09:06:26Z</time>
      </trkpt>
      <trkpt lat="46.20232" lon="-0.48778">
        <ele>40</ele>
        <time>2021-03-21T09:06:27Z</time>
      </trkpt>
      <trkpt lat="46.20228" lon="-0.48769">
        <ele>40</ele>
        <time>2021-03-21T09:06:28Z</time>
      </trkpt>
      <trkpt lat="46.20223" lon="-0.48761">
        <ele>40</ele>
        <time>2021-03-21T09:06:29Z</time>
      </trkpt>
      <trkpt lat="46.20219" lon="-0.48755">
        <ele>40.2</ele>
        <time>2021-03-21T09:06:30Z</time>
      </trkpt>
      <trkpt lat="46.20213" lon="-0.48748">
        <ele>40.2</ele>
        <time>2021-03-21T09:06:31Z</time>
      </trkpt>
      <trkpt lat="46.20209" lon="-0.48743">
        <ele>40.4</ele>
        <time>2021-03-21T09:06:32Z</time>
      </trkpt>
      <trkpt lat="46.20206" lon="-0.48739">
        <ele>40.4</ele>
        <time>2021-03-21T09:06:33Z</time>
      </trkpt>
      <trkpt lat="46.20203" lon="-0.48736">
        <ele>40.4</ele>
        <time>2021-03-21T09:06:34Z</time>
      </trkpt>
      <trkpt lat="46.20198" lon="-0.4873">
        <ele>40.6</ele>
        <time>2021-03-21T09:06:35Z</time>
      </trkpt>
      <trkpt lat="46.20193" lon="-0.48725">
        <ele>40.6</ele>
        <time>2021-03-21T09:06:36Z</time>
      </trkpt>
      <trkpt lat="46.20187" lon="-0.48719">
        <ele>40.6</ele>
        <time>2021-03-21T09:06:37Z</time>
      </trkpt>
      <trkpt lat="46.20182" lon="-0.48712">
        <ele>40.6</ele>
        <time>2021-03-21T09:06:38Z</time>
      </trkpt>
      <trkpt lat="46.20178" lon="-0.48706">
        <ele>40.8</ele>
        <time>2021-03-21T09:06:39Z</time>
      </trkpt>
      <trkpt lat="46.20171" lon="-0.48698">
        <ele>41.2</ele>
        <time>2021-03-21T09:06:40Z</time>
      </trkpt>
      <trkpt lat="46.20165" lon="-0.48691">
        <ele>41.4</ele>
        <time>2021-03-21T09:06:41Z</time>
      </trkpt>
      <trkpt lat="46.20159" lon="-0.48683">
        <ele>41.6</ele>
        <time>2021-03-21T09:06:42Z</time>
      </trkpt>
      <trkpt lat="46.20155" lon="-0.48677">
        <ele>41.8</ele>
        <time>2021-03-21T09:06:43Z</time>
      </trkpt>
      <trkpt lat="46.20148" lon="-0.48668">
        <ele>41.8</ele>
        <time>2021-03-21T09:06:44Z</time>
      </trkpt>
      <trkpt lat="46.20142" lon="-0.48659">
        <ele>42</ele>
        <time>2021-03-21T09:06:45Z</time>
      </trkpt>
      <trkpt lat="46.20137" lon="-0.4865">
        <ele>42</ele>
        <time>2021-03-21T09:06:46Z</time>
      </trkpt>
      <trkpt lat="46.20132" lon="-0.48643">
        <ele>42</ele>
        <time>2021-03-21T09:06:47Z</time>
      </trkpt>
      <trkpt lat="46.20127" lon="-0.48631">
        <ele>42</ele>
        <time>2021-03-21T09:06:48Z</time>
      </trkpt>
      <trkpt lat="46.20122" lon="-0.48622">
        <ele>42</ele>
        <time>2021-03-21T09:06:49Z</time>
      </trkpt>
      <trkpt lat="46.20117" lon="-0.48612">
        <ele>42</ele>
        <time>2021-03-21T09:06:50Z</time>
      </trkpt>
      <trkpt lat="46.20112" lon="-0.48602">
        <ele>42</ele>
        <time>2021-03-21T09:06:51Z</time>
      </trkpt>
      <trkpt lat="46.20108" lon="-0.48593">
        <ele>42</ele>
        <time>2021-03-21T09:06:52Z</time>
      </trkpt>
      <trkpt lat="46.20102" lon="-0.48581">
        <ele>42</ele>
        <time>2021-03-21T09:06:53Z</time>
      </trkpt>
      <trkpt lat="46.20098" lon="-0.4857">
        <ele>41.8</ele>
        <time>2021-03-21T09:06:54Z</time>
      </trkpt>
      <trkpt lat="46.20093" lon="-0.4856">
        <ele>41.8</ele>
        <time>2021-03-21T09:06:55Z</time>
      </trkpt>
      <trkpt lat="46.20089" lon="-0.48552">
        <ele>41.8</ele>
        <time>2021-03-21T09:06:56Z</time>
      </trkpt>
      <trkpt lat="46.20062" lon="-0.48486">
        <ele>40.8</ele>
        <time>2021-03-21T09:07:02Z</time>
      </trkpt>
      <trkpt lat="46.20054" lon="-0.48467">
        <ele>40.6</ele>
        <time>2021-03-21T09:07:04Z</time>
      </trkpt>
      <trkpt lat="46.20045" lon="-0.48447">
        <ele>40.4</ele>
        <time>2021-03-21T09:07:06Z</time>
      </trkpt>
      <trkpt lat="46.2004" lon="-0.48437">
        <ele>40.4</ele>
        <time>2021-03-21T09:07:07Z</time>
      </trkpt>
      <trkpt lat="46.20035" lon="-0.48428">
        <ele>40.4</ele>
        <time>2021-03-21T09:07:08Z</time>
      </trkpt>
      <trkpt lat="46.2003" lon="-0.48419">
        <ele>40.4</ele>
        <time>2021-03-21T09:07:09Z</time>
      </trkpt>
      <trkpt lat="46.20025" lon="-0.48413">
        <ele>40.4</ele>
        <time>2021-03-21T09:07:10Z</time>
      </trkpt>
      <trkpt lat="46.20019" lon="-0.48402">
        <ele>40.4</ele>
        <time>2021-03-21T09:07:11Z</time>
      </trkpt>
      <trkpt lat="46.20013" lon="-0.48394">
        <ele>40.4</ele>
        <time>2021-03-21T09:07:12Z</time>
      </trkpt>
      <trkpt lat="46.19983" lon="-0.48354">
        <ele>41</ele>
        <time>2021-03-21T09:07:17Z</time>
      </trkpt>
      <trkpt lat="46.19971" lon="-0.48341">
        <ele>41.4</ele>
        <time>2021-03-21T09:07:19Z</time>
      </trkpt>
      <trkpt lat="46.19963" lon="-0.48333">
        <ele>41.6</ele>
        <time>2021-03-21T09:07:20Z</time>
      </trkpt>
      <trkpt lat="46.19948" lon="-0.4833">
        <ele>41.8</ele>
        <time>2021-03-21T09:07:22Z</time>
      </trkpt>
      <trkpt lat="46.19942" lon="-0.48332">
        <ele>41.8</ele>
        <time>2021-03-21T09:07:23Z</time>
      </trkpt>
      <trkpt lat="46.19933" lon="-0.48339">
        <ele>42</ele>
        <time>2021-03-21T09:07:24Z</time>
      </trkpt>
      <trkpt lat="46.19926" lon="-0.48345">
        <ele>42.2</ele>
        <time>2021-03-21T09:07:25Z</time>
      </trkpt>
      <trkpt lat="46.1992" lon="-0.48352">
        <ele>42.4</ele>
        <time>2021-03-21T09:07:26Z</time>
      </trkpt>
      <trkpt lat="46.19914" lon="-0.4836">
        <ele>42.4</ele>
        <time>2021-03-21T09:07:27Z</time>
      </trkpt>
      <trkpt lat="46.19909" lon="-0.48367">
        <ele>42.4</ele>
        <time>2021-03-21T09:07:28Z</time>
      </trkpt>
      <trkpt lat="46.19903" lon="-0.48376">
        <ele>42.6</ele>
        <time>2021-03-21T09:07:29Z</time>
      </trkpt>
      <trkpt lat="46.19899" lon="-0.48383">
        <ele>42.6</ele>
        <time>2021-03-21T09:07:30Z</time>
      </trkpt>
      <trkpt lat="46.19892" lon="-0.48392">
        <ele>42.8</ele>
        <time>2021-03-21T09:07:31Z</time>
      </trkpt>
      <trkpt lat="46.19888" lon="-0.48398">
        <ele>42.8</ele>
        <time>2021-03-21T09:07:32Z</time>
      </trkpt>
      <trkpt lat="46.19877" lon="-0.48416">
        <ele>43</ele>
        <time>2021-03-21T09:07:34Z</time>
      </trkpt>
      <trkpt lat="46.19868" lon="-0.48429">
        <ele>43.2</ele>
        <time>2021-03-21T09:07:36Z</time>
      </trkpt>
      <trkpt lat="46.19863" lon="-0.48437">
        <ele>43.6</ele>
        <time>2021-03-21T09:07:37Z</time>
      </trkpt>
      <trkpt lat="46.19857" lon="-0.48445">
        <ele>43.8</ele>
        <time>2021-03-21T09:07:38Z</time>
      </trkpt>
      <trkpt lat="46.19852" lon="-0.48452">
        <ele>44</ele>
        <time>2021-03-21T09:07:39Z</time>
      </trkpt>
      <trkpt lat="46.19847" lon="-0.48459">
        <ele>44.2</ele>
        <time>2021-03-21T09:07:40Z</time>
      </trkpt>
      <trkpt lat="46.19842" lon="-0.48463">
        <ele>44.4</ele>
        <time>2021-03-21T09:07:41Z</time>
      </trkpt>
      <trkpt lat="46.19836" lon="-0.48471">
        <ele>44.6</ele>
        <time>2021-03-21T09:07:42Z</time>
      </trkpt>
      <trkpt lat="46.1983" lon="-0.48477">
        <ele>44.8</ele>
        <time>2021-03-21T09:07:43Z</time>
      </trkpt>
      <trkpt lat="46.19824" lon="-0.48483">
        <ele>45</ele>
        <time>2021-03-21T09:07:44Z</time>
      </trkpt>
      <trkpt lat="46.1982" lon="-0.48489">
        <ele>45.4</ele>
        <time>2021-03-21T09:07:45Z</time>
      </trkpt>
      <trkpt lat="46.19813" lon="-0.48495">
        <ele>45.8</ele>
        <time>2021-03-21T09:07:46Z</time>
      </trkpt>
      <trkpt lat="46.19806" lon="-0.48502">
        <ele>46.2</ele>
        <time>2021-03-21T09:07:47Z</time>
      </trkpt>
      <trkpt lat="46.198" lon="-0.48508">
        <ele>46.4</ele>
        <time>2021-03-21T09:07:48Z</time>
      </trkpt>
      <trkpt lat="46.19794" lon="-0.48514">
        <ele>46.6</ele>
        <time>2021-03-21T09:07:49Z</time>
      </trkpt>
      <trkpt lat="46.19789" lon="-0.48519">
        <ele>46.8</ele>
        <time>2021-03-21T09:07:50Z</time>
      </trkpt>
      <trkpt lat="46.19783" lon="-0.48526">
        <ele>46.8</ele>
        <time>2021-03-21T09:07:51Z</time>
      </trkpt>
      <trkpt lat="46.19776" lon="-0.48534">
        <ele>47.2</ele>
        <time>2021-03-21T09:07:52Z</time>
      </trkpt>
      <trkpt lat="46.1977" lon="-0.48541">
        <ele>47.4</ele>
        <time>2021-03-21T09:07:53Z</time>
      </trkpt>
      <trkpt lat="46.19765" lon="-0.48546">
        <ele>47.6</ele>
        <time>2021-03-21T09:07:54Z</time>
      </trkpt>
      <trkpt lat="46.19757" lon="-0.48553">
        <ele>48</ele>
        <time>2021-03-21T09:07:55Z</time>
      </trkpt>
      <trkpt lat="46.19751" lon="-0.48559">
        <ele>48</ele>
        <time>2021-03-21T09:07:56Z</time>
      </trkpt>
      <trkpt lat="46.19745" lon="-0.48566">
        <ele>48.2</ele>
        <time>2021-03-21T09:07:57Z</time>
      </trkpt>
      <trkpt lat="46.19739" lon="-0.48573">
        <ele>48.4</ele>
        <time>2021-03-21T09:07:58Z</time>
      </trkpt>
      <trkpt lat="46.19734" lon="-0.48578">
        <ele>48.4</ele>
        <time>2021-03-21T09:07:59Z</time>
      </trkpt>
      <trkpt lat="46.19726" lon="-0.48586">
        <ele>48.4</ele>
        <time>2021-03-21T09:08:00Z</time>
      </trkpt>
      <trkpt lat="46.1972" lon="-0.48591">
        <ele>48.4</ele>
        <time>2021-03-21T09:08:01Z</time>
      </trkpt>
      <trkpt lat="46.19713" lon="-0.48597">
        <ele>48.6</ele>
        <time>2021-03-21T09:08:02Z</time>
      </trkpt>
      <trkpt lat="46.19708" lon="-0.48601">
        <ele>48.8</ele>
        <time>2021-03-21T09:08:03Z</time>
      </trkpt>
      <trkpt lat="46.19699" lon="-0.48608">
        <ele>48.8</ele>
        <time>2021-03-21T09:08:04Z</time>
      </trkpt>
      <trkpt lat="46.19692" lon="-0.48613">
        <ele>49</ele>
        <time>2021-03-21T09:08:05Z</time>
      </trkpt>
      <trkpt lat="46.19685" lon="-0.48618">
        <ele>49.2</ele>
        <time>2021-03-21T09:08:06Z</time>
      </trkpt>
      <trkpt lat="46.19678" lon="-0.48623">
        <ele>49.6</ele>
        <time>2021-03-21T09:08:07Z</time>
      </trkpt>
      <trkpt lat="46.19673" lon="-0.48627">
        <ele>49.8</ele>
        <time>2021-03-21T09:08:08Z</time>
      </trkpt>
      <trkpt lat="46.19665" lon="-0.48633">
        <ele>50</ele>
        <time>2021-03-21T09:08:09Z</time>
      </trkpt>
      <trkpt lat="46.19658" lon="-0.48638">
        <ele>50</ele>
        <time>2021-03-21T09:08:10Z</time>
      </trkpt>
      <trkpt lat="46.19652" lon="-0.48642">
        <ele>50.2</ele>
        <time>2021-03-21T09:08:11Z</time>
      </trkpt>
      <trkpt lat="46.19647" lon="-0.48646">
        <ele>50.2</ele>
        <time>2021-03-21T09:08:12Z</time>
      </trkpt>
      <trkpt lat="46.1964" lon="-0.4865">
        <ele>50.4</ele>
        <time>2021-03-21T09:08:13Z</time>
      </trkpt>
      <trkpt lat="46.19632" lon="-0.48655">
        <ele>50.4</ele>
        <time>2021-03-21T09:08:14Z</time>
      </trkpt>
      <trkpt lat="46.19625" lon="-0.48658">
        <ele>50.4</ele>
        <time>2021-03-21T09:08:15Z</time>
      </trkpt>
      <trkpt lat="46.19618" lon="-0.48661">
        <ele>50.6</ele>
        <time>2021-03-21T09:08:16Z</time>
      </trkpt>
      <trkpt lat="46.19613" lon="-0.48663">
        <ele>50.8</ele>
        <time>2021-03-21T09:08:17Z</time>
      </trkpt>
      <trkpt lat="46.19606" lon="-0.48665">
        <ele>50.8</ele>
        <time>2021-03-21T09:08:18Z</time>
      </trkpt>
      <trkpt lat="46.196" lon="-0.48666">
        <ele>51</ele>
        <time>2021-03-21T09:08:19Z</time>
      </trkpt>
      <trkpt lat="46.19595" lon="-0.48667">
        <ele>51.2</ele>
        <time>2021-03-21T09:08:20Z</time>
      </trkpt>
      <trkpt lat="46.19592" lon="-0.48669">
        <ele>51.4</ele>
        <time>2021-03-21T09:08:21Z</time>
      </trkpt>
      <trkpt lat="46.19588" lon="-0.48673">
        <ele>51.6</ele>
        <time>2021-03-21T09:08:22Z</time>
      </trkpt>
      <trkpt lat="46.19587" lon="-0.48678">
        <ele>51.8</ele>
        <time>2021-03-21T09:08:23Z</time>
      </trkpt>
      <trkpt lat="46.19588" lon="-0.48685">
        <ele>52</ele>
        <time>2021-03-21T09:08:24Z</time>
      </trkpt>
      <trkpt lat="46.19589" lon="-0.48692">
        <ele>52</ele>
        <time>2021-03-21T09:08:25Z</time>
      </trkpt>
      <trkpt lat="46.19589" lon="-0.48701">
        <ele>52.2</ele>
        <time>2021-03-21T09:08:26Z</time>
      </trkpt>
      <trkpt lat="46.19588" lon="-0.48713">
        <ele>52.2</ele>
        <time>2021-03-21T09:08:27Z</time>
      </trkpt>
      <trkpt lat="46.19589" lon="-0.48723">
        <ele>52.2</ele>
        <time>2021-03-21T09:08:28Z</time>
      </trkpt>
      <trkpt lat="46.1959" lon="-0.48734">
        <ele>52.2</ele>
        <time>2021-03-21T09:08:29Z</time>
      </trkpt>
      <trkpt lat="46.19592" lon="-0.48742">
        <ele>52.2</ele>
        <time>2021-03-21T09:08:30Z</time>
      </trkpt>
      <trkpt lat="46.19595" lon="-0.48753">
        <ele>52.2</ele>
        <time>2021-03-21T09:08:31Z</time>
      </trkpt>
      <trkpt lat="46.19598" lon="-0.48762">
        <ele>52.2</ele>
        <time>2021-03-21T09:08:32Z</time>
      </trkpt>
      <trkpt lat="46.19601" lon="-0.48771">
        <ele>52.2</ele>
        <time>2021-03-21T09:08:33Z</time>
      </trkpt>
      <trkpt lat="46.19604" lon="-0.48778">
        <ele>52.2</ele>
        <time>2021-03-21T09:08:34Z</time>
      </trkpt>
      <trkpt lat="46.19608" lon="-0.48786">
        <ele>52.2</ele>
        <time>2021-03-21T09:08:35Z</time>
      </trkpt>
      <trkpt lat="46.19612" lon="-0.48796">
        <ele>51.6</ele>
        <time>2021-03-21T09:08:36Z</time>
      </trkpt>
      <trkpt lat="46.19615" lon="-0.48804">
        <ele>51.2</ele>
        <time>2021-03-21T09:08:37Z</time>
      </trkpt>
      <trkpt lat="46.19618" lon="-0.48813">
        <ele>51</ele>
        <time>2021-03-21T09:08:38Z</time>
      </trkpt>
      <trkpt lat="46.1962" lon="-0.48819">
        <ele>50.8</ele>
        <time>2021-03-21T09:08:39Z</time>
      </trkpt>
      <trkpt lat="46.19627" lon="-0.48834">
        <ele>50.2</ele>
        <time>2021-03-21T09:08:41Z</time>
      </trkpt>
      <trkpt lat="46.19631" lon="-0.48842">
        <ele>50.2</ele>
        <time>2021-03-21T09:08:42Z</time>
      </trkpt>
      <trkpt lat="46.19634" lon="-0.48848">
        <ele>50.2</ele>
        <time>2021-03-21T09:08:43Z</time>
      </trkpt>
      <trkpt lat="46.19637" lon="-0.48856">
        <ele>50.2</ele>
        <time>2021-03-21T09:08:44Z</time>
      </trkpt>
      <trkpt lat="46.19644" lon="-0.48872">
        <ele>50.2</ele>
        <time>2021-03-21T09:08:46Z</time>
      </trkpt>
      <trkpt lat="46.19647" lon="-0.4888">
        <ele>50.2</ele>
        <time>2021-03-21T09:08:47Z</time>
      </trkpt>
      <trkpt lat="46.19649" lon="-0.48886">
        <ele>50.2</ele>
        <time>2021-03-21T09:08:48Z</time>
      </trkpt>
      <trkpt lat="46.19652" lon="-0.48894">
        <ele>50.2</ele>
        <time>2021-03-21T09:08:49Z</time>
      </trkpt>
      <trkpt lat="46.19655" lon="-0.48901">
        <ele>50.2</ele>
        <time>2021-03-21T09:08:50Z</time>
      </trkpt>
      <trkpt lat="46.19658" lon="-0.48909">
        <ele>50.2</ele>
        <time>2021-03-21T09:08:51Z</time>
      </trkpt>
      <trkpt lat="46.19672" lon="-0.48944">
        <ele>51</ele>
        <time>2021-03-21T09:08:56Z</time>
      </trkpt>
      <trkpt lat="46.19675" lon="-0.48951">
        <ele>51.2</ele>
        <time>2021-03-21T09:08:57Z</time>
      </trkpt>
      <trkpt lat="46.19679" lon="-0.4896">
        <ele>51.4</ele>
        <time>2021-03-21T09:08:58Z</time>
      </trkpt>
      <trkpt lat="46.19684" lon="-0.48976">
        <ele>51.6</ele>
        <time>2021-03-21T09:09:00Z</time>
      </trkpt>
      <trkpt lat="46.19689" lon="-0.48991">
        <ele>52</ele>
        <time>2021-03-21T09:09:02Z</time>
      </trkpt>
      <trkpt lat="46.19698" lon="-0.49014">
        <ele>53.2</ele>
        <time>2021-03-21T09:09:05Z</time>
      </trkpt>
      <trkpt lat="46.19701" lon="-0.49021">
        <ele>53.4</ele>
        <time>2021-03-21T09:09:06Z</time>
      </trkpt>
      <trkpt lat="46.19711" lon="-0.49046">
        <ele>54.2</ele>
        <time>2021-03-21T09:09:09Z</time>
      </trkpt>
      <trkpt lat="46.19713" lon="-0.49052">
        <ele>54.2</ele>
        <time>2021-03-21T09:09:10Z</time>
      </trkpt>
      <trkpt lat="46.19717" lon="-0.49062">
        <ele>54.4</ele>
        <time>2021-03-21T09:09:11Z</time>
      </trkpt>
      <trkpt lat="46.1972" lon="-0.4907">
        <ele>54.6</ele>
        <time>2021-03-21T09:09:12Z</time>
      </trkpt>
      <trkpt lat="46.19724" lon="-0.49078">
        <ele>55</ele>
        <time>2021-03-21T09:09:13Z</time>
      </trkpt>
      <trkpt lat="46.19727" lon="-0.49086">
        <ele>55</ele>
        <time>2021-03-21T09:09:14Z</time>
      </trkpt>
      <trkpt lat="46.1973" lon="-0.49092">
        <ele>55.4</ele>
        <time>2021-03-21T09:09:15Z</time>
      </trkpt>
      <trkpt lat="46.19734" lon="-0.49101">
        <ele>55.6</ele>
        <time>2021-03-21T09:09:16Z</time>
      </trkpt>
      <trkpt lat="46.19737" lon="-0.49108">
        <ele>55.8</ele>
        <time>2021-03-21T09:09:17Z</time>
      </trkpt>
      <trkpt lat="46.1974" lon="-0.49117">
        <ele>56</ele>
        <time>2021-03-21T09:09:18Z</time>
      </trkpt>
      <trkpt lat="46.19743" lon="-0.49123">
        <ele>56.4</ele>
        <time>2021-03-21T09:09:19Z</time>
      </trkpt>
      <trkpt lat="46.19748" lon="-0.49132">
        <ele>56.8</ele>
        <time>2021-03-21T09:09:20Z</time>
      </trkpt>
      <trkpt lat="46.19752" lon="-0.4914">
        <ele>57</ele>
        <time>2021-03-21T09:09:21Z</time>
      </trkpt>
      <trkpt lat="46.19756" lon="-0.49147">
        <ele>57.4</ele>
        <time>2021-03-21T09:09:22Z</time>
      </trkpt>
      <trkpt lat="46.19761" lon="-0.49153">
        <ele>57.8</ele>
        <time>2021-03-21T09:09:23Z</time>
      </trkpt>
      <trkpt lat="46.19765" lon="-0.49157">
        <ele>58.2</ele>
        <time>2021-03-21T09:09:24Z</time>
      </trkpt>
      <trkpt lat="46.1977" lon="-0.49165">
        <ele>58.4</ele>
        <time>2021-03-21T09:09:25Z</time>
      </trkpt>
      <trkpt lat="46.19773" lon="-0.49172">
        <ele>58.8</ele>
        <time>2021-03-21T09:09:26Z</time>
      </trkpt>
      <trkpt lat="46.19775" lon="-0.4918">
        <ele>59.2</ele>
        <time>2021-03-21T09:09:27Z</time>
      </trkpt>
      <trkpt lat="46.19777" lon="-0.49187">
        <ele>59.4</ele>
        <time>2021-03-21T09:09:28Z</time>
      </trkpt>
      <trkpt lat="46.1978" lon="-0.49197">
        <ele>59.6</ele>
        <time>2021-03-21T09:09:29Z</time>
      </trkpt>
      <trkpt lat="46.19783" lon="-0.49204">
        <ele>59.8</ele>
        <time>2021-03-21T09:09:30Z</time>
      </trkpt>
      <trkpt lat="46.19787" lon="-0.4921">
        <ele>59.8</ele>
        <time>2021-03-21T09:09:31Z</time>
      </trkpt>
      <trkpt lat="46.1979" lon="-0.49214">
        <ele>60</ele>
        <time>2021-03-21T09:09:32Z</time>
      </trkpt>
      <trkpt lat="46.19794" lon="-0.4922">
        <ele>60</ele>
        <time>2021-03-21T09:09:33Z</time>
      </trkpt>
      <trkpt lat="46.19797" lon="-0.49228">
        <ele>60</ele>
        <time>2021-03-21T09:09:34Z</time>
      </trkpt>
      <trkpt lat="46.19799" lon="-0.49234">
        <ele>60.2</ele>
        <time>2021-03-21T09:09:35Z</time>
      </trkpt>
      <trkpt lat="46.198" lon="-0.49242">
        <ele>60.2</ele>
        <time>2021-03-21T09:09:36Z</time>
      </trkpt>
      <trkpt lat="46.198" lon="-0.49248">
        <ele>60.2</ele>
        <time>2021-03-21T09:09:37Z</time>
      </trkpt>
      <trkpt lat="46.19799" lon="-0.49259">
        <ele>60.4</ele>
        <time>2021-03-21T09:09:38Z</time>
      </trkpt>
      <trkpt lat="46.19798" lon="-0.49266">
        <ele>60.4</ele>
        <time>2021-03-21T09:09:39Z</time>
      </trkpt>
      <trkpt lat="46.19795" lon="-0.49278">
        <ele>60.6</ele>
        <time>2021-03-21T09:09:40Z</time>
      </trkpt>
      <trkpt lat="46.19793" lon="-0.49285">
        <ele>60.8</ele>
        <time>2021-03-21T09:09:41Z</time>
      </trkpt>
      <trkpt lat="46.19791" lon="-0.49295">
        <ele>61</ele>
        <time>2021-03-21T09:09:42Z</time>
      </trkpt>
      <trkpt lat="46.19789" lon="-0.49307">
        <ele>61.2</ele>
        <time>2021-03-21T09:09:43Z</time>
      </trkpt>
      <trkpt lat="46.19787" lon="-0.49317">
        <ele>61.4</ele>
        <time>2021-03-21T09:09:44Z</time>
      </trkpt>
      <trkpt lat="46.19786" lon="-0.49328">
        <ele>61.4</ele>
        <time>2021-03-21T09:09:45Z</time>
      </trkpt>
      <trkpt lat="46.19784" lon="-0.49336">
        <ele>61.4</ele>
        <time>2021-03-21T09:09:46Z</time>
      </trkpt>
      <trkpt lat="46.19782" lon="-0.49349">
        <ele>61.6</ele>
        <time>2021-03-21T09:09:47Z</time>
      </trkpt>
      <trkpt lat="46.19781" lon="-0.4936">
        <ele>61.6</ele>
        <time>2021-03-21T09:09:48Z</time>
      </trkpt>
      <trkpt lat="46.19779" lon="-0.49371">
        <ele>61.6</ele>
        <time>2021-03-21T09:09:49Z</time>
      </trkpt>
      <trkpt lat="46.19777" lon="-0.4938">
        <ele>61.8</ele>
        <time>2021-03-21T09:09:50Z</time>
      </trkpt>
      <trkpt lat="46.19775" lon="-0.49394">
        <ele>62</ele>
        <time>2021-03-21T09:09:51Z</time>
      </trkpt>
      <trkpt lat="46.19773" lon="-0.49405">
        <ele>62</ele>
        <time>2021-03-21T09:09:52Z</time>
      </trkpt>
      <trkpt lat="46.19771" lon="-0.49417">
        <ele>62.2</ele>
        <time>2021-03-21T09:09:53Z</time>
      </trkpt>
      <trkpt lat="46.1977" lon="-0.49428">
        <ele>62.4</ele>
        <time>2021-03-21T09:09:54Z</time>
      </trkpt>
      <trkpt lat="46.19768" lon="-0.49437">
        <ele>62.6</ele>
        <time>2021-03-21T09:09:55Z</time>
      </trkpt>
      <trkpt lat="46.19766" lon="-0.4945">
        <ele>62.8</ele>
        <time>2021-03-21T09:09:56Z</time>
      </trkpt>
      <trkpt lat="46.19765" lon="-0.49462">
        <ele>63</ele>
        <time>2021-03-21T09:09:57Z</time>
      </trkpt>
      <trkpt lat="46.19763" lon="-0.49473">
        <ele>63.2</ele>
        <time>2021-03-21T09:09:58Z</time>
      </trkpt>
      <trkpt lat="46.19762" lon="-0.49482">
        <ele>63.2</ele>
        <time>2021-03-21T09:09:59Z</time>
      </trkpt>
      <trkpt lat="46.1976" lon="-0.49493">
        <ele>63.4</ele>
        <time>2021-03-21T09:10:00Z</time>
      </trkpt>
      <trkpt lat="46.19757" lon="-0.49507">
        <ele>63.6</ele>
        <time>2021-03-21T09:10:01Z</time>
      </trkpt>
      <trkpt lat="46.19755" lon="-0.49518">
        <ele>63.6</ele>
        <time>2021-03-21T09:10:02Z</time>
      </trkpt>
      <trkpt lat="46.19754" lon="-0.49529">
        <ele>63.6</ele>
        <time>2021-03-21T09:10:03Z</time>
      </trkpt>
      <trkpt lat="46.19753" lon="-0.49538">
        <ele>63.6</ele>
        <time>2021-03-21T09:10:04Z</time>
      </trkpt>
      <trkpt lat="46.19751" lon="-0.49552">
        <ele>63.8</ele>
        <time>2021-03-21T09:10:05Z</time>
      </trkpt>
      <trkpt lat="46.19749" lon="-0.49562">
        <ele>63.8</ele>
        <time>2021-03-21T09:10:06Z</time>
      </trkpt>
      <trkpt lat="46.19747" lon="-0.49572">
        <ele>64</ele>
        <time>2021-03-21T09:10:07Z</time>
      </trkpt>
      <trkpt lat="46.19745" lon="-0.4958">
        <ele>64.2</ele>
        <time>2021-03-21T09:10:08Z</time>
      </trkpt>
      <trkpt lat="46.19744" lon="-0.49591">
        <ele>64.4</ele>
        <time>2021-03-21T09:10:09Z</time>
      </trkpt>
      <trkpt lat="46.19742" lon="-0.49599">
        <ele>64.6</ele>
        <time>2021-03-21T09:10:10Z</time>
      </trkpt>
      <trkpt lat="46.1974" lon="-0.49606">
        <ele>64.6</ele>
        <time>2021-03-21T09:10:11Z</time>
      </trkpt>
      <trkpt lat="46.19736" lon="-0.49608">
        <ele>64.8</ele>
        <time>2021-03-21T09:10:12Z</time>
      </trkpt>
      <trkpt lat="46.19733" lon="-0.49607">
        <ele>64.8</ele>
        <time>2021-03-21T09:10:13Z</time>
      </trkpt>
      <trkpt lat="46.19729" lon="-0.49604">
        <ele>64.8</ele>
        <time>2021-03-21T09:10:14Z</time>
      </trkpt>
      <trkpt lat="46.19726" lon="-0.496">
        <ele>65</ele>
        <time>2021-03-21T09:10:15Z</time>
      </trkpt>
      <trkpt lat="46.19723" lon="-0.49595">
        <ele>65</ele>
        <time>2021-03-21T09:10:16Z</time>
      </trkpt>
      <trkpt lat="46.19719" lon="-0.49591">
        <ele>65.2</ele>
        <time>2021-03-21T09:10:17Z</time>
      </trkpt>
      <trkpt lat="46.19714" lon="-0.49584">
        <ele>65.6</ele>
        <time>2021-03-21T09:10:18Z</time>
      </trkpt>
      <trkpt lat="46.1971" lon="-0.49578">
        <ele>66</ele>
        <time>2021-03-21T09:10:19Z</time>
      </trkpt>
      <trkpt lat="46.19705" lon="-0.49571">
        <ele>66.2</ele>
        <time>2021-03-21T09:10:20Z</time>
      </trkpt>
      <trkpt lat="46.19701" lon="-0.49565">
        <ele>66.4</ele>
        <time>2021-03-21T09:10:21Z</time>
      </trkpt>
      <trkpt lat="46.19696" lon="-0.49558">
        <ele>66.6</ele>
        <time>2021-03-21T09:10:22Z</time>
      </trkpt>
      <trkpt lat="46.1969" lon="-0.49551">
        <ele>66.8</ele>
        <time>2021-03-21T09:10:23Z</time>
      </trkpt>
      <trkpt lat="46.19685" lon="-0.49544">
        <ele>66.8</ele>
        <time>2021-03-21T09:10:24Z</time>
      </trkpt>
      <trkpt lat="46.1968" lon="-0.49538">
        <ele>67</ele>
        <time>2021-03-21T09:10:25Z</time>
      </trkpt>
      <trkpt lat="46.19676" lon="-0.49533">
        <ele>67</ele>
        <time>2021-03-21T09:10:26Z</time>
      </trkpt>
      <trkpt lat="46.19669" lon="-0.49527">
        <ele>67</ele>
        <time>2021-03-21T09:10:27Z</time>
      </trkpt>
      <trkpt lat="46.19664" lon="-0.4952">
        <ele>67</ele>
        <time>2021-03-21T09:10:28Z</time>
      </trkpt>
      <trkpt lat="46.19659" lon="-0.49514">
        <ele>67</ele>
        <time>2021-03-21T09:10:29Z</time>
      </trkpt>
      <trkpt lat="46.19655" lon="-0.4951">
        <ele>67</ele>
        <time>2021-03-21T09:10:30Z</time>
      </trkpt>
      <trkpt lat="46.19649" lon="-0.49504">
        <ele>67</ele>
        <time>2021-03-21T09:10:31Z</time>
      </trkpt>
      <trkpt lat="46.19643" lon="-0.49496">
        <ele>67</ele>
        <time>2021-03-21T09:10:32Z</time>
      </trkpt>
      <trkpt lat="46.19638" lon="-0.4949">
        <ele>67</ele>
        <time>2021-03-21T09:10:33Z</time>
      </trkpt>
      <trkpt lat="46.19633" lon="-0.49484">
        <ele>66.8</ele>
        <time>2021-03-21T09:10:34Z</time>
      </trkpt>
      <trkpt lat="46.19629" lon="-0.49479">
        <ele>66.8</ele>
        <time>2021-03-21T09:10:35Z</time>
      </trkpt>
      <trkpt lat="46.19623" lon="-0.49472">
        <ele>66.8</ele>
        <time>2021-03-21T09:10:36Z</time>
      </trkpt>
      <trkpt lat="46.19618" lon="-0.49466">
        <ele>66.8</ele>
        <time>2021-03-21T09:10:37Z</time>
      </trkpt>
      <trkpt lat="46.19613" lon="-0.49459">
        <ele>66.8</ele>
        <time>2021-03-21T09:10:38Z</time>
      </trkpt>
      <trkpt lat="46.1958" lon="-0.49414">
        <ele>66.2</ele>
        <time>2021-03-21T09:10:45Z</time>
      </trkpt>
      <trkpt lat="46.19571" lon="-0.494">
        <ele>66</ele>
        <time>2021-03-21T09:10:47Z</time>
      </trkpt>
      <trkpt lat="46.19569" lon="-0.49394">
        <ele>65.8</ele>
        <time>2021-03-21T09:10:48Z</time>
      </trkpt>
      <trkpt lat="46.19566" lon="-0.49384">
        <ele>65.8</ele>
        <time>2021-03-21T09:10:49Z</time>
      </trkpt>
      <trkpt lat="46.19562" lon="-0.49377">
        <ele>65.6</ele>
        <time>2021-03-21T09:10:50Z</time>
      </trkpt>
      <trkpt lat="46.19559" lon="-0.4937">
        <ele>65.6</ele>
        <time>2021-03-21T09:10:51Z</time>
      </trkpt>
      <trkpt lat="46.19555" lon="-0.49362">
        <ele>65.6</ele>
        <time>2021-03-21T09:10:52Z</time>
      </trkpt>
      <trkpt lat="46.19543" lon="-0.4934">
        <ele>65.4</ele>
        <time>2021-03-21T09:10:55Z</time>
      </trkpt>
      <trkpt lat="46.19539" lon="-0.49332">
        <ele>65.4</ele>
        <time>2021-03-21T09:10:56Z</time>
      </trkpt>
      <trkpt lat="46.19536" lon="-0.49326">
        <ele>65.4</ele>
        <time>2021-03-21T09:10:57Z</time>
      </trkpt>
      <trkpt lat="46.19531" lon="-0.49317">
        <ele>65</ele>
        <time>2021-03-21T09:10:58Z</time>
      </trkpt>
      <trkpt lat="46.1951" lon="-0.4927">
        <ele>64</ele>
        <time>2021-03-21T09:11:04Z</time>
      </trkpt>
      <trkpt lat="46.19507" lon="-0.49264">
        <ele>63.8</ele>
        <time>2021-03-21T09:11:05Z</time>
      </trkpt>
      <trkpt lat="46.19491" lon="-0.49231">
        <ele>62.8</ele>
        <time>2021-03-21T09:11:09Z</time>
      </trkpt>
      <trkpt lat="46.19487" lon="-0.49222">
        <ele>62.6</ele>
        <time>2021-03-21T09:11:10Z</time>
      </trkpt>
      <trkpt lat="46.19472" lon="-0.49197">
        <ele>62</ele>
        <time>2021-03-21T09:11:13Z</time>
      </trkpt>
      <trkpt lat="46.19465" lon="-0.4919">
        <ele>61.6</ele>
        <time>2021-03-21T09:11:14Z</time>
      </trkpt>
      <trkpt lat="46.1946" lon="-0.49184">
        <ele>61.4</ele>
        <time>2021-03-21T09:11:15Z</time>
      </trkpt>
      <trkpt lat="46.19451" lon="-0.49177">
        <ele>61</ele>
        <time>2021-03-21T09:11:16Z</time>
      </trkpt>
      <trkpt lat="46.19438" lon="-0.49167">
        <ele>60.6</ele>
        <time>2021-03-21T09:11:18Z</time>
      </trkpt>
      <trkpt lat="46.19433" lon="-0.49162">
        <ele>60.2</ele>
        <time>2021-03-21T09:11:19Z</time>
      </trkpt>
      <trkpt lat="46.19427" lon="-0.49155">
        <ele>60</ele>
        <time>2021-03-21T09:11:20Z</time>
      </trkpt>
      <trkpt lat="46.1942" lon="-0.49146">
        <ele>59.8</ele>
        <time>2021-03-21T09:11:21Z</time>
      </trkpt>
      <trkpt lat="46.19415" lon="-0.49139">
        <ele>59.6</ele>
        <time>2021-03-21T09:11:22Z</time>
      </trkpt>
      <trkpt lat="46.19407" lon="-0.49125">
        <ele>59.6</ele>
        <time>2021-03-21T09:11:24Z</time>
      </trkpt>
      <trkpt lat="46.19402" lon="-0.49114">
        <ele>59.6</ele>
        <time>2021-03-21T09:11:25Z</time>
      </trkpt>
      <trkpt lat="46.19399" lon="-0.49106">
        <ele>59.4</ele>
        <time>2021-03-21T09:11:26Z</time>
      </trkpt>
      <trkpt lat="46.19396" lon="-0.49094">
        <ele>59.4</ele>
        <time>2021-03-21T09:11:27Z</time>
      </trkpt>
      <trkpt lat="46.19393" lon="-0.49085">
        <ele>59.2</ele>
        <time>2021-03-21T09:11:28Z</time>
      </trkpt>
      <trkpt lat="46.19375" lon="-0.49031">
        <ele>59.2</ele>
        <time>2021-03-21T09:11:33Z</time>
      </trkpt>
      <trkpt lat="46.19355" lon="-0.48967">
        <ele>59.2</ele>
        <time>2021-03-21T09:11:39Z</time>
      </trkpt>
      <trkpt lat="46.19342" lon="-0.48926">
        <ele>59.2</ele>
        <time>2021-03-21T09:11:43Z</time>
      </trkpt>
      <trkpt lat="46.19331" lon="-0.489">
        <ele>59.2</ele>
        <time>2021-03-21T09:11:46Z</time>
      </trkpt>
      <trkpt lat="46.19304" lon="-0.48843">
        <ele>59.2</ele>
        <time>2021-03-21T09:11:52Z</time>
      </trkpt>
      <trkpt lat="46.193" lon="-0.48835">
        <ele>59.2</ele>
        <time>2021-03-21T09:11:53Z</time>
      </trkpt>
      <trkpt lat="46.19294" lon="-0.48827">
        <ele>59.2</ele>
        <time>2021-03-21T09:11:54Z</time>
      </trkpt>
      <trkpt lat="46.19283" lon="-0.48812">
        <ele>59.2</ele>
        <time>2021-03-21T09:11:56Z</time>
      </trkpt>
      <trkpt lat="46.19278" lon="-0.48805">
        <ele>59</ele>
        <time>2021-03-21T09:11:57Z</time>
      </trkpt>
      <trkpt lat="46.19273" lon="-0.48799">
        <ele>59</ele>
        <time>2021-03-21T09:11:58Z</time>
      </trkpt>
      <trkpt lat="46.19268" lon="-0.48795">
        <ele>59</ele>
        <time>2021-03-21T09:11:59Z</time>
      </trkpt>
      <trkpt lat="46.19264" lon="-0.48791">
        <ele>59</ele>
        <time>2021-03-21T09:12:00Z</time>
      </trkpt>
      <trkpt lat="46.19259" lon="-0.48785">
        <ele>59.2</ele>
        <time>2021-03-21T09:12:01Z</time>
      </trkpt>
      <trkpt lat="46.19256" lon="-0.48779">
        <ele>59.2</ele>
        <time>2021-03-21T09:12:02Z</time>
      </trkpt>
      <trkpt lat="46.19256" lon="-0.48774">
        <ele>59.2</ele>
        <time>2021-03-21T09:12:03Z</time>
      </trkpt>
      <trkpt lat="46.19258" lon="-0.4877">
        <ele>59.2</ele>
        <time>2021-03-21T09:12:04Z</time>
      </trkpt>
      <trkpt lat="46.19262" lon="-0.48766">
        <ele>59</ele>
        <time>2021-03-21T09:12:05Z</time>
      </trkpt>
      <trkpt lat="46.19267" lon="-0.48763">
        <ele>59</ele>
        <time>2021-03-21T09:12:06Z</time>
      </trkpt>
      <trkpt lat="46.19273" lon="-0.48761">
        <ele>59</ele>
        <time>2021-03-21T09:12:07Z</time>
      </trkpt>
      <trkpt lat="46.19277" lon="-0.48759">
        <ele>59</ele>
        <time>2021-03-21T09:12:08Z</time>
      </trkpt>
      <trkpt lat="46.19288" lon="-0.48756">
        <ele>59</ele>
        <time>2021-03-21T09:12:10Z</time>
      </trkpt>
      <trkpt lat="46.19299" lon="-0.48754">
        <ele>59</ele>
        <time>2021-03-21T09:12:12Z</time>
      </trkpt>
      <trkpt lat="46.19325" lon="-0.48747">
        <ele>58.6</ele>
        <time>2021-03-21T09:12:16Z</time>
      </trkpt>
      <trkpt lat="46.19337" lon="-0.48744">
        <ele>58.4</ele>
        <time>2021-03-21T09:12:18Z</time>
      </trkpt>
      <trkpt lat="46.19343" lon="-0.48742">
        <ele>58.2</ele>
        <time>2021-03-21T09:12:19Z</time>
      </trkpt>
      <trkpt lat="46.19349" lon="-0.4874">
        <ele>58</ele>
        <time>2021-03-21T09:12:20Z</time>
      </trkpt>
      <trkpt lat="46.19354" lon="-0.48737">
        <ele>58</ele>
        <time>2021-03-21T09:12:21Z</time>
      </trkpt>
      <trkpt lat="46.19401" lon="-0.48704">
        <ele>57.2</ele>
        <time>2021-03-21T09:12:29Z</time>
      </trkpt>
      <trkpt lat="46.19433" lon="-0.48681">
        <ele>57.2</ele>
        <time>2021-03-21T09:12:35Z</time>
      </trkpt>
      <trkpt lat="46.19439" lon="-0.48676">
        <ele>57.2</ele>
        <time>2021-03-21T09:12:36Z</time>
      </trkpt>
      <trkpt lat="46.19441" lon="-0.48671">
        <ele>57.2</ele>
        <time>2021-03-21T09:12:37Z</time>
      </trkpt>
      <trkpt lat="46.19441" lon="-0.48665">
        <ele>57.2</ele>
        <time>2021-03-21T09:12:38Z</time>
      </trkpt>
      <trkpt lat="46.19439" lon="-0.4866">
        <ele>57.2</ele>
        <time>2021-03-21T09:12:39Z</time>
      </trkpt>
      <trkpt lat="46.19437" lon="-0.48655">
        <ele>57.2</ele>
        <time>2021-03-21T09:12:40Z</time>
      </trkpt>
      <trkpt lat="46.19432" lon="-0.48648">
        <ele>57.4</ele>
        <time>2021-03-21T09:12:41Z</time>
      </trkpt>
      <trkpt lat="46.19428" lon="-0.48642">
        <ele>57.4</ele>
        <time>2021-03-21T09:12:42Z</time>
      </trkpt>
      <trkpt lat="46.19406" lon="-0.48602">
        <ele>58.6</ele>
        <time>2021-03-21T09:12:47Z</time>
      </trkpt>
      <trkpt lat="46.19398" lon="-0.48587">
        <ele>59</ele>
        <time>2021-03-21T09:12:49Z</time>
      </trkpt>
      <trkpt lat="46.19383" lon="-0.4856">
        <ele>59.2</ele>
        <time>2021-03-21T09:12:52Z</time>
      </trkpt>
      <trkpt lat="46.19357" lon="-0.48512">
        <ele>59.2</ele>
        <time>2021-03-21T09:12:57Z</time>
      </trkpt>
      <trkpt lat="46.1933" lon="-0.48463">
        <ele>59.2</ele>
        <time>2021-03-21T09:13:02Z</time>
      </trkpt>
      <trkpt lat="46.19305" lon="-0.48421">
        <ele>58.2</ele>
        <time>2021-03-21T09:13:06Z</time>
      </trkpt>
      <trkpt lat="46.19291" lon="-0.48399">
        <ele>57.6</ele>
        <time>2021-03-21T09:13:08Z</time>
      </trkpt>
      <trkpt lat="46.19284" lon="-0.48389">
        <ele>56.8</ele>
        <time>2021-03-21T09:13:09Z</time>
      </trkpt>
      <trkpt lat="46.19278" lon="-0.48379">
        <ele>55.6</ele>
        <time>2021-03-21T09:13:10Z</time>
      </trkpt>
      <trkpt lat="46.19265" lon="-0.48359">
        <ele>54.2</ele>
        <time>2021-03-21T09:13:12Z</time>
      </trkpt>
      <trkpt lat="46.19247" lon="-0.4833">
        <ele>52.8</ele>
        <time>2021-03-21T09:13:15Z</time>
      </trkpt>
      <trkpt lat="46.19235" lon="-0.48305">
        <ele>52</ele>
        <time>2021-03-21T09:13:17Z</time>
      </trkpt>
      <trkpt lat="46.1923" lon="-0.48295">
        <ele>51.4</ele>
        <time>2021-03-21T09:13:18Z</time>
      </trkpt>
      <trkpt lat="46.19216" lon="-0.48264">
        <ele>50</ele>
        <time>2021-03-21T09:13:21Z</time>
      </trkpt>
      <trkpt lat="46.19211" lon="-0.48254">
        <ele>49.4</ele>
        <time>2021-03-21T09:13:22Z</time>
      </trkpt>
      <trkpt lat="46.19206" lon="-0.48245">
        <ele>48.8</ele>
        <time>2021-03-21T09:13:23Z</time>
      </trkpt>
      <trkpt lat="46.19202" lon="-0.48239">
        <ele>48.6</ele>
        <time>2021-03-21T09:13:24Z</time>
      </trkpt>
      <trkpt lat="46.19195" lon="-0.48229">
        <ele>48.4</ele>
        <time>2021-03-21T09:13:25Z</time>
      </trkpt>
      <trkpt lat="46.19189" lon="-0.48223">
        <ele>48.4</ele>
        <time>2021-03-21T09:13:26Z</time>
      </trkpt>
      <trkpt lat="46.19183" lon="-0.48216">
        <ele>48.4</ele>
        <time>2021-03-21T09:13:27Z</time>
      </trkpt>
      <trkpt lat="46.19171" lon="-0.48205">
        <ele>48.4</ele>
        <time>2021-03-21T09:13:29Z</time>
      </trkpt>
      <trkpt lat="46.19138" lon="-0.48168">
        <ele>48.8</ele>
        <time>2021-03-21T09:13:34Z</time>
      </trkpt>
      <trkpt lat="46.19118" lon="-0.48133">
        <ele>50</ele>
        <time>2021-03-21T09:13:38Z</time>
      </trkpt>
      <trkpt lat="46.19108" lon="-0.48111">
        <ele>50.4</ele>
        <time>2021-03-21T09:13:40Z</time>
      </trkpt>
      <trkpt lat="46.19085" lon="-0.48035">
        <ele>50.6</ele>
        <time>2021-03-21T09:13:47Z</time>
      </trkpt>
      <trkpt lat="46.19076" lon="-0.47999">
        <ele>50.4</ele>
        <time>2021-03-21T09:13:50Z</time>
      </trkpt>
      <trkpt lat="46.19073" lon="-0.47991">
        <ele>50.2</ele>
        <time>2021-03-21T09:13:51Z</time>
      </trkpt>
      <trkpt lat="46.19069" lon="-0.47978">
        <ele>50</ele>
        <time>2021-03-21T09:13:52Z</time>
      </trkpt>
      <trkpt lat="46.19066" lon="-0.47968">
        <ele>49.8</ele>
        <time>2021-03-21T09:13:53Z</time>
      </trkpt>
      <trkpt lat="46.19062" lon="-0.47958">
        <ele>49.6</ele>
        <time>2021-03-21T09:13:54Z</time>
      </trkpt>
      <trkpt lat="46.19058" lon="-0.47947">
        <ele>49.4</ele>
        <time>2021-03-21T09:13:55Z</time>
      </trkpt>
      <trkpt lat="46.19054" lon="-0.4794">
        <ele>49.4</ele>
        <time>2021-03-21T09:13:56Z</time>
      </trkpt>
      <trkpt lat="46.19049" lon="-0.47932">
        <ele>49.4</ele>
        <time>2021-03-21T09:13:57Z</time>
      </trkpt>
      <trkpt lat="46.19034" lon="-0.47922">
        <ele>49</ele>
        <time>2021-03-21T09:13:59Z</time>
      </trkpt>
      <trkpt lat="46.19028" lon="-0.47921">
        <ele>48.8</ele>
        <time>2021-03-21T09:14:00Z</time>
      </trkpt>
      <trkpt lat="46.19019" lon="-0.4792">
        <ele>48.8</ele>
        <time>2021-03-21T09:14:01Z</time>
      </trkpt>
      <trkpt lat="46.19011" lon="-0.4792">
        <ele>48.2</ele>
        <time>2021-03-21T09:14:02Z</time>
      </trkpt>
      <trkpt lat="46.19003" lon="-0.4792">
        <ele>47.6</ele>
        <time>2021-03-21T09:14:03Z</time>
      </trkpt>
      <trkpt lat="46.18979" lon="-0.47922">
        <ele>47.2</ele>
        <time>2021-03-21T09:14:06Z</time>
      </trkpt>
      <trkpt lat="46.18971" lon="-0.47922">
        <ele>47</ele>
        <time>2021-03-21T09:14:07Z</time>
      </trkpt>
      <trkpt lat="46.18964" lon="-0.4792">
        <ele>47</ele>
        <time>2021-03-21T09:14:08Z</time>
      </trkpt>
      <trkpt lat="46.18958" lon="-0.47917">
        <ele>47</ele>
        <time>2021-03-21T09:14:09Z</time>
      </trkpt>
      <trkpt lat="46.18949" lon="-0.47913">
        <ele>47</ele>
        <time>2021-03-21T09:14:10Z</time>
      </trkpt>
      <trkpt lat="46.1893" lon="-0.47898">
        <ele>47</ele>
        <time>2021-03-21T09:14:13Z</time>
      </trkpt>
      <trkpt lat="46.18925" lon="-0.47893">
        <ele>47</ele>
        <time>2021-03-21T09:14:14Z</time>
      </trkpt>
      <trkpt lat="46.18913" lon="-0.47881">
        <ele>47</ele>
        <time>2021-03-21T09:14:16Z</time>
      </trkpt>
      <trkpt lat="46.18904" lon="-0.47869">
        <ele>48</ele>
        <time>2021-03-21T09:14:18Z</time>
      </trkpt>
      <trkpt lat="46.18899" lon="-0.47861">
        <ele>48.4</ele>
        <time>2021-03-21T09:14:19Z</time>
      </trkpt>
      <trkpt lat="46.18895" lon="-0.47854">
        <ele>48.8</ele>
        <time>2021-03-21T09:14:20Z</time>
      </trkpt>
      <trkpt lat="46.18891" lon="-0.47845">
        <ele>49</ele>
        <time>2021-03-21T09:14:21Z</time>
      </trkpt>
      <trkpt lat="46.18889" lon="-0.47839">
        <ele>49.8</ele>
        <time>2021-03-21T09:14:22Z</time>
      </trkpt>
      <trkpt lat="46.18886" lon="-0.4783">
        <ele>50.4</ele>
        <time>2021-03-21T09:14:23Z</time>
      </trkpt>
      <trkpt lat="46.18884" lon="-0.4782">
        <ele>51</ele>
        <time>2021-03-21T09:14:24Z</time>
      </trkpt>
      <trkpt lat="46.18882" lon="-0.47811">
        <ele>51.4</ele>
        <time>2021-03-21T09:14:25Z</time>
      </trkpt>
      <trkpt lat="46.18881" lon="-0.47802">
        <ele>51.8</ele>
        <time>2021-03-21T09:14:26Z</time>
      </trkpt>
      <trkpt lat="46.1888" lon="-0.47794">
        <ele>52.2</ele>
        <time>2021-03-21T09:14:27Z</time>
      </trkpt>
      <trkpt lat="46.18878" lon="-0.47773">
        <ele>53.2</ele>
        <time>2021-03-21T09:14:29Z</time>
      </trkpt>
      <trkpt lat="46.18876" lon="-0.47765">
        <ele>53.8</ele>
        <time>2021-03-21T09:14:30Z</time>
      </trkpt>
      <trkpt lat="46.18872" lon="-0.47761">
        <ele>54.2</ele>
        <time>2021-03-21T09:14:31Z</time>
      </trkpt>
      <trkpt lat="46.18864" lon="-0.47757">
        <ele>54.8</ele>
        <time>2021-03-21T09:14:32Z</time>
      </trkpt>
      <trkpt lat="46.18858" lon="-0.47757">
        <ele>54.8</ele>
        <time>2021-03-21T09:14:33Z</time>
      </trkpt>
      <trkpt lat="46.18851" lon="-0.47757">
        <ele>55.4</ele>
        <time>2021-03-21T09:14:34Z</time>
      </trkpt>
      <trkpt lat="46.18844" lon="-0.47757">
        <ele>55.8</ele>
        <time>2021-03-21T09:14:35Z</time>
      </trkpt>
      <trkpt lat="46.18839" lon="-0.47757">
        <ele>56.2</ele>
        <time>2021-03-21T09:14:36Z</time>
      </trkpt>
      <trkpt lat="46.1883" lon="-0.47757">
        <ele>56.4</ele>
        <time>2021-03-21T09:14:37Z</time>
      </trkpt>
      <trkpt lat="46.18823" lon="-0.47758">
        <ele>56.8</ele>
        <time>2021-03-21T09:14:38Z</time>
      </trkpt>
      <trkpt lat="46.18816" lon="-0.47758">
        <ele>57.2</ele>
        <time>2021-03-21T09:14:39Z</time>
      </trkpt>
      <trkpt lat="46.18811" lon="-0.47758">
        <ele>57.8</ele>
        <time>2021-03-21T09:14:40Z</time>
      </trkpt>
      <trkpt lat="46.18804" lon="-0.47759">
        <ele>58.2</ele>
        <time>2021-03-21T09:14:41Z</time>
      </trkpt>
      <trkpt lat="46.18798" lon="-0.47758">
        <ele>58.4</ele>
        <time>2021-03-21T09:14:42Z</time>
      </trkpt>
      <trkpt lat="46.18792" lon="-0.47757">
        <ele>58.6</ele>
        <time>2021-03-21T09:14:43Z</time>
      </trkpt>
      <trkpt lat="46.18785" lon="-0.47758">
        <ele>58.8</ele>
        <time>2021-03-21T09:14:44Z</time>
      </trkpt>
      <trkpt lat="46.18779" lon="-0.47758">
        <ele>59</ele>
        <time>2021-03-21T09:14:45Z</time>
      </trkpt>
      <trkpt lat="46.1877" lon="-0.47758">
        <ele>59.2</ele>
        <time>2021-03-21T09:14:46Z</time>
      </trkpt>
      <trkpt lat="46.18763" lon="-0.47758">
        <ele>59.4</ele>
        <time>2021-03-21T09:14:47Z</time>
      </trkpt>
      <trkpt lat="46.18756" lon="-0.47759">
        <ele>59.8</ele>
        <time>2021-03-21T09:14:48Z</time>
      </trkpt>
      <trkpt lat="46.1875" lon="-0.47759">
        <ele>60</ele>
        <time>2021-03-21T09:14:49Z</time>
      </trkpt>
      <trkpt lat="46.1874" lon="-0.47758">
        <ele>60.2</ele>
        <time>2021-03-21T09:14:50Z</time>
      </trkpt>
      <trkpt lat="46.18732" lon="-0.47758">
        <ele>60.2</ele>
        <time>2021-03-21T09:14:51Z</time>
      </trkpt>
      <trkpt lat="46.18724" lon="-0.47758">
        <ele>60.4</ele>
        <time>2021-03-21T09:14:52Z</time>
      </trkpt>
      <trkpt lat="46.18716" lon="-0.47757">
        <ele>60.4</ele>
        <time>2021-03-21T09:14:53Z</time>
      </trkpt>
      <trkpt lat="46.1871" lon="-0.47756">
        <ele>60.4</ele>
        <time>2021-03-21T09:14:54Z</time>
      </trkpt>
      <trkpt lat="46.18701" lon="-0.47754">
        <ele>60.6</ele>
        <time>2021-03-21T09:14:55Z</time>
      </trkpt>
      <trkpt lat="46.18693" lon="-0.47753">
        <ele>60.6</ele>
        <time>2021-03-21T09:14:56Z</time>
      </trkpt>
      <trkpt lat="46.18686" lon="-0.47752">
        <ele>60.8</ele>
        <time>2021-03-21T09:14:57Z</time>
      </trkpt>
      <trkpt lat="46.1868" lon="-0.47751">
        <ele>60.8</ele>
        <time>2021-03-21T09:14:58Z</time>
      </trkpt>
      <trkpt lat="46.18672" lon="-0.4775">
        <ele>60.8</ele>
        <time>2021-03-21T09:14:59Z</time>
      </trkpt>
      <trkpt lat="46.18666" lon="-0.4775">
        <ele>61</ele>
        <time>2021-03-21T09:15:00Z</time>
      </trkpt>
      <trkpt lat="46.18661" lon="-0.47754">
        <ele>61</ele>
        <time>2021-03-21T09:15:01Z</time>
      </trkpt>
      <trkpt lat="46.1866" lon="-0.47761">
        <ele>61.2</ele>
        <time>2021-03-21T09:15:02Z</time>
      </trkpt>
      <trkpt lat="46.18661" lon="-0.47768">
        <ele>61.2</ele>
        <time>2021-03-21T09:15:03Z</time>
      </trkpt>
      <trkpt lat="46.18661" lon="-0.47778">
        <ele>61.2</ele>
        <time>2021-03-21T09:15:04Z</time>
      </trkpt>
      <trkpt lat="46.18661" lon="-0.47786">
        <ele>61.4</ele>
        <time>2021-03-21T09:15:05Z</time>
      </trkpt>
      <trkpt lat="46.1866" lon="-0.47794">
        <ele>61.6</ele>
        <time>2021-03-21T09:15:06Z</time>
      </trkpt>
      <trkpt lat="46.18658" lon="-0.47798">
        <ele>61.6</ele>
        <time>2021-03-21T09:15:07Z</time>
      </trkpt>
      <trkpt lat="46.18653" lon="-0.47801">
        <ele>61.6</ele>
        <time>2021-03-21T09:15:08Z</time>
      </trkpt>
      <trkpt lat="46.18647" lon="-0.47801">
        <ele>61.8</ele>
        <time>2021-03-21T09:15:09Z</time>
      </trkpt>
      <trkpt lat="46.1864" lon="-0.47801">
        <ele>61.8</ele>
        <time>2021-03-21T09:15:10Z</time>
      </trkpt>
      <trkpt lat="46.18632" lon="-0.478">
        <ele>62</ele>
        <time>2021-03-21T09:15:11Z</time>
      </trkpt>
      <trkpt lat="46.18626" lon="-0.47801">
        <ele>62</ele>
        <time>2021-03-21T09:15:12Z</time>
      </trkpt>
      <trkpt lat="46.18617" lon="-0.47803">
        <ele>62</ele>
        <time>2021-03-21T09:15:13Z</time>
      </trkpt>
      <trkpt lat="46.18609" lon="-0.47805">
        <ele>62</ele>
        <time>2021-03-21T09:15:14Z</time>
      </trkpt>
      <trkpt lat="46.18603" lon="-0.47808">
        <ele>61.8</ele>
        <time>2021-03-21T09:15:15Z</time>
      </trkpt>
      <trkpt lat="46.18601" lon="-0.47813">
        <ele>61.8</ele>
        <time>2021-03-21T09:15:16Z</time>
      </trkpt>
      <trkpt lat="46.186" lon="-0.47822">
        <ele>61.6</ele>
        <time>2021-03-21T09:15:17Z</time>
      </trkpt>
      <trkpt lat="46.18601" lon="-0.47829">
        <ele>61.2</ele>
        <time>2021-03-21T09:15:18Z</time>
      </trkpt>
      <trkpt lat="46.18603" lon="-0.47834">
        <ele>61.2</ele>
        <time>2021-03-21T09:15:19Z</time>
      </trkpt>
      <trkpt lat="46.18604" lon="-0.47839">
        <ele>61</ele>
        <time>2021-03-21T09:15:20Z</time>
      </trkpt>
      <trkpt lat="46.18607" lon="-0.47844">
        <ele>61</ele>
        <time>2021-03-21T09:15:21Z</time>
      </trkpt>
      <trkpt lat="46.18609" lon="-0.47849">
        <ele>60.8</ele>
        <time>2021-03-21T09:15:22Z</time>
      </trkpt>
      <trkpt lat="46.1861" lon="-0.47852">
        <ele>60.8</ele>
        <time>2021-03-21T09:15:23Z</time>
      </trkpt>
      <trkpt lat="46.18611" lon="-0.47854">
        <ele>60.8</ele>
        <time>2021-03-21T09:15:24Z</time>
      </trkpt>
      <trkpt lat="46.18611" lon="-0.47854">
        <ele>60.8</ele>
        <time>2021-03-21T09:15:25Z</time>
      </trkpt>
      <trkpt lat="46.18611" lon="-0.47854">
        <ele>60.8</ele>
        <time>2021-03-21T09:15:26Z</time>
      </trkpt>
      <trkpt lat="46.18615" lon="-0.47855">
        <ele>61.4</ele>
        <time>2021-03-21T09:16:33Z</time>
      </trkpt>
      <trkpt lat="46.18622" lon="-0.47862">
        <ele>61.4</ele>
        <time>2021-03-21T09:16:35Z</time>
      </trkpt>
      <trkpt lat="46.18625" lon="-0.47867">
        <ele>61.4</ele>
        <time>2021-03-21T09:16:36Z</time>
      </trkpt>
      <trkpt lat="46.18628" lon="-0.47872">
        <ele>61.4</ele>
        <time>2021-03-21T09:16:37Z</time>
      </trkpt>
      <trkpt lat="46.18631" lon="-0.47877">
        <ele>61.4</ele>
        <time>2021-03-21T09:16:38Z</time>
      </trkpt>
      <trkpt lat="46.18635" lon="-0.47883">
        <ele>61.2</ele>
        <time>2021-03-21T09:16:39Z</time>
      </trkpt>
      <trkpt lat="46.18638" lon="-0.47887">
        <ele>61.2</ele>
        <time>2021-03-21T09:16:40Z</time>
      </trkpt>
      <trkpt lat="46.18641" lon="-0.4789">
        <ele>61.2</ele>
        <time>2021-03-21T09:16:41Z</time>
      </trkpt>
      <trkpt lat="46.18644" lon="-0.47889">
        <ele>61.2</ele>
        <time>2021-03-21T09:16:42Z</time>
      </trkpt>
      <trkpt lat="46.18648" lon="-0.47886">
        <ele>61</ele>
        <time>2021-03-21T09:16:43Z</time>
      </trkpt>
      <trkpt lat="46.1865" lon="-0.47884">
        <ele>61</ele>
        <time>2021-03-21T09:16:44Z</time>
      </trkpt>
      <trkpt lat="46.18652" lon="-0.47882">
        <ele>60.8</ele>
        <time>2021-03-21T09:16:45Z</time>
      </trkpt>
      <trkpt lat="46.18653" lon="-0.47882">
        <ele>60.8</ele>
        <time>2021-03-21T09:16:46Z</time>
      </trkpt>
      <trkpt lat="46.18653" lon="-0.47882">
        <ele>60.8</ele>
        <time>2021-03-21T09:16:47Z</time>
      </trkpt>
      <trkpt lat="46.18653" lon="-0.47882">
        <ele>60.8</ele>
        <time>2021-03-21T09:16:48Z</time>
      </trkpt>
    </trkseg>
  </trk>
</gpx>